<?xml version="1.0" encoding="UTF-8" standalone="no" ?>
<gpx xmlns="http://www.topografix.com/GPX/1/1" xmlns:xsi="http://www.w3.org/2001/XMLSchema-instance" xsi:schemaLocation="http://www.topografix.com/GPX/1/1 http://www.topografix.com/GPX/1/1/gpx.xsd" version="1.1" creator="VisuGPX - https://www.visugpx.com">
  <metadata>
    <name>Marche Nordique</name>
    <desc><![CDATA[Sur la neige]]></desc>
  </metadata>
  <trk>
    <name><![CDATA[19/01/13 08:10]]></name>
    <desc><![CDATA[]]></desc>
    <trkseg>
      <trkpt lat="47.29787" lon="4.93628">
        <ele>531</ele>
        <time>2013-01-19T07:10:46Z</time>
      </trkpt>
      <trkpt lat="47.29798" lon="4.93612">
        <ele>538</ele>
        <time>2013-01-19T07:11:04Z</time>
      </trkpt>
      <trkpt lat="47.29782" lon="4.93628">
        <ele>525</ele>
        <time>2013-01-19T07:11:05Z</time>
      </trkpt>
      <trkpt lat="47.2981" lon="4.93599">
        <ele>574</ele>
        <time>2013-01-19T07:11:07Z</time>
      </trkpt>
      <trkpt lat="47.2981" lon="4.93606">
        <ele>570</ele>
        <time>2013-01-19T07:11:08Z</time>
      </trkpt>
      <trkpt lat="47.29801" lon="4.93595">
        <ele>569</ele>
        <time>2013-01-19T07:11:09Z</time>
      </trkpt>
      <trkpt lat="47.29805" lon="4.93587">
        <ele>566</ele>
        <time>2013-01-19T07:11:11Z</time>
      </trkpt>
      <trkpt lat="47.29792" lon="4.93616">
        <ele>563</ele>
        <time>2013-01-19T07:11:14Z</time>
      </trkpt>
      <trkpt lat="47.29789" lon="4.93621">
        <ele>562</ele>
        <time>2013-01-19T07:11:15Z</time>
      </trkpt>
      <trkpt lat="47.29782" lon="4.93632">
        <ele>552</ele>
        <time>2013-01-19T07:12:13Z</time>
      </trkpt>
      <trkpt lat="47.29786" lon="4.93628">
        <ele>549</ele>
        <time>2013-01-19T07:12:30Z</time>
      </trkpt>
      <trkpt lat="47.2979" lon="4.93623">
        <ele>548</ele>
        <time>2013-01-19T07:12:33Z</time>
      </trkpt>
      <trkpt lat="47.29793" lon="4.93616">
        <ele>548</ele>
        <time>2013-01-19T07:12:36Z</time>
      </trkpt>
      <trkpt lat="47.29798" lon="4.93612">
        <ele>548</ele>
        <time>2013-01-19T07:12:41Z</time>
      </trkpt>
      <trkpt lat="47.29802" lon="4.93606">
        <ele>547</ele>
        <time>2013-01-19T07:12:46Z</time>
      </trkpt>
      <trkpt lat="47.29805" lon="4.936">
        <ele>546</ele>
        <time>2013-01-19T07:12:50Z</time>
      </trkpt>
      <trkpt lat="47.29808" lon="4.93595">
        <ele>545</ele>
        <time>2013-01-19T07:12:54Z</time>
      </trkpt>
      <trkpt lat="47.29811" lon="4.93589">
        <ele>543</ele>
        <time>2013-01-19T07:12:58Z</time>
      </trkpt>
      <trkpt lat="47.29815" lon="4.93583">
        <ele>543</ele>
        <time>2013-01-19T07:13:03Z</time>
      </trkpt>
      <trkpt lat="47.29819" lon="4.9358">
        <ele>544</ele>
        <time>2013-01-19T07:13:07Z</time>
      </trkpt>
      <trkpt lat="47.29824" lon="4.93577">
        <ele>544</ele>
        <time>2013-01-19T07:13:14Z</time>
      </trkpt>
      <trkpt lat="47.29829" lon="4.93574">
        <ele>545</ele>
        <time>2013-01-19T07:13:19Z</time>
      </trkpt>
      <trkpt lat="47.29832" lon="4.93568">
        <ele>546</ele>
        <time>2013-01-19T07:13:23Z</time>
      </trkpt>
      <trkpt lat="47.29836" lon="4.93563">
        <ele>547</ele>
        <time>2013-01-19T07:13:26Z</time>
      </trkpt>
      <trkpt lat="47.2984" lon="4.93557">
        <ele>549</ele>
        <time>2013-01-19T07:13:30Z</time>
      </trkpt>
      <trkpt lat="47.29843" lon="4.93552">
        <ele>550</ele>
        <time>2013-01-19T07:13:34Z</time>
      </trkpt>
      <trkpt lat="47.29847" lon="4.93546">
        <ele>550</ele>
        <time>2013-01-19T07:13:39Z</time>
      </trkpt>
      <trkpt lat="47.29851" lon="4.93541">
        <ele>550</ele>
        <time>2013-01-19T07:13:43Z</time>
      </trkpt>
      <trkpt lat="47.29856" lon="4.93536">
        <ele>552</ele>
        <time>2013-01-19T07:13:48Z</time>
      </trkpt>
      <trkpt lat="47.2986" lon="4.93533">
        <ele>551</ele>
        <time>2013-01-19T07:13:54Z</time>
      </trkpt>
      <trkpt lat="47.29864" lon="4.93531">
        <ele>551</ele>
        <time>2013-01-19T07:13:57Z</time>
      </trkpt>
      <trkpt lat="47.29869" lon="4.93526">
        <ele>551</ele>
        <time>2013-01-19T07:14:01Z</time>
      </trkpt>
      <trkpt lat="47.29874" lon="4.93522">
        <ele>550</ele>
        <time>2013-01-19T07:14:04Z</time>
      </trkpt>
      <trkpt lat="47.29878" lon="4.93517">
        <ele>550</ele>
        <time>2013-01-19T07:14:07Z</time>
      </trkpt>
      <trkpt lat="47.29882" lon="4.93512">
        <ele>549</ele>
        <time>2013-01-19T07:14:10Z</time>
      </trkpt>
      <trkpt lat="47.29887" lon="4.93509">
        <ele>550</ele>
        <time>2013-01-19T07:14:12Z</time>
      </trkpt>
      <trkpt lat="47.29891" lon="4.93504">
        <ele>550</ele>
        <time>2013-01-19T07:14:15Z</time>
      </trkpt>
      <trkpt lat="47.29895" lon="4.93502">
        <ele>550</ele>
        <time>2013-01-19T07:14:21Z</time>
      </trkpt>
      <trkpt lat="47.29901" lon="4.93496">
        <ele>550</ele>
        <time>2013-01-19T07:14:25Z</time>
      </trkpt>
      <trkpt lat="47.29907" lon="4.9349">
        <ele>549</ele>
        <time>2013-01-19T07:14:30Z</time>
      </trkpt>
      <trkpt lat="47.29911" lon="4.93485">
        <ele>550</ele>
        <time>2013-01-19T07:14:33Z</time>
      </trkpt>
      <trkpt lat="47.29915" lon="4.9348">
        <ele>550</ele>
        <time>2013-01-19T07:14:36Z</time>
      </trkpt>
      <trkpt lat="47.2992" lon="4.93475">
        <ele>549</ele>
        <time>2013-01-19T07:14:45Z</time>
      </trkpt>
      <trkpt lat="47.29924" lon="4.9347">
        <ele>549</ele>
        <time>2013-01-19T07:14:49Z</time>
      </trkpt>
      <trkpt lat="47.29928" lon="4.93464">
        <ele>549</ele>
        <time>2013-01-19T07:14:52Z</time>
      </trkpt>
      <trkpt lat="47.29931" lon="4.93457">
        <ele>549</ele>
        <time>2013-01-19T07:14:57Z</time>
      </trkpt>
      <trkpt lat="47.29935" lon="4.93449">
        <ele>551</ele>
        <time>2013-01-19T07:15:00Z</time>
      </trkpt>
      <trkpt lat="47.29938" lon="4.93442">
        <ele>552</ele>
        <time>2013-01-19T07:15:03Z</time>
      </trkpt>
      <trkpt lat="47.2994" lon="4.93436">
        <ele>552</ele>
        <time>2013-01-19T07:15:05Z</time>
      </trkpt>
      <trkpt lat="47.29942" lon="4.93429">
        <ele>552</ele>
        <time>2013-01-19T07:15:08Z</time>
      </trkpt>
      <trkpt lat="47.29944" lon="4.93423">
        <ele>553</ele>
        <time>2013-01-19T07:15:10Z</time>
      </trkpt>
      <trkpt lat="47.29948" lon="4.93415">
        <ele>553</ele>
        <time>2013-01-19T07:15:13Z</time>
      </trkpt>
      <trkpt lat="47.29951" lon="4.93408">
        <ele>552</ele>
        <time>2013-01-19T07:15:16Z</time>
      </trkpt>
      <trkpt lat="47.29953" lon="4.93402">
        <ele>553</ele>
        <time>2013-01-19T07:15:19Z</time>
      </trkpt>
      <trkpt lat="47.29955" lon="4.93394">
        <ele>553</ele>
        <time>2013-01-19T07:15:22Z</time>
      </trkpt>
      <trkpt lat="47.29957" lon="4.93387">
        <ele>552</ele>
        <time>2013-01-19T07:15:26Z</time>
      </trkpt>
      <trkpt lat="47.2996" lon="4.93379">
        <ele>551</ele>
        <time>2013-01-19T07:15:30Z</time>
      </trkpt>
      <trkpt lat="47.29961" lon="4.93372">
        <ele>552</ele>
        <time>2013-01-19T07:15:33Z</time>
      </trkpt>
      <trkpt lat="47.29963" lon="4.93366">
        <ele>551</ele>
        <time>2013-01-19T07:15:36Z</time>
      </trkpt>
      <trkpt lat="47.29966" lon="4.9336">
        <ele>551</ele>
        <time>2013-01-19T07:15:39Z</time>
      </trkpt>
      <trkpt lat="47.29967" lon="4.93353">
        <ele>551</ele>
        <time>2013-01-19T07:15:41Z</time>
      </trkpt>
      <trkpt lat="47.29968" lon="4.93346">
        <ele>551</ele>
        <time>2013-01-19T07:15:44Z</time>
      </trkpt>
      <trkpt lat="47.2997" lon="4.93339">
        <ele>551</ele>
        <time>2013-01-19T07:15:48Z</time>
      </trkpt>
      <trkpt lat="47.29972" lon="4.93332">
        <ele>551</ele>
        <time>2013-01-19T07:15:51Z</time>
      </trkpt>
      <trkpt lat="47.29972" lon="4.93324">
        <ele>551</ele>
        <time>2013-01-19T07:15:56Z</time>
      </trkpt>
      <trkpt lat="47.29975" lon="4.93317">
        <ele>551</ele>
        <time>2013-01-19T07:15:58Z</time>
      </trkpt>
      <trkpt lat="47.29976" lon="4.9331">
        <ele>553</ele>
        <time>2013-01-19T07:16:01Z</time>
      </trkpt>
      <trkpt lat="47.29976" lon="4.93303">
        <ele>552</ele>
        <time>2013-01-19T07:16:06Z</time>
      </trkpt>
      <trkpt lat="47.29977" lon="4.93294">
        <ele>553</ele>
        <time>2013-01-19T07:16:10Z</time>
      </trkpt>
      <trkpt lat="47.29978" lon="4.93286">
        <ele>553</ele>
        <time>2013-01-19T07:16:14Z</time>
      </trkpt>
      <trkpt lat="47.2998" lon="4.93279">
        <ele>553</ele>
        <time>2013-01-19T07:16:17Z</time>
      </trkpt>
      <trkpt lat="47.2998" lon="4.93272">
        <ele>553</ele>
        <time>2013-01-19T07:16:20Z</time>
      </trkpt>
      <trkpt lat="47.2998" lon="4.93265">
        <ele>553</ele>
        <time>2013-01-19T07:16:24Z</time>
      </trkpt>
      <trkpt lat="47.29981" lon="4.93256">
        <ele>553</ele>
        <time>2013-01-19T07:16:28Z</time>
      </trkpt>
      <trkpt lat="47.29982" lon="4.93248">
        <ele>553</ele>
        <time>2013-01-19T07:16:31Z</time>
      </trkpt>
      <trkpt lat="47.29981" lon="4.93239">
        <ele>551</ele>
        <time>2013-01-19T07:16:38Z</time>
      </trkpt>
      <trkpt lat="47.29981" lon="4.93232">
        <ele>551</ele>
        <time>2013-01-19T07:16:41Z</time>
      </trkpt>
      <trkpt lat="47.29982" lon="4.93224">
        <ele>551</ele>
        <time>2013-01-19T07:16:44Z</time>
      </trkpt>
      <trkpt lat="47.29985" lon="4.93213">
        <ele>552</ele>
        <time>2013-01-19T07:16:48Z</time>
      </trkpt>
      <trkpt lat="47.29988" lon="4.93204">
        <ele>553</ele>
        <time>2013-01-19T07:16:51Z</time>
      </trkpt>
      <trkpt lat="47.29989" lon="4.93195">
        <ele>554</ele>
        <time>2013-01-19T07:16:55Z</time>
      </trkpt>
      <trkpt lat="47.29988" lon="4.93187">
        <ele>555</ele>
        <time>2013-01-19T07:17:00Z</time>
      </trkpt>
      <trkpt lat="47.29989" lon="4.93181">
        <ele>555</ele>
        <time>2013-01-19T07:17:05Z</time>
      </trkpt>
      <trkpt lat="47.29988" lon="4.93174">
        <ele>554</ele>
        <time>2013-01-19T07:17:08Z</time>
      </trkpt>
      <trkpt lat="47.29989" lon="4.93167">
        <ele>553</ele>
        <time>2013-01-19T07:17:11Z</time>
      </trkpt>
      <trkpt lat="47.2999" lon="4.9316">
        <ele>551</ele>
        <time>2013-01-19T07:17:14Z</time>
      </trkpt>
      <trkpt lat="47.29991" lon="4.93152">
        <ele>552</ele>
        <time>2013-01-19T07:17:18Z</time>
      </trkpt>
      <trkpt lat="47.29993" lon="4.93144">
        <ele>553</ele>
        <time>2013-01-19T07:17:22Z</time>
      </trkpt>
      <trkpt lat="47.29994" lon="4.93137">
        <ele>554</ele>
        <time>2013-01-19T07:17:31Z</time>
      </trkpt>
      <trkpt lat="47.29997" lon="4.93131">
        <ele>554</ele>
        <time>2013-01-19T07:17:34Z</time>
      </trkpt>
      <trkpt lat="47.3" lon="4.93126">
        <ele>554</ele>
        <time>2013-01-19T07:17:36Z</time>
      </trkpt>
      <trkpt lat="47.30002" lon="4.93119">
        <ele>554</ele>
        <time>2013-01-19T07:17:40Z</time>
      </trkpt>
      <trkpt lat="47.30005" lon="4.93112">
        <ele>554</ele>
        <time>2013-01-19T07:17:44Z</time>
      </trkpt>
      <trkpt lat="47.3001" lon="4.93106">
        <ele>553</ele>
        <time>2013-01-19T07:17:49Z</time>
      </trkpt>
      <trkpt lat="47.30013" lon="4.931">
        <ele>552</ele>
        <time>2013-01-19T07:17:52Z</time>
      </trkpt>
      <trkpt lat="47.30016" lon="4.93093">
        <ele>553</ele>
        <time>2013-01-19T07:17:56Z</time>
      </trkpt>
      <trkpt lat="47.30018" lon="4.93086">
        <ele>554</ele>
        <time>2013-01-19T07:18:00Z</time>
      </trkpt>
      <trkpt lat="47.30021" lon="4.93081">
        <ele>554</ele>
        <time>2013-01-19T07:18:03Z</time>
      </trkpt>
      <trkpt lat="47.30024" lon="4.93074">
        <ele>556</ele>
        <time>2013-01-19T07:18:07Z</time>
      </trkpt>
      <trkpt lat="47.30026" lon="4.93066">
        <ele>557</ele>
        <time>2013-01-19T07:18:11Z</time>
      </trkpt>
      <trkpt lat="47.30028" lon="4.9306">
        <ele>557</ele>
        <time>2013-01-19T07:18:14Z</time>
      </trkpt>
      <trkpt lat="47.30032" lon="4.93054">
        <ele>556</ele>
        <time>2013-01-19T07:18:17Z</time>
      </trkpt>
      <trkpt lat="47.30035" lon="4.93048">
        <ele>556</ele>
        <time>2013-01-19T07:18:20Z</time>
      </trkpt>
      <trkpt lat="47.30038" lon="4.9304">
        <ele>556</ele>
        <time>2013-01-19T07:18:24Z</time>
      </trkpt>
      <trkpt lat="47.30039" lon="4.93034">
        <ele>556</ele>
        <time>2013-01-19T07:18:27Z</time>
      </trkpt>
      <trkpt lat="47.3004" lon="4.93027">
        <ele>556</ele>
        <time>2013-01-19T07:18:30Z</time>
      </trkpt>
      <trkpt lat="47.30043" lon="4.9302">
        <ele>556</ele>
        <time>2013-01-19T07:18:33Z</time>
      </trkpt>
      <trkpt lat="47.30044" lon="4.93014">
        <ele>555</ele>
        <time>2013-01-19T07:18:38Z</time>
      </trkpt>
      <trkpt lat="47.30047" lon="4.93006">
        <ele>556</ele>
        <time>2013-01-19T07:18:42Z</time>
      </trkpt>
      <trkpt lat="47.30049" lon="4.92996">
        <ele>555</ele>
        <time>2013-01-19T07:18:45Z</time>
      </trkpt>
      <trkpt lat="47.30051" lon="4.9299">
        <ele>556</ele>
        <time>2013-01-19T07:18:48Z</time>
      </trkpt>
      <trkpt lat="47.30052" lon="4.92984">
        <ele>557</ele>
        <time>2013-01-19T07:18:53Z</time>
      </trkpt>
      <trkpt lat="47.30054" lon="4.92975">
        <ele>559</ele>
        <time>2013-01-19T07:18:58Z</time>
      </trkpt>
      <trkpt lat="47.30056" lon="4.92967">
        <ele>559</ele>
        <time>2013-01-19T07:19:01Z</time>
      </trkpt>
      <trkpt lat="47.30058" lon="4.92959">
        <ele>558</ele>
        <time>2013-01-19T07:19:04Z</time>
      </trkpt>
      <trkpt lat="47.30059" lon="4.92952">
        <ele>558</ele>
        <time>2013-01-19T07:19:07Z</time>
      </trkpt>
      <trkpt lat="47.3006" lon="4.92944">
        <ele>558</ele>
        <time>2013-01-19T07:19:10Z</time>
      </trkpt>
      <trkpt lat="47.30062" lon="4.92938">
        <ele>559</ele>
        <time>2013-01-19T07:19:13Z</time>
      </trkpt>
      <trkpt lat="47.30065" lon="4.92931">
        <ele>558</ele>
        <time>2013-01-19T07:19:17Z</time>
      </trkpt>
      <trkpt lat="47.30066" lon="4.92924">
        <ele>558</ele>
        <time>2013-01-19T07:19:21Z</time>
      </trkpt>
      <trkpt lat="47.30064" lon="4.92918">
        <ele>556</ele>
        <time>2013-01-19T07:19:23Z</time>
      </trkpt>
      <trkpt lat="47.30064" lon="4.9291">
        <ele>556</ele>
        <time>2013-01-19T07:19:27Z</time>
      </trkpt>
      <trkpt lat="47.30064" lon="4.92902">
        <ele>556</ele>
        <time>2013-01-19T07:19:30Z</time>
      </trkpt>
      <trkpt lat="47.30064" lon="4.92893">
        <ele>555</ele>
        <time>2013-01-19T07:19:35Z</time>
      </trkpt>
      <trkpt lat="47.30064" lon="4.92885">
        <ele>555</ele>
        <time>2013-01-19T07:19:39Z</time>
      </trkpt>
      <trkpt lat="47.30063" lon="4.92877">
        <ele>556</ele>
        <time>2013-01-19T07:19:42Z</time>
      </trkpt>
      <trkpt lat="47.30064" lon="4.9287">
        <ele>556</ele>
        <time>2013-01-19T07:19:44Z</time>
      </trkpt>
      <trkpt lat="47.30062" lon="4.92862">
        <ele>555</ele>
        <time>2013-01-19T07:19:48Z</time>
      </trkpt>
      <trkpt lat="47.3006" lon="4.92854">
        <ele>553</ele>
        <time>2013-01-19T07:19:52Z</time>
      </trkpt>
      <trkpt lat="47.3006" lon="4.92847">
        <ele>554</ele>
        <time>2013-01-19T07:19:55Z</time>
      </trkpt>
      <trkpt lat="47.30059" lon="4.92839">
        <ele>552</ele>
        <time>2013-01-19T07:19:59Z</time>
      </trkpt>
      <trkpt lat="47.30057" lon="4.92833">
        <ele>551</ele>
        <time>2013-01-19T07:20:03Z</time>
      </trkpt>
      <trkpt lat="47.30055" lon="4.92826">
        <ele>549</ele>
        <time>2013-01-19T07:20:07Z</time>
      </trkpt>
      <trkpt lat="47.30054" lon="4.92817">
        <ele>548</ele>
        <time>2013-01-19T07:20:11Z</time>
      </trkpt>
      <trkpt lat="47.30052" lon="4.9281">
        <ele>546</ele>
        <time>2013-01-19T07:20:15Z</time>
      </trkpt>
      <trkpt lat="47.30051" lon="4.92802">
        <ele>545</ele>
        <time>2013-01-19T07:20:19Z</time>
      </trkpt>
      <trkpt lat="47.3005" lon="4.92794">
        <ele>545</ele>
        <time>2013-01-19T07:20:23Z</time>
      </trkpt>
      <trkpt lat="47.30049" lon="4.92786">
        <ele>545</ele>
        <time>2013-01-19T07:20:27Z</time>
      </trkpt>
      <trkpt lat="47.30048" lon="4.92778">
        <ele>545</ele>
        <time>2013-01-19T07:20:31Z</time>
      </trkpt>
      <trkpt lat="47.30047" lon="4.9277">
        <ele>546</ele>
        <time>2013-01-19T07:20:35Z</time>
      </trkpt>
      <trkpt lat="47.30046" lon="4.92763">
        <ele>546</ele>
        <time>2013-01-19T07:20:39Z</time>
      </trkpt>
      <trkpt lat="47.30044" lon="4.92756">
        <ele>545</ele>
        <time>2013-01-19T07:20:42Z</time>
      </trkpt>
      <trkpt lat="47.30042" lon="4.92748">
        <ele>544</ele>
        <time>2013-01-19T07:20:46Z</time>
      </trkpt>
      <trkpt lat="47.30041" lon="4.92739">
        <ele>542</ele>
        <time>2013-01-19T07:20:49Z</time>
      </trkpt>
      <trkpt lat="47.3004" lon="4.9273">
        <ele>541</ele>
        <time>2013-01-19T07:20:52Z</time>
      </trkpt>
      <trkpt lat="47.30038" lon="4.92724">
        <ele>543</ele>
        <time>2013-01-19T07:20:57Z</time>
      </trkpt>
      <trkpt lat="47.30035" lon="4.92716">
        <ele>543</ele>
        <time>2013-01-19T07:21:02Z</time>
      </trkpt>
      <trkpt lat="47.30032" lon="4.9271">
        <ele>545</ele>
        <time>2013-01-19T07:21:08Z</time>
      </trkpt>
      <trkpt lat="47.30028" lon="4.92704">
        <ele>545</ele>
        <time>2013-01-19T07:21:11Z</time>
      </trkpt>
      <trkpt lat="47.30027" lon="4.92696">
        <ele>545</ele>
        <time>2013-01-19T07:21:14Z</time>
      </trkpt>
      <trkpt lat="47.30027" lon="4.92687">
        <ele>545</ele>
        <time>2013-01-19T07:21:17Z</time>
      </trkpt>
      <trkpt lat="47.30026" lon="4.9268">
        <ele>545</ele>
        <time>2013-01-19T07:21:20Z</time>
      </trkpt>
      <trkpt lat="47.30026" lon="4.92673">
        <ele>545</ele>
        <time>2013-01-19T07:21:22Z</time>
      </trkpt>
      <trkpt lat="47.30026" lon="4.92665">
        <ele>545</ele>
        <time>2013-01-19T07:21:24Z</time>
      </trkpt>
      <trkpt lat="47.30025" lon="4.92658">
        <ele>544</ele>
        <time>2013-01-19T07:21:27Z</time>
      </trkpt>
      <trkpt lat="47.30022" lon="4.92652">
        <ele>544</ele>
        <time>2013-01-19T07:21:31Z</time>
      </trkpt>
      <trkpt lat="47.30014" lon="4.92666">
        <ele>542</ele>
        <time>2013-01-19T07:21:32Z</time>
      </trkpt>
      <trkpt lat="47.30011" lon="4.92661">
        <ele>539</ele>
        <time>2013-01-19T07:21:35Z</time>
      </trkpt>
      <trkpt lat="47.30007" lon="4.92655">
        <ele>538</ele>
        <time>2013-01-19T07:21:39Z</time>
      </trkpt>
      <trkpt lat="47.30006" lon="4.92646">
        <ele>539</ele>
        <time>2013-01-19T07:21:43Z</time>
      </trkpt>
      <trkpt lat="47.30006" lon="4.92638">
        <ele>540</ele>
        <time>2013-01-19T07:21:46Z</time>
      </trkpt>
      <trkpt lat="47.30006" lon="4.92631">
        <ele>543</ele>
        <time>2013-01-19T07:21:49Z</time>
      </trkpt>
      <trkpt lat="47.30006" lon="4.92623">
        <ele>546</ele>
        <time>2013-01-19T07:21:53Z</time>
      </trkpt>
      <trkpt lat="47.30005" lon="4.92616">
        <ele>546</ele>
        <time>2013-01-19T07:21:56Z</time>
      </trkpt>
      <trkpt lat="47.3" lon="4.92612">
        <ele>547</ele>
        <time>2013-01-19T07:22:00Z</time>
      </trkpt>
      <trkpt lat="47.29995" lon="4.9261">
        <ele>549</ele>
        <time>2013-01-19T07:22:04Z</time>
      </trkpt>
      <trkpt lat="47.29994" lon="4.92603">
        <ele>551</ele>
        <time>2013-01-19T07:22:07Z</time>
      </trkpt>
      <trkpt lat="47.29992" lon="4.92595">
        <ele>552</ele>
        <time>2013-01-19T07:22:11Z</time>
      </trkpt>
      <trkpt lat="47.29987" lon="4.92591">
        <ele>552</ele>
        <time>2013-01-19T07:22:14Z</time>
      </trkpt>
      <trkpt lat="47.29985" lon="4.92585">
        <ele>552</ele>
        <time>2013-01-19T07:22:17Z</time>
      </trkpt>
      <trkpt lat="47.29985" lon="4.92577">
        <ele>552</ele>
        <time>2013-01-19T07:22:20Z</time>
      </trkpt>
      <trkpt lat="47.29983" lon="4.9257">
        <ele>552</ele>
        <time>2013-01-19T07:22:23Z</time>
      </trkpt>
      <trkpt lat="47.29981" lon="4.92561">
        <ele>556</ele>
        <time>2013-01-19T07:22:28Z</time>
      </trkpt>
      <trkpt lat="47.29981" lon="4.92554">
        <ele>557</ele>
        <time>2013-01-19T07:22:30Z</time>
      </trkpt>
      <trkpt lat="47.29979" lon="4.92548">
        <ele>557</ele>
        <time>2013-01-19T07:22:33Z</time>
      </trkpt>
      <trkpt lat="47.29976" lon="4.92543">
        <ele>557</ele>
        <time>2013-01-19T07:22:36Z</time>
      </trkpt>
      <trkpt lat="47.29971" lon="4.9254">
        <ele>555</ele>
        <time>2013-01-19T07:22:41Z</time>
      </trkpt>
      <trkpt lat="47.29967" lon="4.92536">
        <ele>553</ele>
        <time>2013-01-19T07:22:46Z</time>
      </trkpt>
      <trkpt lat="47.29965" lon="4.92529">
        <ele>553</ele>
        <time>2013-01-19T07:22:49Z</time>
      </trkpt>
      <trkpt lat="47.29961" lon="4.92524">
        <ele>554</ele>
        <time>2013-01-19T07:22:55Z</time>
      </trkpt>
      <trkpt lat="47.29956" lon="4.92522">
        <ele>554</ele>
        <time>2013-01-19T07:22:59Z</time>
      </trkpt>
      <trkpt lat="47.29952" lon="4.92519">
        <ele>556</ele>
        <time>2013-01-19T07:23:03Z</time>
      </trkpt>
      <trkpt lat="47.29948" lon="4.92512">
        <ele>556</ele>
        <time>2013-01-19T07:23:07Z</time>
      </trkpt>
      <trkpt lat="47.29946" lon="4.92505">
        <ele>556</ele>
        <time>2013-01-19T07:23:11Z</time>
      </trkpt>
      <trkpt lat="47.29944" lon="4.92499">
        <ele>556</ele>
        <time>2013-01-19T07:23:13Z</time>
      </trkpt>
      <trkpt lat="47.29942" lon="4.92491">
        <ele>555</ele>
        <time>2013-01-19T07:23:15Z</time>
      </trkpt>
      <trkpt lat="47.29938" lon="4.92488">
        <ele>551</ele>
        <time>2013-01-19T07:23:17Z</time>
      </trkpt>
      <trkpt lat="47.29934" lon="4.92484">
        <ele>551</ele>
        <time>2013-01-19T07:23:20Z</time>
      </trkpt>
      <trkpt lat="47.29931" lon="4.92479">
        <ele>551</ele>
        <time>2013-01-19T07:23:24Z</time>
      </trkpt>
      <trkpt lat="47.29928" lon="4.92472">
        <ele>553</ele>
        <time>2013-01-19T07:23:29Z</time>
      </trkpt>
      <trkpt lat="47.29923" lon="4.92471">
        <ele>555</ele>
        <time>2013-01-19T07:23:33Z</time>
      </trkpt>
      <trkpt lat="47.29919" lon="4.92466">
        <ele>554</ele>
        <time>2013-01-19T07:23:37Z</time>
      </trkpt>
      <trkpt lat="47.29915" lon="4.92461">
        <ele>554</ele>
        <time>2013-01-19T07:23:40Z</time>
      </trkpt>
      <trkpt lat="47.29911" lon="4.92453">
        <ele>554</ele>
        <time>2013-01-19T07:23:43Z</time>
      </trkpt>
      <trkpt lat="47.2991" lon="4.92446">
        <ele>554</ele>
        <time>2013-01-19T07:23:46Z</time>
      </trkpt>
      <trkpt lat="47.29908" lon="4.92436">
        <ele>553</ele>
        <time>2013-01-19T07:23:50Z</time>
      </trkpt>
      <trkpt lat="47.29908" lon="4.92428">
        <ele>552</ele>
        <time>2013-01-19T07:23:53Z</time>
      </trkpt>
      <trkpt lat="47.29902" lon="4.92436">
        <ele>551</ele>
        <time>2013-01-19T07:23:58Z</time>
      </trkpt>
      <trkpt lat="47.29898" lon="4.92431">
        <ele>555</ele>
        <time>2013-01-19T07:24:15Z</time>
      </trkpt>
      <trkpt lat="47.29896" lon="4.92425">
        <ele>555</ele>
        <time>2013-01-19T07:24:19Z</time>
      </trkpt>
      <trkpt lat="47.29893" lon="4.92418">
        <ele>555</ele>
        <time>2013-01-19T07:24:23Z</time>
      </trkpt>
      <trkpt lat="47.29888" lon="4.92415">
        <ele>555</ele>
        <time>2013-01-19T07:24:27Z</time>
      </trkpt>
      <trkpt lat="47.29885" lon="4.92407">
        <ele>554</ele>
        <time>2013-01-19T07:24:31Z</time>
      </trkpt>
      <trkpt lat="47.2988" lon="4.92405">
        <ele>552</ele>
        <time>2013-01-19T07:24:35Z</time>
      </trkpt>
      <trkpt lat="47.29876" lon="4.92403">
        <ele>552</ele>
        <time>2013-01-19T07:24:38Z</time>
      </trkpt>
      <trkpt lat="47.29872" lon="4.92397">
        <ele>550</ele>
        <time>2013-01-19T07:24:41Z</time>
      </trkpt>
      <trkpt lat="47.29868" lon="4.92392">
        <ele>549</ele>
        <time>2013-01-19T07:24:44Z</time>
      </trkpt>
      <trkpt lat="47.29868" lon="4.92382">
        <ele>549</ele>
        <time>2013-01-19T07:24:47Z</time>
      </trkpt>
      <trkpt lat="47.29863" lon="4.92379">
        <ele>550</ele>
        <time>2013-01-19T07:24:51Z</time>
      </trkpt>
      <trkpt lat="47.29859" lon="4.92374">
        <ele>549</ele>
        <time>2013-01-19T07:24:54Z</time>
      </trkpt>
      <trkpt lat="47.29856" lon="4.92367">
        <ele>550</ele>
        <time>2013-01-19T07:24:58Z</time>
      </trkpt>
      <trkpt lat="47.29851" lon="4.92363">
        <ele>550</ele>
        <time>2013-01-19T07:25:01Z</time>
      </trkpt>
      <trkpt lat="47.29848" lon="4.92357">
        <ele>551</ele>
        <time>2013-01-19T07:25:06Z</time>
      </trkpt>
      <trkpt lat="47.29844" lon="4.92351">
        <ele>551</ele>
        <time>2013-01-19T07:25:10Z</time>
      </trkpt>
      <trkpt lat="47.29841" lon="4.92346">
        <ele>551</ele>
        <time>2013-01-19T07:25:13Z</time>
      </trkpt>
      <trkpt lat="47.29836" lon="4.92341">
        <ele>551</ele>
        <time>2013-01-19T07:25:17Z</time>
      </trkpt>
      <trkpt lat="47.29831" lon="4.92337">
        <ele>550</ele>
        <time>2013-01-19T07:25:21Z</time>
      </trkpt>
      <trkpt lat="47.29826" lon="4.92334">
        <ele>550</ele>
        <time>2013-01-19T07:25:25Z</time>
      </trkpt>
      <trkpt lat="47.29821" lon="4.9233">
        <ele>549</ele>
        <time>2013-01-19T07:25:28Z</time>
      </trkpt>
      <trkpt lat="47.29817" lon="4.92325">
        <ele>547</ele>
        <time>2013-01-19T07:25:31Z</time>
      </trkpt>
      <trkpt lat="47.29817" lon="4.92317">
        <ele>548</ele>
        <time>2013-01-19T07:25:33Z</time>
      </trkpt>
      <trkpt lat="47.29812" lon="4.92316">
        <ele>547</ele>
        <time>2013-01-19T07:25:36Z</time>
      </trkpt>
      <trkpt lat="47.29806" lon="4.92312">
        <ele>547</ele>
        <time>2013-01-19T07:25:41Z</time>
      </trkpt>
      <trkpt lat="47.29801" lon="4.9231">
        <ele>546</ele>
        <time>2013-01-19T07:25:44Z</time>
      </trkpt>
      <trkpt lat="47.29795" lon="4.92309">
        <ele>546</ele>
        <time>2013-01-19T07:25:48Z</time>
      </trkpt>
      <trkpt lat="47.2979" lon="4.92308">
        <ele>548</ele>
        <time>2013-01-19T07:25:51Z</time>
      </trkpt>
      <trkpt lat="47.29785" lon="4.92306">
        <ele>546</ele>
        <time>2013-01-19T07:25:54Z</time>
      </trkpt>
      <trkpt lat="47.2978" lon="4.92304">
        <ele>545</ele>
        <time>2013-01-19T07:25:59Z</time>
      </trkpt>
      <trkpt lat="47.29775" lon="4.92302">
        <ele>544</ele>
        <time>2013-01-19T07:26:02Z</time>
      </trkpt>
      <trkpt lat="47.2977" lon="4.923">
        <ele>543</ele>
        <time>2013-01-19T07:26:06Z</time>
      </trkpt>
      <trkpt lat="47.29766" lon="4.92296">
        <ele>544</ele>
        <time>2013-01-19T07:26:11Z</time>
      </trkpt>
      <trkpt lat="47.29761" lon="4.92294">
        <ele>543</ele>
        <time>2013-01-19T07:26:14Z</time>
      </trkpt>
      <trkpt lat="47.29756" lon="4.92294">
        <ele>544</ele>
        <time>2013-01-19T07:26:17Z</time>
      </trkpt>
      <trkpt lat="47.2975" lon="4.9229">
        <ele>544</ele>
        <time>2013-01-19T07:26:21Z</time>
      </trkpt>
      <trkpt lat="47.29745" lon="4.92291">
        <ele>545</ele>
        <time>2013-01-19T07:26:24Z</time>
      </trkpt>
      <trkpt lat="47.2974" lon="4.9229">
        <ele>544</ele>
        <time>2013-01-19T07:26:28Z</time>
      </trkpt>
      <trkpt lat="47.29734" lon="4.92289">
        <ele>543</ele>
        <time>2013-01-19T07:26:32Z</time>
      </trkpt>
      <trkpt lat="47.29729" lon="4.92288">
        <ele>544</ele>
        <time>2013-01-19T07:26:35Z</time>
      </trkpt>
      <trkpt lat="47.29724" lon="4.92289">
        <ele>548</ele>
        <time>2013-01-19T07:26:40Z</time>
      </trkpt>
      <trkpt lat="47.29719" lon="4.92288">
        <ele>548</ele>
        <time>2013-01-19T07:26:44Z</time>
      </trkpt>
      <trkpt lat="47.29714" lon="4.92287">
        <ele>549</ele>
        <time>2013-01-19T07:26:47Z</time>
      </trkpt>
      <trkpt lat="47.29708" lon="4.92288">
        <ele>550</ele>
        <time>2013-01-19T07:26:51Z</time>
      </trkpt>
      <trkpt lat="47.29703" lon="4.92289">
        <ele>546</ele>
        <time>2013-01-19T07:26:56Z</time>
      </trkpt>
      <trkpt lat="47.29697" lon="4.92292">
        <ele>549</ele>
        <time>2013-01-19T07:27:00Z</time>
      </trkpt>
      <trkpt lat="47.29692" lon="4.92294">
        <ele>553</ele>
        <time>2013-01-19T07:27:04Z</time>
      </trkpt>
      <trkpt lat="47.29687" lon="4.92291">
        <ele>553</ele>
        <time>2013-01-19T07:27:08Z</time>
      </trkpt>
      <trkpt lat="47.29681" lon="4.92289">
        <ele>553</ele>
        <time>2013-01-19T07:27:12Z</time>
      </trkpt>
      <trkpt lat="47.29675" lon="4.92292">
        <ele>554</ele>
        <time>2013-01-19T07:27:16Z</time>
      </trkpt>
      <trkpt lat="47.2967" lon="4.92292">
        <ele>554</ele>
        <time>2013-01-19T07:27:21Z</time>
      </trkpt>
      <trkpt lat="47.29664" lon="4.92293">
        <ele>556</ele>
        <time>2013-01-19T07:27:25Z</time>
      </trkpt>
      <trkpt lat="47.29658" lon="4.92292">
        <ele>557</ele>
        <time>2013-01-19T07:27:28Z</time>
      </trkpt>
      <trkpt lat="47.29653" lon="4.92292">
        <ele>555</ele>
        <time>2013-01-19T07:27:31Z</time>
      </trkpt>
      <trkpt lat="47.29648" lon="4.9229">
        <ele>554</ele>
        <time>2013-01-19T07:27:34Z</time>
      </trkpt>
      <trkpt lat="47.29644" lon="4.92289">
        <ele>555</ele>
        <time>2013-01-19T07:27:37Z</time>
      </trkpt>
      <trkpt lat="47.29638" lon="4.92288">
        <ele>554</ele>
        <time>2013-01-19T07:27:41Z</time>
      </trkpt>
      <trkpt lat="47.29633" lon="4.9229">
        <ele>554</ele>
        <time>2013-01-19T07:27:46Z</time>
      </trkpt>
      <trkpt lat="47.29627" lon="4.92288">
        <ele>553</ele>
        <time>2013-01-19T07:27:51Z</time>
      </trkpt>
      <trkpt lat="47.29622" lon="4.92284">
        <ele>553</ele>
        <time>2013-01-19T07:27:55Z</time>
      </trkpt>
      <trkpt lat="47.29617" lon="4.92282">
        <ele>550</ele>
        <time>2013-01-19T07:27:58Z</time>
      </trkpt>
      <trkpt lat="47.29612" lon="4.9228">
        <ele>549</ele>
        <time>2013-01-19T07:28:02Z</time>
      </trkpt>
      <trkpt lat="47.29607" lon="4.92277">
        <ele>549</ele>
        <time>2013-01-19T07:28:05Z</time>
      </trkpt>
      <trkpt lat="47.29604" lon="4.92282">
        <ele>552</ele>
        <time>2013-01-19T07:28:07Z</time>
      </trkpt>
      <trkpt lat="47.29598" lon="4.92282">
        <ele>552</ele>
        <time>2013-01-19T07:28:11Z</time>
      </trkpt>
      <trkpt lat="47.29593" lon="4.92282">
        <ele>550</ele>
        <time>2013-01-19T07:28:16Z</time>
      </trkpt>
      <trkpt lat="47.29587" lon="4.92284">
        <ele>549</ele>
        <time>2013-01-19T07:28:20Z</time>
      </trkpt>
      <trkpt lat="47.29581" lon="4.92283">
        <ele>550</ele>
        <time>2013-01-19T07:28:26Z</time>
      </trkpt>
      <trkpt lat="47.29576" lon="4.92284">
        <ele>549</ele>
        <time>2013-01-19T07:28:31Z</time>
      </trkpt>
      <trkpt lat="47.29571" lon="4.92285">
        <ele>551</ele>
        <time>2013-01-19T07:28:33Z</time>
      </trkpt>
      <trkpt lat="47.29566" lon="4.92286">
        <ele>550</ele>
        <time>2013-01-19T07:28:35Z</time>
      </trkpt>
      <trkpt lat="47.29561" lon="4.92287">
        <ele>552</ele>
        <time>2013-01-19T07:28:39Z</time>
      </trkpt>
      <trkpt lat="47.29555" lon="4.92287">
        <ele>552</ele>
        <time>2013-01-19T07:28:42Z</time>
      </trkpt>
      <trkpt lat="47.2955" lon="4.92287">
        <ele>552</ele>
        <time>2013-01-19T07:28:45Z</time>
      </trkpt>
      <trkpt lat="47.29544" lon="4.92285">
        <ele>551</ele>
        <time>2013-01-19T07:28:50Z</time>
      </trkpt>
      <trkpt lat="47.2954" lon="4.92284">
        <ele>552</ele>
        <time>2013-01-19T07:28:53Z</time>
      </trkpt>
      <trkpt lat="47.29534" lon="4.92284">
        <ele>552</ele>
        <time>2013-01-19T07:28:56Z</time>
      </trkpt>
      <trkpt lat="47.29528" lon="4.9228">
        <ele>550</ele>
        <time>2013-01-19T07:28:59Z</time>
      </trkpt>
      <trkpt lat="47.29523" lon="4.92275">
        <ele>550</ele>
        <time>2013-01-19T07:29:02Z</time>
      </trkpt>
      <trkpt lat="47.29518" lon="4.92273">
        <ele>551</ele>
        <time>2013-01-19T07:29:05Z</time>
      </trkpt>
      <trkpt lat="47.29513" lon="4.9227">
        <ele>552</ele>
        <time>2013-01-19T07:29:07Z</time>
      </trkpt>
      <trkpt lat="47.29508" lon="4.92265">
        <ele>552</ele>
        <time>2013-01-19T07:29:09Z</time>
      </trkpt>
      <trkpt lat="47.29503" lon="4.92259">
        <ele>551</ele>
        <time>2013-01-19T07:29:11Z</time>
      </trkpt>
      <trkpt lat="47.295" lon="4.92252">
        <ele>551</ele>
        <time>2013-01-19T07:29:14Z</time>
      </trkpt>
      <trkpt lat="47.29496" lon="4.92248">
        <ele>553</ele>
        <time>2013-01-19T07:29:17Z</time>
      </trkpt>
      <trkpt lat="47.29493" lon="4.92241">
        <ele>551</ele>
        <time>2013-01-19T07:29:20Z</time>
      </trkpt>
      <trkpt lat="47.2949" lon="4.92235">
        <ele>551</ele>
        <time>2013-01-19T07:29:22Z</time>
      </trkpt>
      <trkpt lat="47.29486" lon="4.92229">
        <ele>549</ele>
        <time>2013-01-19T07:29:25Z</time>
      </trkpt>
      <trkpt lat="47.29482" lon="4.92222">
        <ele>547</ele>
        <time>2013-01-19T07:29:27Z</time>
      </trkpt>
      <trkpt lat="47.29478" lon="4.92218">
        <ele>546</ele>
        <time>2013-01-19T07:29:39Z</time>
      </trkpt>
      <trkpt lat="47.29473" lon="4.92213">
        <ele>547</ele>
        <time>2013-01-19T07:29:42Z</time>
      </trkpt>
      <trkpt lat="47.29469" lon="4.92209">
        <ele>547</ele>
        <time>2013-01-19T07:29:46Z</time>
      </trkpt>
      <trkpt lat="47.29464" lon="4.92207">
        <ele>547</ele>
        <time>2013-01-19T07:29:49Z</time>
      </trkpt>
      <trkpt lat="47.29465" lon="4.922">
        <ele>540</ele>
        <time>2013-01-19T07:30:00Z</time>
      </trkpt>
      <trkpt lat="47.29471" lon="4.922">
        <ele>533</ele>
        <time>2013-01-19T07:30:16Z</time>
      </trkpt>
      <trkpt lat="47.29469" lon="4.92193">
        <ele>535</ele>
        <time>2013-01-19T07:30:23Z</time>
      </trkpt>
      <trkpt lat="47.29466" lon="4.92186">
        <ele>535</ele>
        <time>2013-01-19T07:30:26Z</time>
      </trkpt>
      <trkpt lat="47.29463" lon="4.92182">
        <ele>537</ele>
        <time>2013-01-19T07:30:29Z</time>
      </trkpt>
      <trkpt lat="47.29461" lon="4.92175">
        <ele>537</ele>
        <time>2013-01-19T07:30:32Z</time>
      </trkpt>
      <trkpt lat="47.29456" lon="4.92169">
        <ele>537</ele>
        <time>2013-01-19T07:30:38Z</time>
      </trkpt>
      <trkpt lat="47.29454" lon="4.92162">
        <ele>540</ele>
        <time>2013-01-19T07:30:42Z</time>
      </trkpt>
      <trkpt lat="47.29452" lon="4.92155">
        <ele>541</ele>
        <time>2013-01-19T07:30:46Z</time>
      </trkpt>
      <trkpt lat="47.29449" lon="4.9215">
        <ele>540</ele>
        <time>2013-01-19T07:30:50Z</time>
      </trkpt>
      <trkpt lat="47.29449" lon="4.92142">
        <ele>542</ele>
        <time>2013-01-19T07:30:53Z</time>
      </trkpt>
      <trkpt lat="47.29446" lon="4.92136">
        <ele>541</ele>
        <time>2013-01-19T07:30:57Z</time>
      </trkpt>
      <trkpt lat="47.29444" lon="4.9213">
        <ele>540</ele>
        <time>2013-01-19T07:31:00Z</time>
      </trkpt>
      <trkpt lat="47.2944" lon="4.92122">
        <ele>540</ele>
        <time>2013-01-19T07:31:04Z</time>
      </trkpt>
      <trkpt lat="47.29436" lon="4.92119">
        <ele>538</ele>
        <time>2013-01-19T07:31:06Z</time>
      </trkpt>
      <trkpt lat="47.29432" lon="4.92112">
        <ele>536</ele>
        <time>2013-01-19T07:31:09Z</time>
      </trkpt>
      <trkpt lat="47.29429" lon="4.92105">
        <ele>535</ele>
        <time>2013-01-19T07:31:14Z</time>
      </trkpt>
      <trkpt lat="47.29426" lon="4.92099">
        <ele>535</ele>
        <time>2013-01-19T07:31:18Z</time>
      </trkpt>
      <trkpt lat="47.29424" lon="4.92092">
        <ele>535</ele>
        <time>2013-01-19T07:31:21Z</time>
      </trkpt>
      <trkpt lat="47.2942" lon="4.92086">
        <ele>534</ele>
        <time>2013-01-19T07:31:26Z</time>
      </trkpt>
      <trkpt lat="47.29416" lon="4.92079">
        <ele>534</ele>
        <time>2013-01-19T07:31:29Z</time>
      </trkpt>
      <trkpt lat="47.29414" lon="4.92072">
        <ele>534</ele>
        <time>2013-01-19T07:31:34Z</time>
      </trkpt>
      <trkpt lat="47.2941" lon="4.92065">
        <ele>538</ele>
        <time>2013-01-19T07:31:39Z</time>
      </trkpt>
      <trkpt lat="47.29407" lon="4.92059">
        <ele>538</ele>
        <time>2013-01-19T07:31:42Z</time>
      </trkpt>
      <trkpt lat="47.29404" lon="4.92053">
        <ele>538</ele>
        <time>2013-01-19T07:31:45Z</time>
      </trkpt>
      <trkpt lat="47.29401" lon="4.92047">
        <ele>539</ele>
        <time>2013-01-19T07:31:49Z</time>
      </trkpt>
      <trkpt lat="47.29398" lon="4.92041">
        <ele>539</ele>
        <time>2013-01-19T07:31:53Z</time>
      </trkpt>
      <trkpt lat="47.29395" lon="4.92035">
        <ele>538</ele>
        <time>2013-01-19T07:31:56Z</time>
      </trkpt>
      <trkpt lat="47.2939" lon="4.9203">
        <ele>538</ele>
        <time>2013-01-19T07:31:59Z</time>
      </trkpt>
      <trkpt lat="47.29388" lon="4.92023">
        <ele>538</ele>
        <time>2013-01-19T07:32:02Z</time>
      </trkpt>
      <trkpt lat="47.29385" lon="4.92018">
        <ele>537</ele>
        <time>2013-01-19T07:32:05Z</time>
      </trkpt>
      <trkpt lat="47.29381" lon="4.92012">
        <ele>535</ele>
        <time>2013-01-19T07:32:09Z</time>
      </trkpt>
      <trkpt lat="47.29378" lon="4.92006">
        <ele>535</ele>
        <time>2013-01-19T07:32:13Z</time>
      </trkpt>
      <trkpt lat="47.29374" lon="4.92001">
        <ele>533</ele>
        <time>2013-01-19T07:32:16Z</time>
      </trkpt>
      <trkpt lat="47.2937" lon="4.91995">
        <ele>533</ele>
        <time>2013-01-19T07:32:20Z</time>
      </trkpt>
      <trkpt lat="47.29365" lon="4.91993">
        <ele>534</ele>
        <time>2013-01-19T07:32:25Z</time>
      </trkpt>
      <trkpt lat="47.2936" lon="4.91989">
        <ele>534</ele>
        <time>2013-01-19T07:32:30Z</time>
      </trkpt>
      <trkpt lat="47.29357" lon="4.91985">
        <ele>535</ele>
        <time>2013-01-19T07:32:33Z</time>
      </trkpt>
      <trkpt lat="47.29352" lon="4.91982">
        <ele>536</ele>
        <time>2013-01-19T07:32:37Z</time>
      </trkpt>
      <trkpt lat="47.29348" lon="4.91978">
        <ele>534</ele>
        <time>2013-01-19T07:32:41Z</time>
      </trkpt>
      <trkpt lat="47.29341" lon="4.91973">
        <ele>533</ele>
        <time>2013-01-19T07:32:45Z</time>
      </trkpt>
      <trkpt lat="47.29336" lon="4.9197">
        <ele>532</ele>
        <time>2013-01-19T07:32:48Z</time>
      </trkpt>
      <trkpt lat="47.29333" lon="4.91964">
        <ele>533</ele>
        <time>2013-01-19T07:32:53Z</time>
      </trkpt>
      <trkpt lat="47.2933" lon="4.91956">
        <ele>532</ele>
        <time>2013-01-19T07:32:57Z</time>
      </trkpt>
      <trkpt lat="47.29327" lon="4.91951">
        <ele>531</ele>
        <time>2013-01-19T07:33:00Z</time>
      </trkpt>
      <trkpt lat="47.29322" lon="4.91947">
        <ele>530</ele>
        <time>2013-01-19T07:33:05Z</time>
      </trkpt>
      <trkpt lat="47.29318" lon="4.91943">
        <ele>529</ele>
        <time>2013-01-19T07:33:08Z</time>
      </trkpt>
      <trkpt lat="47.29313" lon="4.91938">
        <ele>529</ele>
        <time>2013-01-19T07:33:12Z</time>
      </trkpt>
      <trkpt lat="47.29309" lon="4.91934">
        <ele>530</ele>
        <time>2013-01-19T07:33:15Z</time>
      </trkpt>
      <trkpt lat="47.29305" lon="4.91928">
        <ele>530</ele>
        <time>2013-01-19T07:33:20Z</time>
      </trkpt>
      <trkpt lat="47.293" lon="4.91924">
        <ele>529</ele>
        <time>2013-01-19T07:33:24Z</time>
      </trkpt>
      <trkpt lat="47.29294" lon="4.91921">
        <ele>528</ele>
        <time>2013-01-19T07:33:28Z</time>
      </trkpt>
      <trkpt lat="47.29289" lon="4.91918">
        <ele>527</ele>
        <time>2013-01-19T07:33:32Z</time>
      </trkpt>
      <trkpt lat="47.29284" lon="4.91914">
        <ele>527</ele>
        <time>2013-01-19T07:33:37Z</time>
      </trkpt>
      <trkpt lat="47.2928" lon="4.91911">
        <ele>525</ele>
        <time>2013-01-19T07:33:40Z</time>
      </trkpt>
      <trkpt lat="47.29274" lon="4.91907">
        <ele>523</ele>
        <time>2013-01-19T07:33:44Z</time>
      </trkpt>
      <trkpt lat="47.29269" lon="4.91903">
        <ele>523</ele>
        <time>2013-01-19T07:33:48Z</time>
      </trkpt>
      <trkpt lat="47.29264" lon="4.91903">
        <ele>522</ele>
        <time>2013-01-19T07:33:51Z</time>
      </trkpt>
      <trkpt lat="47.2926" lon="4.919">
        <ele>522</ele>
        <time>2013-01-19T07:33:57Z</time>
      </trkpt>
      <trkpt lat="47.29254" lon="4.91899">
        <ele>524</ele>
        <time>2013-01-19T07:34:02Z</time>
      </trkpt>
      <trkpt lat="47.29248" lon="4.91898">
        <ele>523</ele>
        <time>2013-01-19T07:34:10Z</time>
      </trkpt>
      <trkpt lat="47.29242" lon="4.91898">
        <ele>523</ele>
        <time>2013-01-19T07:34:14Z</time>
      </trkpt>
      <trkpt lat="47.29238" lon="4.91897">
        <ele>522</ele>
        <time>2013-01-19T07:34:18Z</time>
      </trkpt>
      <trkpt lat="47.29233" lon="4.91898">
        <ele>521</ele>
        <time>2013-01-19T07:34:22Z</time>
      </trkpt>
      <trkpt lat="47.29227" lon="4.91899">
        <ele>521</ele>
        <time>2013-01-19T07:34:25Z</time>
      </trkpt>
      <trkpt lat="47.29221" lon="4.91901">
        <ele>521</ele>
        <time>2013-01-19T07:34:29Z</time>
      </trkpt>
      <trkpt lat="47.29216" lon="4.91901">
        <ele>520</ele>
        <time>2013-01-19T07:34:32Z</time>
      </trkpt>
      <trkpt lat="47.29211" lon="4.91903">
        <ele>518</ele>
        <time>2013-01-19T07:34:37Z</time>
      </trkpt>
      <trkpt lat="47.29205" lon="4.91905">
        <ele>519</ele>
        <time>2013-01-19T07:34:42Z</time>
      </trkpt>
      <trkpt lat="47.292" lon="4.91906">
        <ele>519</ele>
        <time>2013-01-19T07:34:46Z</time>
      </trkpt>
      <trkpt lat="47.29194" lon="4.91906">
        <ele>519</ele>
        <time>2013-01-19T07:34:50Z</time>
      </trkpt>
      <trkpt lat="47.29188" lon="4.91904">
        <ele>520</ele>
        <time>2013-01-19T07:34:53Z</time>
      </trkpt>
      <trkpt lat="47.29182" lon="4.91905">
        <ele>521</ele>
        <time>2013-01-19T07:34:57Z</time>
      </trkpt>
      <trkpt lat="47.29176" lon="4.91904">
        <ele>518</ele>
        <time>2013-01-19T07:35:01Z</time>
      </trkpt>
      <trkpt lat="47.29171" lon="4.91905">
        <ele>519</ele>
        <time>2013-01-19T07:35:05Z</time>
      </trkpt>
      <trkpt lat="47.29165" lon="4.91905">
        <ele>520</ele>
        <time>2013-01-19T07:35:08Z</time>
      </trkpt>
      <trkpt lat="47.29161" lon="4.91902">
        <ele>521</ele>
        <time>2013-01-19T07:35:13Z</time>
      </trkpt>
      <trkpt lat="47.29156" lon="4.91902">
        <ele>520</ele>
        <time>2013-01-19T07:35:16Z</time>
      </trkpt>
      <trkpt lat="47.2915" lon="4.919">
        <ele>520</ele>
        <time>2013-01-19T07:35:20Z</time>
      </trkpt>
      <trkpt lat="47.29144" lon="4.919">
        <ele>519</ele>
        <time>2013-01-19T07:35:25Z</time>
      </trkpt>
      <trkpt lat="47.2914" lon="4.919">
        <ele>518</ele>
        <time>2013-01-19T07:35:28Z</time>
      </trkpt>
      <trkpt lat="47.29133" lon="4.91899">
        <ele>517</ele>
        <time>2013-01-19T07:35:33Z</time>
      </trkpt>
      <trkpt lat="47.29128" lon="4.91897">
        <ele>519</ele>
        <time>2013-01-19T07:35:37Z</time>
      </trkpt>
      <trkpt lat="47.29122" lon="4.91895">
        <ele>520</ele>
        <time>2013-01-19T07:35:45Z</time>
      </trkpt>
      <trkpt lat="47.29115" lon="4.91894">
        <ele>518</ele>
        <time>2013-01-19T07:35:50Z</time>
      </trkpt>
      <trkpt lat="47.29109" lon="4.91893">
        <ele>517</ele>
        <time>2013-01-19T07:35:52Z</time>
      </trkpt>
      <trkpt lat="47.29104" lon="4.91891">
        <ele>517</ele>
        <time>2013-01-19T07:35:55Z</time>
      </trkpt>
      <trkpt lat="47.29099" lon="4.91891">
        <ele>517</ele>
        <time>2013-01-19T07:36:00Z</time>
      </trkpt>
      <trkpt lat="47.29094" lon="4.9189">
        <ele>519</ele>
        <time>2013-01-19T07:36:06Z</time>
      </trkpt>
      <trkpt lat="47.29087" lon="4.91892">
        <ele>518</ele>
        <time>2013-01-19T07:36:55Z</time>
      </trkpt>
      <trkpt lat="47.29085" lon="4.91884">
        <ele>512</ele>
        <time>2013-01-19T07:38:38Z</time>
      </trkpt>
      <trkpt lat="47.29083" lon="4.9189">
        <ele>503</ele>
        <time>2013-01-19T07:38:52Z</time>
      </trkpt>
      <trkpt lat="47.29082" lon="4.91897">
        <ele>504</ele>
        <time>2013-01-19T07:39:04Z</time>
      </trkpt>
      <trkpt lat="47.29082" lon="4.91897">
        <ele>504</ele>
        <time>2013-01-19T07:39:04Z</time>
      </trkpt>
      <trkpt lat="47.29082" lon="4.91897">
        <ele>503</ele>
        <time>2013-01-19T07:39:05Z</time>
      </trkpt>
      <trkpt lat="47.29078" lon="4.91902">
        <ele>509</ele>
        <time>2013-01-19T07:39:12Z</time>
      </trkpt>
      <trkpt lat="47.29076" lon="4.91908">
        <ele>511</ele>
        <time>2013-01-19T07:39:20Z</time>
      </trkpt>
      <trkpt lat="47.29074" lon="4.91915">
        <ele>515</ele>
        <time>2013-01-19T07:39:29Z</time>
      </trkpt>
      <trkpt lat="47.29071" lon="4.9192">
        <ele>518</ele>
        <time>2013-01-19T07:39:36Z</time>
      </trkpt>
      <trkpt lat="47.29068" lon="4.91927">
        <ele>519</ele>
        <time>2013-01-19T07:39:43Z</time>
      </trkpt>
      <trkpt lat="47.29065" lon="4.91933">
        <ele>520</ele>
        <time>2013-01-19T07:39:49Z</time>
      </trkpt>
      <trkpt lat="47.29062" lon="4.91938">
        <ele>520</ele>
        <time>2013-01-19T07:39:58Z</time>
      </trkpt>
      <trkpt lat="47.29061" lon="4.91944">
        <ele>519</ele>
        <time>2013-01-19T07:40:03Z</time>
      </trkpt>
      <trkpt lat="47.29058" lon="4.9195">
        <ele>521</ele>
        <time>2013-01-19T07:40:09Z</time>
      </trkpt>
      <trkpt lat="47.29055" lon="4.91955">
        <ele>524</ele>
        <time>2013-01-19T07:40:19Z</time>
      </trkpt>
      <trkpt lat="47.29057" lon="4.91961">
        <ele>523</ele>
        <time>2013-01-19T07:40:27Z</time>
      </trkpt>
      <trkpt lat="47.29052" lon="4.91964">
        <ele>523</ele>
        <time>2013-01-19T07:40:29Z</time>
      </trkpt>
      <trkpt lat="47.29045" lon="4.91965">
        <ele>524</ele>
        <time>2013-01-19T07:40:33Z</time>
      </trkpt>
      <trkpt lat="47.2905" lon="4.91968">
        <ele>523</ele>
        <time>2013-01-19T07:40:38Z</time>
      </trkpt>
      <trkpt lat="47.29049" lon="4.91975">
        <ele>526</ele>
        <time>2013-01-19T07:40:49Z</time>
      </trkpt>
      <trkpt lat="47.29048" lon="4.91984">
        <ele>532</ele>
        <time>2013-01-19T07:41:01Z</time>
      </trkpt>
      <trkpt lat="47.29045" lon="4.91988">
        <ele>532</ele>
        <time>2013-01-19T07:41:05Z</time>
      </trkpt>
      <trkpt lat="47.29041" lon="4.91992">
        <ele>533</ele>
        <time>2013-01-19T07:41:08Z</time>
      </trkpt>
      <trkpt lat="47.29039" lon="4.91999">
        <ele>536</ele>
        <time>2013-01-19T07:41:25Z</time>
      </trkpt>
      <trkpt lat="47.29038" lon="4.92006">
        <ele>537</ele>
        <time>2013-01-19T07:41:37Z</time>
      </trkpt>
      <trkpt lat="47.29035" lon="4.92011">
        <ele>538</ele>
        <time>2013-01-19T07:41:43Z</time>
      </trkpt>
      <trkpt lat="47.29034" lon="4.92017">
        <ele>538</ele>
        <time>2013-01-19T07:41:56Z</time>
      </trkpt>
      <trkpt lat="47.2903" lon="4.92014">
        <ele>538</ele>
        <time>2013-01-19T07:43:05Z</time>
      </trkpt>
      <trkpt lat="47.29025" lon="4.92009">
        <ele>537</ele>
        <time>2013-01-19T07:43:10Z</time>
      </trkpt>
      <trkpt lat="47.2902" lon="4.92011">
        <ele>539</ele>
        <time>2013-01-19T07:43:14Z</time>
      </trkpt>
      <trkpt lat="47.29017" lon="4.92007">
        <ele>543</ele>
        <time>2013-01-19T07:43:20Z</time>
      </trkpt>
      <trkpt lat="47.29012" lon="4.92006">
        <ele>544</ele>
        <time>2013-01-19T07:43:26Z</time>
      </trkpt>
      <trkpt lat="47.29007" lon="4.92003">
        <ele>544</ele>
        <time>2013-01-19T07:43:31Z</time>
      </trkpt>
      <trkpt lat="47.29002" lon="4.91995">
        <ele>544</ele>
        <time>2013-01-19T07:43:34Z</time>
      </trkpt>
      <trkpt lat="47.28998" lon="4.91992">
        <ele>544</ele>
        <time>2013-01-19T07:43:38Z</time>
      </trkpt>
      <trkpt lat="47.28995" lon="4.91986">
        <ele>544</ele>
        <time>2013-01-19T07:43:42Z</time>
      </trkpt>
      <trkpt lat="47.28991" lon="4.91981">
        <ele>546</ele>
        <time>2013-01-19T07:43:44Z</time>
      </trkpt>
      <trkpt lat="47.28991" lon="4.91973">
        <ele>547</ele>
        <time>2013-01-19T07:43:47Z</time>
      </trkpt>
      <trkpt lat="47.28987" lon="4.91968">
        <ele>548</ele>
        <time>2013-01-19T07:43:50Z</time>
      </trkpt>
      <trkpt lat="47.28987" lon="4.91978">
        <ele>555</ele>
        <time>2013-01-19T07:43:52Z</time>
      </trkpt>
      <trkpt lat="47.28982" lon="4.91972">
        <ele>552</ele>
        <time>2013-01-19T07:43:55Z</time>
      </trkpt>
      <trkpt lat="47.2898" lon="4.91964">
        <ele>551</ele>
        <time>2013-01-19T07:43:59Z</time>
      </trkpt>
      <trkpt lat="47.28978" lon="4.91956">
        <ele>552</ele>
        <time>2013-01-19T07:44:02Z</time>
      </trkpt>
      <trkpt lat="47.28975" lon="4.9195">
        <ele>550</ele>
        <time>2013-01-19T07:44:06Z</time>
      </trkpt>
      <trkpt lat="47.28972" lon="4.91944">
        <ele>548</ele>
        <time>2013-01-19T07:44:10Z</time>
      </trkpt>
      <trkpt lat="47.28968" lon="4.91938">
        <ele>547</ele>
        <time>2013-01-19T07:44:15Z</time>
      </trkpt>
      <trkpt lat="47.28964" lon="4.91933">
        <ele>547</ele>
        <time>2013-01-19T07:44:19Z</time>
      </trkpt>
      <trkpt lat="47.2896" lon="4.91929">
        <ele>547</ele>
        <time>2013-01-19T07:44:23Z</time>
      </trkpt>
      <trkpt lat="47.28956" lon="4.91925">
        <ele>549</ele>
        <time>2013-01-19T07:44:29Z</time>
      </trkpt>
      <trkpt lat="47.28952" lon="4.9192">
        <ele>549</ele>
        <time>2013-01-19T07:44:33Z</time>
      </trkpt>
      <trkpt lat="47.28948" lon="4.91915">
        <ele>549</ele>
        <time>2013-01-19T07:44:37Z</time>
      </trkpt>
      <trkpt lat="47.28944" lon="4.91912">
        <ele>549</ele>
        <time>2013-01-19T07:44:41Z</time>
      </trkpt>
      <trkpt lat="47.28938" lon="4.91912">
        <ele>548</ele>
        <time>2013-01-19T07:44:46Z</time>
      </trkpt>
      <trkpt lat="47.28935" lon="4.91907">
        <ele>548</ele>
        <time>2013-01-19T07:44:49Z</time>
      </trkpt>
      <trkpt lat="47.2893" lon="4.91904">
        <ele>549</ele>
        <time>2013-01-19T07:44:53Z</time>
      </trkpt>
      <trkpt lat="47.28926" lon="4.91902">
        <ele>549</ele>
        <time>2013-01-19T07:44:57Z</time>
      </trkpt>
      <trkpt lat="47.28922" lon="4.91898">
        <ele>548</ele>
        <time>2013-01-19T07:45:01Z</time>
      </trkpt>
      <trkpt lat="47.28916" lon="4.91897">
        <ele>550</ele>
        <time>2013-01-19T07:45:07Z</time>
      </trkpt>
      <trkpt lat="47.28912" lon="4.91895">
        <ele>550</ele>
        <time>2013-01-19T07:45:12Z</time>
      </trkpt>
      <trkpt lat="47.28907" lon="4.91891">
        <ele>551</ele>
        <time>2013-01-19T07:45:18Z</time>
      </trkpt>
      <trkpt lat="47.28902" lon="4.91889">
        <ele>550</ele>
        <time>2013-01-19T07:45:23Z</time>
      </trkpt>
      <trkpt lat="47.28897" lon="4.91888">
        <ele>550</ele>
        <time>2013-01-19T07:45:27Z</time>
      </trkpt>
      <trkpt lat="47.28892" lon="4.91888">
        <ele>551</ele>
        <time>2013-01-19T07:45:34Z</time>
      </trkpt>
      <trkpt lat="47.28887" lon="4.91885">
        <ele>551</ele>
        <time>2013-01-19T07:45:38Z</time>
      </trkpt>
      <trkpt lat="47.28882" lon="4.91882">
        <ele>549</ele>
        <time>2013-01-19T07:45:42Z</time>
      </trkpt>
      <trkpt lat="47.28877" lon="4.9188">
        <ele>551</ele>
        <time>2013-01-19T07:45:49Z</time>
      </trkpt>
      <trkpt lat="47.28873" lon="4.91875">
        <ele>550</ele>
        <time>2013-01-19T07:45:54Z</time>
      </trkpt>
      <trkpt lat="47.28869" lon="4.91872">
        <ele>549</ele>
        <time>2013-01-19T07:45:58Z</time>
      </trkpt>
      <trkpt lat="47.28864" lon="4.91868">
        <ele>549</ele>
        <time>2013-01-19T07:46:03Z</time>
      </trkpt>
      <trkpt lat="47.28859" lon="4.91868">
        <ele>551</ele>
        <time>2013-01-19T07:46:10Z</time>
      </trkpt>
      <trkpt lat="47.28855" lon="4.91866">
        <ele>552</ele>
        <time>2013-01-19T07:46:16Z</time>
      </trkpt>
      <trkpt lat="47.2885" lon="4.91866">
        <ele>554</ele>
        <time>2013-01-19T07:46:22Z</time>
      </trkpt>
      <trkpt lat="47.28845" lon="4.91866">
        <ele>556</ele>
        <time>2013-01-19T07:46:30Z</time>
      </trkpt>
      <trkpt lat="47.2884" lon="4.91865">
        <ele>556</ele>
        <time>2013-01-19T07:46:35Z</time>
      </trkpt>
      <trkpt lat="47.28835" lon="4.91867">
        <ele>556</ele>
        <time>2013-01-19T07:46:39Z</time>
      </trkpt>
      <trkpt lat="47.28831" lon="4.91862">
        <ele>556</ele>
        <time>2013-01-19T07:46:51Z</time>
      </trkpt>
      <trkpt lat="47.28826" lon="4.91862">
        <ele>556</ele>
        <time>2013-01-19T07:46:57Z</time>
      </trkpt>
      <trkpt lat="47.2882" lon="4.91864">
        <ele>555</ele>
        <time>2013-01-19T07:47:01Z</time>
      </trkpt>
      <trkpt lat="47.28815" lon="4.91863">
        <ele>553</ele>
        <time>2013-01-19T07:47:06Z</time>
      </trkpt>
      <trkpt lat="47.2881" lon="4.91861">
        <ele>552</ele>
        <time>2013-01-19T07:47:10Z</time>
      </trkpt>
      <trkpt lat="47.28805" lon="4.91858">
        <ele>552</ele>
        <time>2013-01-19T07:47:13Z</time>
      </trkpt>
      <trkpt lat="47.28799" lon="4.91857">
        <ele>552</ele>
        <time>2013-01-19T07:47:16Z</time>
      </trkpt>
      <trkpt lat="47.28794" lon="4.91858">
        <ele>554</ele>
        <time>2013-01-19T07:47:23Z</time>
      </trkpt>
      <trkpt lat="47.28788" lon="4.91856">
        <ele>552</ele>
        <time>2013-01-19T07:47:27Z</time>
      </trkpt>
      <trkpt lat="47.28783" lon="4.91856">
        <ele>553</ele>
        <time>2013-01-19T07:47:31Z</time>
      </trkpt>
      <trkpt lat="47.28777" lon="4.91856">
        <ele>553</ele>
        <time>2013-01-19T07:47:35Z</time>
      </trkpt>
      <trkpt lat="47.28773" lon="4.91859">
        <ele>554</ele>
        <time>2013-01-19T07:47:39Z</time>
      </trkpt>
      <trkpt lat="47.28768" lon="4.91858">
        <ele>553</ele>
        <time>2013-01-19T07:47:43Z</time>
      </trkpt>
      <trkpt lat="47.28763" lon="4.91856">
        <ele>553</ele>
        <time>2013-01-19T07:47:47Z</time>
      </trkpt>
      <trkpt lat="47.28758" lon="4.91855">
        <ele>552</ele>
        <time>2013-01-19T07:47:51Z</time>
      </trkpt>
      <trkpt lat="47.28753" lon="4.91854">
        <ele>553</ele>
        <time>2013-01-19T07:47:55Z</time>
      </trkpt>
      <trkpt lat="47.28748" lon="4.91854">
        <ele>552</ele>
        <time>2013-01-19T07:47:59Z</time>
      </trkpt>
      <trkpt lat="47.28742" lon="4.91854">
        <ele>552</ele>
        <time>2013-01-19T07:48:03Z</time>
      </trkpt>
      <trkpt lat="47.28737" lon="4.91855">
        <ele>552</ele>
        <time>2013-01-19T07:48:08Z</time>
      </trkpt>
      <trkpt lat="47.28732" lon="4.91855">
        <ele>552</ele>
        <time>2013-01-19T07:48:14Z</time>
      </trkpt>
      <trkpt lat="47.28728" lon="4.91855">
        <ele>554</ele>
        <time>2013-01-19T07:48:19Z</time>
      </trkpt>
      <trkpt lat="47.28723" lon="4.91858">
        <ele>557</ele>
        <time>2013-01-19T07:48:25Z</time>
      </trkpt>
      <trkpt lat="47.28718" lon="4.91858">
        <ele>557</ele>
        <time>2013-01-19T07:48:28Z</time>
      </trkpt>
      <trkpt lat="47.28713" lon="4.91857">
        <ele>559</ele>
        <time>2013-01-19T07:48:36Z</time>
      </trkpt>
      <trkpt lat="47.28708" lon="4.91858">
        <ele>560</ele>
        <time>2013-01-19T07:48:41Z</time>
      </trkpt>
      <trkpt lat="47.28703" lon="4.91858">
        <ele>559</ele>
        <time>2013-01-19T07:48:44Z</time>
      </trkpt>
      <trkpt lat="47.28696" lon="4.91859">
        <ele>559</ele>
        <time>2013-01-19T07:48:47Z</time>
      </trkpt>
      <trkpt lat="47.2869" lon="4.91858">
        <ele>559</ele>
        <time>2013-01-19T07:48:50Z</time>
      </trkpt>
      <trkpt lat="47.28686" lon="4.91857">
        <ele>561</ele>
        <time>2013-01-19T07:48:53Z</time>
      </trkpt>
      <trkpt lat="47.2868" lon="4.91856">
        <ele>561</ele>
        <time>2013-01-19T07:48:57Z</time>
      </trkpt>
      <trkpt lat="47.28675" lon="4.91859">
        <ele>562</ele>
        <time>2013-01-19T07:49:04Z</time>
      </trkpt>
      <trkpt lat="47.2867" lon="4.91858">
        <ele>562</ele>
        <time>2013-01-19T07:49:07Z</time>
      </trkpt>
      <trkpt lat="47.28665" lon="4.91858">
        <ele>561</ele>
        <time>2013-01-19T07:49:12Z</time>
      </trkpt>
      <trkpt lat="47.28659" lon="4.91859">
        <ele>562</ele>
        <time>2013-01-19T07:49:15Z</time>
      </trkpt>
      <trkpt lat="47.28654" lon="4.91856">
        <ele>563</ele>
        <time>2013-01-19T07:49:18Z</time>
      </trkpt>
      <trkpt lat="47.2865" lon="4.91856">
        <ele>563</ele>
        <time>2013-01-19T07:49:21Z</time>
      </trkpt>
      <trkpt lat="47.28645" lon="4.91852">
        <ele>567</ele>
        <time>2013-01-19T07:49:26Z</time>
      </trkpt>
      <trkpt lat="47.2864" lon="4.91852">
        <ele>567</ele>
        <time>2013-01-19T07:49:28Z</time>
      </trkpt>
      <trkpt lat="47.28634" lon="4.91853">
        <ele>563</ele>
        <time>2013-01-19T07:49:35Z</time>
      </trkpt>
      <trkpt lat="47.28628" lon="4.91854">
        <ele>563</ele>
        <time>2013-01-19T07:49:38Z</time>
      </trkpt>
      <trkpt lat="47.28623" lon="4.91854">
        <ele>567</ele>
        <time>2013-01-19T07:49:43Z</time>
      </trkpt>
      <trkpt lat="47.28619" lon="4.91853">
        <ele>566</ele>
        <time>2013-01-19T07:49:45Z</time>
      </trkpt>
      <trkpt lat="47.28614" lon="4.91851">
        <ele>567</ele>
        <time>2013-01-19T07:49:49Z</time>
      </trkpt>
      <trkpt lat="47.28608" lon="4.9185">
        <ele>568</ele>
        <time>2013-01-19T07:49:52Z</time>
      </trkpt>
      <trkpt lat="47.28602" lon="4.91847">
        <ele>568</ele>
        <time>2013-01-19T07:49:56Z</time>
      </trkpt>
      <trkpt lat="47.28597" lon="4.91846">
        <ele>568</ele>
        <time>2013-01-19T07:49:59Z</time>
      </trkpt>
      <trkpt lat="47.28591" lon="4.91842">
        <ele>569</ele>
        <time>2013-01-19T07:50:01Z</time>
      </trkpt>
      <trkpt lat="47.28585" lon="4.91841">
        <ele>569</ele>
        <time>2013-01-19T07:50:06Z</time>
      </trkpt>
      <trkpt lat="47.2858" lon="4.91838">
        <ele>568</ele>
        <time>2013-01-19T07:50:08Z</time>
      </trkpt>
      <trkpt lat="47.28574" lon="4.91836">
        <ele>568</ele>
        <time>2013-01-19T07:50:11Z</time>
      </trkpt>
      <trkpt lat="47.28569" lon="4.91834">
        <ele>568</ele>
        <time>2013-01-19T07:50:15Z</time>
      </trkpt>
      <trkpt lat="47.28564" lon="4.91837">
        <ele>568</ele>
        <time>2013-01-19T07:50:20Z</time>
      </trkpt>
      <trkpt lat="47.28559" lon="4.91835">
        <ele>569</ele>
        <time>2013-01-19T07:50:24Z</time>
      </trkpt>
      <trkpt lat="47.28554" lon="4.91837">
        <ele>570</ele>
        <time>2013-01-19T07:50:28Z</time>
      </trkpt>
      <trkpt lat="47.28549" lon="4.91837">
        <ele>569</ele>
        <time>2013-01-19T07:50:32Z</time>
      </trkpt>
      <trkpt lat="47.28543" lon="4.91836">
        <ele>567</ele>
        <time>2013-01-19T07:50:36Z</time>
      </trkpt>
      <trkpt lat="47.28538" lon="4.91834">
        <ele>568</ele>
        <time>2013-01-19T07:50:39Z</time>
      </trkpt>
      <trkpt lat="47.28533" lon="4.91834">
        <ele>568</ele>
        <time>2013-01-19T07:50:43Z</time>
      </trkpt>
      <trkpt lat="47.28528" lon="4.91829">
        <ele>567</ele>
        <time>2013-01-19T07:50:46Z</time>
      </trkpt>
      <trkpt lat="47.28524" lon="4.91824">
        <ele>564</ele>
        <time>2013-01-19T07:50:51Z</time>
      </trkpt>
      <trkpt lat="47.28519" lon="4.91821">
        <ele>561</ele>
        <time>2013-01-19T07:50:54Z</time>
      </trkpt>
      <trkpt lat="47.28514" lon="4.91822">
        <ele>560</ele>
        <time>2013-01-19T07:50:58Z</time>
      </trkpt>
      <trkpt lat="47.28509" lon="4.91822">
        <ele>559</ele>
        <time>2013-01-19T07:51:01Z</time>
      </trkpt>
      <trkpt lat="47.28504" lon="4.91824">
        <ele>561</ele>
        <time>2013-01-19T07:51:04Z</time>
      </trkpt>
      <trkpt lat="47.285" lon="4.91824">
        <ele>560</ele>
        <time>2013-01-19T07:51:08Z</time>
      </trkpt>
      <trkpt lat="47.28494" lon="4.91825">
        <ele>559</ele>
        <time>2013-01-19T07:51:12Z</time>
      </trkpt>
      <trkpt lat="47.28488" lon="4.91824">
        <ele>555</ele>
        <time>2013-01-19T07:51:16Z</time>
      </trkpt>
      <trkpt lat="47.28483" lon="4.91824">
        <ele>555</ele>
        <time>2013-01-19T07:51:19Z</time>
      </trkpt>
      <trkpt lat="47.28478" lon="4.91825">
        <ele>555</ele>
        <time>2013-01-19T07:51:22Z</time>
      </trkpt>
      <trkpt lat="47.28472" lon="4.91823">
        <ele>555</ele>
        <time>2013-01-19T07:51:25Z</time>
      </trkpt>
      <trkpt lat="47.28467" lon="4.91823">
        <ele>557</ele>
        <time>2013-01-19T07:51:29Z</time>
      </trkpt>
      <trkpt lat="47.28462" lon="4.91823">
        <ele>558</ele>
        <time>2013-01-19T07:51:32Z</time>
      </trkpt>
      <trkpt lat="47.28457" lon="4.91826">
        <ele>557</ele>
        <time>2013-01-19T07:51:36Z</time>
      </trkpt>
      <trkpt lat="47.28452" lon="4.91824">
        <ele>558</ele>
        <time>2013-01-19T07:51:39Z</time>
      </trkpt>
      <trkpt lat="47.28446" lon="4.91824">
        <ele>559</ele>
        <time>2013-01-19T07:51:43Z</time>
      </trkpt>
      <trkpt lat="47.28442" lon="4.91824">
        <ele>558</ele>
        <time>2013-01-19T07:51:47Z</time>
      </trkpt>
      <trkpt lat="47.28437" lon="4.91819">
        <ele>559</ele>
        <time>2013-01-19T07:51:50Z</time>
      </trkpt>
      <trkpt lat="47.28431" lon="4.91817">
        <ele>557</ele>
        <time>2013-01-19T07:51:54Z</time>
      </trkpt>
      <trkpt lat="47.28426" lon="4.91813">
        <ele>553</ele>
        <time>2013-01-19T07:51:57Z</time>
      </trkpt>
      <trkpt lat="47.28421" lon="4.9181">
        <ele>554</ele>
        <time>2013-01-19T07:52:01Z</time>
      </trkpt>
      <trkpt lat="47.28416" lon="4.91808">
        <ele>556</ele>
        <time>2013-01-19T07:52:05Z</time>
      </trkpt>
      <trkpt lat="47.28412" lon="4.91805">
        <ele>555</ele>
        <time>2013-01-19T07:52:09Z</time>
      </trkpt>
      <trkpt lat="47.28408" lon="4.918">
        <ele>555</ele>
        <time>2013-01-19T07:52:13Z</time>
      </trkpt>
      <trkpt lat="47.28403" lon="4.91798">
        <ele>555</ele>
        <time>2013-01-19T07:52:16Z</time>
      </trkpt>
      <trkpt lat="47.28399" lon="4.91794">
        <ele>556</ele>
        <time>2013-01-19T07:52:19Z</time>
      </trkpt>
      <trkpt lat="47.28394" lon="4.9179">
        <ele>554</ele>
        <time>2013-01-19T07:52:23Z</time>
      </trkpt>
      <trkpt lat="47.2839" lon="4.91786">
        <ele>552</ele>
        <time>2013-01-19T07:52:27Z</time>
      </trkpt>
      <trkpt lat="47.28384" lon="4.91782">
        <ele>552</ele>
        <time>2013-01-19T07:52:31Z</time>
      </trkpt>
      <trkpt lat="47.28379" lon="4.91781">
        <ele>552</ele>
        <time>2013-01-19T07:52:35Z</time>
      </trkpt>
      <trkpt lat="47.28373" lon="4.91779">
        <ele>551</ele>
        <time>2013-01-19T07:52:39Z</time>
      </trkpt>
      <trkpt lat="47.28369" lon="4.91776">
        <ele>550</ele>
        <time>2013-01-19T07:52:43Z</time>
      </trkpt>
      <trkpt lat="47.28365" lon="4.91773">
        <ele>550</ele>
        <time>2013-01-19T07:52:47Z</time>
      </trkpt>
      <trkpt lat="47.2836" lon="4.9177">
        <ele>551</ele>
        <time>2013-01-19T07:52:51Z</time>
      </trkpt>
      <trkpt lat="47.28355" lon="4.91767">
        <ele>551</ele>
        <time>2013-01-19T07:52:55Z</time>
      </trkpt>
      <trkpt lat="47.28351" lon="4.91765">
        <ele>551</ele>
        <time>2013-01-19T07:52:58Z</time>
      </trkpt>
      <trkpt lat="47.28346" lon="4.91763">
        <ele>551</ele>
        <time>2013-01-19T07:53:02Z</time>
      </trkpt>
      <trkpt lat="47.28341" lon="4.9176">
        <ele>550</ele>
        <time>2013-01-19T07:53:06Z</time>
      </trkpt>
      <trkpt lat="47.28335" lon="4.91758">
        <ele>550</ele>
        <time>2013-01-19T07:53:10Z</time>
      </trkpt>
      <trkpt lat="47.28331" lon="4.91755">
        <ele>550</ele>
        <time>2013-01-19T07:53:13Z</time>
      </trkpt>
      <trkpt lat="47.28325" lon="4.91753">
        <ele>551</ele>
        <time>2013-01-19T07:53:18Z</time>
      </trkpt>
      <trkpt lat="47.2832" lon="4.91752">
        <ele>553</ele>
        <time>2013-01-19T07:53:22Z</time>
      </trkpt>
      <trkpt lat="47.28316" lon="4.9175">
        <ele>555</ele>
        <time>2013-01-19T07:53:25Z</time>
      </trkpt>
      <trkpt lat="47.2831" lon="4.91748">
        <ele>554</ele>
        <time>2013-01-19T07:53:29Z</time>
      </trkpt>
      <trkpt lat="47.28304" lon="4.91745">
        <ele>554</ele>
        <time>2013-01-19T07:53:33Z</time>
      </trkpt>
      <trkpt lat="47.28299" lon="4.91744">
        <ele>555</ele>
        <time>2013-01-19T07:53:37Z</time>
      </trkpt>
      <trkpt lat="47.28294" lon="4.91743">
        <ele>555</ele>
        <time>2013-01-19T07:53:41Z</time>
      </trkpt>
      <trkpt lat="47.28288" lon="4.91743">
        <ele>555</ele>
        <time>2013-01-19T07:53:46Z</time>
      </trkpt>
      <trkpt lat="47.28288" lon="4.91743">
        <ele>555</ele>
        <time>2013-01-19T07:53:46Z</time>
      </trkpt>
      <trkpt lat="47.28288" lon="4.91743">
        <ele>556</ele>
        <time>2013-01-19T07:53:48Z</time>
      </trkpt>
      <trkpt lat="47.28283" lon="4.91743">
        <ele>557</ele>
        <time>2013-01-19T07:53:51Z</time>
      </trkpt>
      <trkpt lat="47.28278" lon="4.91743">
        <ele>557</ele>
        <time>2013-01-19T07:53:56Z</time>
      </trkpt>
      <trkpt lat="47.28273" lon="4.91744">
        <ele>559</ele>
        <time>2013-01-19T07:54:05Z</time>
      </trkpt>
      <trkpt lat="47.28267" lon="4.91746">
        <ele>558</ele>
        <time>2013-01-19T07:54:10Z</time>
      </trkpt>
      <trkpt lat="47.28261" lon="4.91749">
        <ele>558</ele>
        <time>2013-01-19T07:54:14Z</time>
      </trkpt>
      <trkpt lat="47.28261" lon="4.91749">
        <ele>558</ele>
        <time>2013-01-19T07:54:14Z</time>
      </trkpt>
      <trkpt lat="47.28261" lon="4.91749">
        <ele>558</ele>
        <time>2013-01-19T07:54:15Z</time>
      </trkpt>
      <trkpt lat="47.28256" lon="4.9175">
        <ele>559</ele>
        <time>2013-01-19T07:54:19Z</time>
      </trkpt>
      <trkpt lat="47.28252" lon="4.91752">
        <ele>561</ele>
        <time>2013-01-19T07:54:23Z</time>
      </trkpt>
      <trkpt lat="47.28246" lon="4.91754">
        <ele>560</ele>
        <time>2013-01-19T07:54:28Z</time>
      </trkpt>
      <trkpt lat="47.28242" lon="4.91757">
        <ele>561</ele>
        <time>2013-01-19T07:54:32Z</time>
      </trkpt>
      <trkpt lat="47.28236" lon="4.91759">
        <ele>563</ele>
        <time>2013-01-19T07:54:36Z</time>
      </trkpt>
      <trkpt lat="47.28231" lon="4.91759">
        <ele>564</ele>
        <time>2013-01-19T07:54:40Z</time>
      </trkpt>
      <trkpt lat="47.28226" lon="4.91759">
        <ele>563</ele>
        <time>2013-01-19T07:54:44Z</time>
      </trkpt>
      <trkpt lat="47.28222" lon="4.91762">
        <ele>565</ele>
        <time>2013-01-19T07:54:47Z</time>
      </trkpt>
      <trkpt lat="47.28216" lon="4.91764">
        <ele>566</ele>
        <time>2013-01-19T07:54:50Z</time>
      </trkpt>
      <trkpt lat="47.28211" lon="4.91765">
        <ele>567</ele>
        <time>2013-01-19T07:54:54Z</time>
      </trkpt>
      <trkpt lat="47.28205" lon="4.91766">
        <ele>569</ele>
        <time>2013-01-19T07:54:59Z</time>
      </trkpt>
      <trkpt lat="47.282" lon="4.91767">
        <ele>569</ele>
        <time>2013-01-19T07:55:05Z</time>
      </trkpt>
      <trkpt lat="47.28195" lon="4.91768">
        <ele>570</ele>
        <time>2013-01-19T07:55:08Z</time>
      </trkpt>
      <trkpt lat="47.2819" lon="4.91768">
        <ele>570</ele>
        <time>2013-01-19T07:55:11Z</time>
      </trkpt>
      <trkpt lat="47.28185" lon="4.9177">
        <ele>570</ele>
        <time>2013-01-19T07:55:15Z</time>
      </trkpt>
      <trkpt lat="47.28179" lon="4.91771">
        <ele>571</ele>
        <time>2013-01-19T07:55:19Z</time>
      </trkpt>
      <trkpt lat="47.28174" lon="4.91771">
        <ele>572</ele>
        <time>2013-01-19T07:55:23Z</time>
      </trkpt>
      <trkpt lat="47.2817" lon="4.91774">
        <ele>569</ele>
        <time>2013-01-19T07:56:00Z</time>
      </trkpt>
      <trkpt lat="47.2817" lon="4.91774">
        <ele>569</ele>
        <time>2013-01-19T07:56:00Z</time>
      </trkpt>
      <trkpt lat="47.2817" lon="4.91774">
        <ele>570</ele>
        <time>2013-01-19T07:57:00Z</time>
      </trkpt>
      <trkpt lat="47.28165" lon="4.91774">
        <ele>572</ele>
        <time>2013-01-19T07:57:29Z</time>
      </trkpt>
      <trkpt lat="47.28158" lon="4.91772">
        <ele>572</ele>
        <time>2013-01-19T07:57:33Z</time>
      </trkpt>
      <trkpt lat="47.28151" lon="4.91772">
        <ele>572</ele>
        <time>2013-01-19T07:57:37Z</time>
      </trkpt>
      <trkpt lat="47.28145" lon="4.9177">
        <ele>572</ele>
        <time>2013-01-19T07:57:40Z</time>
      </trkpt>
      <trkpt lat="47.28139" lon="4.91768">
        <ele>572</ele>
        <time>2013-01-19T07:57:47Z</time>
      </trkpt>
      <trkpt lat="47.28133" lon="4.91767">
        <ele>573</ele>
        <time>2013-01-19T07:57:51Z</time>
      </trkpt>
      <trkpt lat="47.28128" lon="4.91767">
        <ele>574</ele>
        <time>2013-01-19T07:57:55Z</time>
      </trkpt>
      <trkpt lat="47.28123" lon="4.91766">
        <ele>579</ele>
        <time>2013-01-19T07:58:00Z</time>
      </trkpt>
      <trkpt lat="47.28118" lon="4.91766">
        <ele>578</ele>
        <time>2013-01-19T07:58:03Z</time>
      </trkpt>
      <trkpt lat="47.28112" lon="4.91764">
        <ele>577</ele>
        <time>2013-01-19T07:58:07Z</time>
      </trkpt>
      <trkpt lat="47.28107" lon="4.91763">
        <ele>577</ele>
        <time>2013-01-19T07:58:10Z</time>
      </trkpt>
      <trkpt lat="47.28102" lon="4.91763">
        <ele>577</ele>
        <time>2013-01-19T07:58:13Z</time>
      </trkpt>
      <trkpt lat="47.28097" lon="4.91762">
        <ele>577</ele>
        <time>2013-01-19T07:58:16Z</time>
      </trkpt>
      <trkpt lat="47.28092" lon="4.91759">
        <ele>576</ele>
        <time>2013-01-19T07:58:20Z</time>
      </trkpt>
      <trkpt lat="47.28086" lon="4.91758">
        <ele>575</ele>
        <time>2013-01-19T07:58:27Z</time>
      </trkpt>
      <trkpt lat="47.28082" lon="4.91758">
        <ele>575</ele>
        <time>2013-01-19T07:58:31Z</time>
      </trkpt>
      <trkpt lat="47.28076" lon="4.91759">
        <ele>574</ele>
        <time>2013-01-19T07:58:33Z</time>
      </trkpt>
      <trkpt lat="47.28071" lon="4.91757">
        <ele>574</ele>
        <time>2013-01-19T07:58:37Z</time>
      </trkpt>
      <trkpt lat="47.28066" lon="4.91756">
        <ele>574</ele>
        <time>2013-01-19T07:58:41Z</time>
      </trkpt>
      <trkpt lat="47.2806" lon="4.91754">
        <ele>573</ele>
        <time>2013-01-19T07:58:46Z</time>
      </trkpt>
      <trkpt lat="47.28055" lon="4.91753">
        <ele>573</ele>
        <time>2013-01-19T07:58:50Z</time>
      </trkpt>
      <trkpt lat="47.28051" lon="4.9175">
        <ele>573</ele>
        <time>2013-01-19T07:58:53Z</time>
      </trkpt>
      <trkpt lat="47.28046" lon="4.91748">
        <ele>572</ele>
        <time>2013-01-19T07:58:58Z</time>
      </trkpt>
      <trkpt lat="47.28041" lon="4.91747">
        <ele>571</ele>
        <time>2013-01-19T07:59:01Z</time>
      </trkpt>
      <trkpt lat="47.28036" lon="4.91744">
        <ele>572</ele>
        <time>2013-01-19T07:59:06Z</time>
      </trkpt>
      <trkpt lat="47.28032" lon="4.91741">
        <ele>573</ele>
        <time>2013-01-19T07:59:11Z</time>
      </trkpt>
      <trkpt lat="47.2803" lon="4.91733">
        <ele>575</ele>
        <time>2013-01-19T07:59:15Z</time>
      </trkpt>
      <trkpt lat="47.28027" lon="4.91728">
        <ele>574</ele>
        <time>2013-01-19T07:59:21Z</time>
      </trkpt>
      <trkpt lat="47.28024" lon="4.91722">
        <ele>572</ele>
        <time>2013-01-19T07:59:26Z</time>
      </trkpt>
      <trkpt lat="47.2802" lon="4.91718">
        <ele>571</ele>
        <time>2013-01-19T07:59:30Z</time>
      </trkpt>
      <trkpt lat="47.28014" lon="4.91718">
        <ele>567</ele>
        <time>2013-01-19T07:59:37Z</time>
      </trkpt>
      <trkpt lat="47.28009" lon="4.9172">
        <ele>567</ele>
        <time>2013-01-19T07:59:42Z</time>
      </trkpt>
      <trkpt lat="47.28005" lon="4.91723">
        <ele>567</ele>
        <time>2013-01-19T07:59:46Z</time>
      </trkpt>
      <trkpt lat="47.28" lon="4.91727">
        <ele>566</ele>
        <time>2013-01-19T07:59:51Z</time>
      </trkpt>
      <trkpt lat="47.27996" lon="4.9173">
        <ele>566</ele>
        <time>2013-01-19T07:59:56Z</time>
      </trkpt>
      <trkpt lat="47.27992" lon="4.91735">
        <ele>570</ele>
        <time>2013-01-19T08:00:03Z</time>
      </trkpt>
      <trkpt lat="47.27988" lon="4.91741">
        <ele>571</ele>
        <time>2013-01-19T08:00:08Z</time>
      </trkpt>
      <trkpt lat="47.27984" lon="4.91744">
        <ele>572</ele>
        <time>2013-01-19T08:00:13Z</time>
      </trkpt>
      <trkpt lat="47.27981" lon="4.91749">
        <ele>572</ele>
        <time>2013-01-19T08:00:19Z</time>
      </trkpt>
      <trkpt lat="47.27978" lon="4.91755">
        <ele>572</ele>
        <time>2013-01-19T08:00:26Z</time>
      </trkpt>
      <trkpt lat="47.27975" lon="4.91762">
        <ele>573</ele>
        <time>2013-01-19T08:00:31Z</time>
      </trkpt>
      <trkpt lat="47.27972" lon="4.91768">
        <ele>574</ele>
        <time>2013-01-19T08:00:35Z</time>
      </trkpt>
      <trkpt lat="47.27969" lon="4.91774">
        <ele>574</ele>
        <time>2013-01-19T08:00:40Z</time>
      </trkpt>
      <trkpt lat="47.2797" lon="4.91781">
        <ele>574</ele>
        <time>2013-01-19T08:00:45Z</time>
      </trkpt>
      <trkpt lat="47.27967" lon="4.91787">
        <ele>573</ele>
        <time>2013-01-19T08:00:48Z</time>
      </trkpt>
      <trkpt lat="47.27965" lon="4.91793">
        <ele>571</ele>
        <time>2013-01-19T08:00:52Z</time>
      </trkpt>
      <trkpt lat="47.27962" lon="4.91799">
        <ele>570</ele>
        <time>2013-01-19T08:00:55Z</time>
      </trkpt>
      <trkpt lat="47.27957" lon="4.91803">
        <ele>571</ele>
        <time>2013-01-19T08:00:58Z</time>
      </trkpt>
      <trkpt lat="47.27953" lon="4.9181">
        <ele>570</ele>
        <time>2013-01-19T08:01:01Z</time>
      </trkpt>
      <trkpt lat="47.27951" lon="4.91816">
        <ele>568</ele>
        <time>2013-01-19T08:01:05Z</time>
      </trkpt>
      <trkpt lat="47.27948" lon="4.91822">
        <ele>569</ele>
        <time>2013-01-19T08:01:09Z</time>
      </trkpt>
      <trkpt lat="47.27946" lon="4.91829">
        <ele>570</ele>
        <time>2013-01-19T08:01:13Z</time>
      </trkpt>
      <trkpt lat="47.27943" lon="4.91836">
        <ele>569</ele>
        <time>2013-01-19T08:01:17Z</time>
      </trkpt>
      <trkpt lat="47.27937" lon="4.91845">
        <ele>568</ele>
        <time>2013-01-19T08:01:22Z</time>
      </trkpt>
      <trkpt lat="47.27936" lon="4.91852">
        <ele>568</ele>
        <time>2013-01-19T08:01:25Z</time>
      </trkpt>
      <trkpt lat="47.27936" lon="4.91859">
        <ele>568</ele>
        <time>2013-01-19T08:01:28Z</time>
      </trkpt>
      <trkpt lat="47.27935" lon="4.91866">
        <ele>569</ele>
        <time>2013-01-19T08:01:31Z</time>
      </trkpt>
      <trkpt lat="47.27933" lon="4.91873">
        <ele>569</ele>
        <time>2013-01-19T08:01:35Z</time>
      </trkpt>
      <trkpt lat="47.27933" lon="4.91882">
        <ele>568</ele>
        <time>2013-01-19T08:01:39Z</time>
      </trkpt>
      <trkpt lat="47.27932" lon="4.91888">
        <ele>567</ele>
        <time>2013-01-19T08:01:42Z</time>
      </trkpt>
      <trkpt lat="47.27933" lon="4.91896">
        <ele>570</ele>
        <time>2013-01-19T08:01:47Z</time>
      </trkpt>
      <trkpt lat="47.27934" lon="4.91905">
        <ele>572</ele>
        <time>2013-01-19T08:01:51Z</time>
      </trkpt>
      <trkpt lat="47.27934" lon="4.91913">
        <ele>573</ele>
        <time>2013-01-19T08:01:55Z</time>
      </trkpt>
      <trkpt lat="47.27934" lon="4.9192">
        <ele>576</ele>
        <time>2013-01-19T08:01:59Z</time>
      </trkpt>
      <trkpt lat="47.27936" lon="4.91927">
        <ele>578</ele>
        <time>2013-01-19T08:02:03Z</time>
      </trkpt>
      <trkpt lat="47.27937" lon="4.91934">
        <ele>579</ele>
        <time>2013-01-19T08:02:07Z</time>
      </trkpt>
      <trkpt lat="47.27936" lon="4.91941">
        <ele>580</ele>
        <time>2013-01-19T08:02:10Z</time>
      </trkpt>
      <trkpt lat="47.27936" lon="4.91948">
        <ele>581</ele>
        <time>2013-01-19T08:02:14Z</time>
      </trkpt>
      <trkpt lat="47.27942" lon="4.91954">
        <ele>581</ele>
        <time>2013-01-19T08:02:16Z</time>
      </trkpt>
      <trkpt lat="47.27946" lon="4.91962">
        <ele>581</ele>
        <time>2013-01-19T08:02:19Z</time>
      </trkpt>
      <trkpt lat="47.27948" lon="4.91968">
        <ele>580</ele>
        <time>2013-01-19T08:02:21Z</time>
      </trkpt>
      <trkpt lat="47.2795" lon="4.91975">
        <ele>580</ele>
        <time>2013-01-19T08:02:25Z</time>
      </trkpt>
      <trkpt lat="47.27952" lon="4.91981">
        <ele>580</ele>
        <time>2013-01-19T08:02:28Z</time>
      </trkpt>
      <trkpt lat="47.27955" lon="4.91988">
        <ele>580</ele>
        <time>2013-01-19T08:02:31Z</time>
      </trkpt>
      <trkpt lat="47.27957" lon="4.91996">
        <ele>578</ele>
        <time>2013-01-19T08:02:35Z</time>
      </trkpt>
      <trkpt lat="47.2796" lon="4.92002">
        <ele>577</ele>
        <time>2013-01-19T08:02:38Z</time>
      </trkpt>
      <trkpt lat="47.27961" lon="4.9201">
        <ele>578</ele>
        <time>2013-01-19T08:02:43Z</time>
      </trkpt>
      <trkpt lat="47.27962" lon="4.92018">
        <ele>578</ele>
        <time>2013-01-19T08:02:47Z</time>
      </trkpt>
      <trkpt lat="47.27965" lon="4.92025">
        <ele>580</ele>
        <time>2013-01-19T08:02:52Z</time>
      </trkpt>
      <trkpt lat="47.27967" lon="4.92033">
        <ele>580</ele>
        <time>2013-01-19T08:02:56Z</time>
      </trkpt>
      <trkpt lat="47.2797" lon="4.9204">
        <ele>580</ele>
        <time>2013-01-19T08:03:00Z</time>
      </trkpt>
      <trkpt lat="47.27971" lon="4.92048">
        <ele>581</ele>
        <time>2013-01-19T08:03:05Z</time>
      </trkpt>
      <trkpt lat="47.27975" lon="4.92054">
        <ele>581</ele>
        <time>2013-01-19T08:03:08Z</time>
      </trkpt>
      <trkpt lat="47.27978" lon="4.92061">
        <ele>580</ele>
        <time>2013-01-19T08:03:11Z</time>
      </trkpt>
      <trkpt lat="47.27981" lon="4.92066">
        <ele>581</ele>
        <time>2013-01-19T08:03:15Z</time>
      </trkpt>
      <trkpt lat="47.27986" lon="4.92072">
        <ele>581</ele>
        <time>2013-01-19T08:03:19Z</time>
      </trkpt>
      <trkpt lat="47.2799" lon="4.92078">
        <ele>582</ele>
        <time>2013-01-19T08:03:23Z</time>
      </trkpt>
      <trkpt lat="47.27994" lon="4.92083">
        <ele>582</ele>
        <time>2013-01-19T08:03:27Z</time>
      </trkpt>
      <trkpt lat="47.27998" lon="4.92088">
        <ele>582</ele>
        <time>2013-01-19T08:03:31Z</time>
      </trkpt>
      <trkpt lat="47.28003" lon="4.92092">
        <ele>582</ele>
        <time>2013-01-19T08:03:35Z</time>
      </trkpt>
      <trkpt lat="47.28007" lon="4.92097">
        <ele>583</ele>
        <time>2013-01-19T08:03:39Z</time>
      </trkpt>
      <trkpt lat="47.28011" lon="4.92102">
        <ele>582</ele>
        <time>2013-01-19T08:03:43Z</time>
      </trkpt>
      <trkpt lat="47.28016" lon="4.92106">
        <ele>583</ele>
        <time>2013-01-19T08:03:47Z</time>
      </trkpt>
      <trkpt lat="47.2802" lon="4.9211">
        <ele>584</ele>
        <time>2013-01-19T08:03:51Z</time>
      </trkpt>
      <trkpt lat="47.28025" lon="4.92114">
        <ele>585</ele>
        <time>2013-01-19T08:03:55Z</time>
      </trkpt>
      <trkpt lat="47.2803" lon="4.92119">
        <ele>585</ele>
        <time>2013-01-19T08:03:59Z</time>
      </trkpt>
      <trkpt lat="47.28035" lon="4.92122">
        <ele>585</ele>
        <time>2013-01-19T08:04:03Z</time>
      </trkpt>
      <trkpt lat="47.28039" lon="4.92127">
        <ele>588</ele>
        <time>2013-01-19T08:04:07Z</time>
      </trkpt>
      <trkpt lat="47.28043" lon="4.92133">
        <ele>588</ele>
        <time>2013-01-19T08:04:12Z</time>
      </trkpt>
      <trkpt lat="47.28046" lon="4.92138">
        <ele>590</ele>
        <time>2013-01-19T08:04:16Z</time>
      </trkpt>
      <trkpt lat="47.28052" lon="4.92141">
        <ele>593</ele>
        <time>2013-01-19T08:04:21Z</time>
      </trkpt>
      <trkpt lat="47.28056" lon="4.92147">
        <ele>596</ele>
        <time>2013-01-19T08:04:26Z</time>
      </trkpt>
      <trkpt lat="47.2806" lon="4.9215">
        <ele>596</ele>
        <time>2013-01-19T08:04:30Z</time>
      </trkpt>
      <trkpt lat="47.28064" lon="4.92156">
        <ele>599</ele>
        <time>2013-01-19T08:04:35Z</time>
      </trkpt>
      <trkpt lat="47.28068" lon="4.92161">
        <ele>601</ele>
        <time>2013-01-19T08:04:39Z</time>
      </trkpt>
      <trkpt lat="47.28072" lon="4.92166">
        <ele>602</ele>
        <time>2013-01-19T08:04:43Z</time>
      </trkpt>
      <trkpt lat="47.28077" lon="4.92171">
        <ele>601</ele>
        <time>2013-01-19T08:04:47Z</time>
      </trkpt>
      <trkpt lat="47.28081" lon="4.92176">
        <ele>602</ele>
        <time>2013-01-19T08:04:52Z</time>
      </trkpt>
      <trkpt lat="47.28085" lon="4.9218">
        <ele>602</ele>
        <time>2013-01-19T08:04:55Z</time>
      </trkpt>
      <trkpt lat="47.2809" lon="4.92185">
        <ele>603</ele>
        <time>2013-01-19T08:04:59Z</time>
      </trkpt>
      <trkpt lat="47.28094" lon="4.92191">
        <ele>602</ele>
        <time>2013-01-19T08:05:03Z</time>
      </trkpt>
      <trkpt lat="47.28098" lon="4.92196">
        <ele>603</ele>
        <time>2013-01-19T08:05:07Z</time>
      </trkpt>
      <trkpt lat="47.28103" lon="4.92204">
        <ele>603</ele>
        <time>2013-01-19T08:05:11Z</time>
      </trkpt>
      <trkpt lat="47.28107" lon="4.92208">
        <ele>602</ele>
        <time>2013-01-19T08:05:15Z</time>
      </trkpt>
      <trkpt lat="47.28112" lon="4.92213">
        <ele>601</ele>
        <time>2013-01-19T08:05:19Z</time>
      </trkpt>
      <trkpt lat="47.28116" lon="4.92216">
        <ele>603</ele>
        <time>2013-01-19T08:05:22Z</time>
      </trkpt>
      <trkpt lat="47.2812" lon="4.9222">
        <ele>604</ele>
        <time>2013-01-19T08:05:26Z</time>
      </trkpt>
      <trkpt lat="47.28124" lon="4.92222">
        <ele>607</ele>
        <time>2013-01-19T08:05:30Z</time>
      </trkpt>
      <trkpt lat="47.28128" lon="4.92227">
        <ele>606</ele>
        <time>2013-01-19T08:05:34Z</time>
      </trkpt>
      <trkpt lat="47.28133" lon="4.92229">
        <ele>607</ele>
        <time>2013-01-19T08:05:38Z</time>
      </trkpt>
      <trkpt lat="47.28137" lon="4.92233">
        <ele>606</ele>
        <time>2013-01-19T08:05:41Z</time>
      </trkpt>
      <trkpt lat="47.28141" lon="4.92238">
        <ele>605</ele>
        <time>2013-01-19T08:05:44Z</time>
      </trkpt>
      <trkpt lat="47.28145" lon="4.92242">
        <ele>605</ele>
        <time>2013-01-19T08:05:48Z</time>
      </trkpt>
      <trkpt lat="47.28149" lon="4.92247">
        <ele>605</ele>
        <time>2013-01-19T08:05:52Z</time>
      </trkpt>
      <trkpt lat="47.28153" lon="4.92251">
        <ele>605</ele>
        <time>2013-01-19T08:05:57Z</time>
      </trkpt>
      <trkpt lat="47.28158" lon="4.92254">
        <ele>605</ele>
        <time>2013-01-19T08:06:01Z</time>
      </trkpt>
      <trkpt lat="47.28162" lon="4.92261">
        <ele>605</ele>
        <time>2013-01-19T08:06:05Z</time>
      </trkpt>
      <trkpt lat="47.28166" lon="4.92266">
        <ele>605</ele>
        <time>2013-01-19T08:06:08Z</time>
      </trkpt>
      <trkpt lat="47.2817" lon="4.92271">
        <ele>604</ele>
        <time>2013-01-19T08:06:11Z</time>
      </trkpt>
      <trkpt lat="47.28173" lon="4.92275">
        <ele>604</ele>
        <time>2013-01-19T08:06:16Z</time>
      </trkpt>
      <trkpt lat="47.28177" lon="4.92279">
        <ele>605</ele>
        <time>2013-01-19T08:06:19Z</time>
      </trkpt>
      <trkpt lat="47.28181" lon="4.92284">
        <ele>607</ele>
        <time>2013-01-19T08:06:24Z</time>
      </trkpt>
      <trkpt lat="47.28185" lon="4.92287">
        <ele>609</ele>
        <time>2013-01-19T08:06:28Z</time>
      </trkpt>
      <trkpt lat="47.28189" lon="4.92292">
        <ele>609</ele>
        <time>2013-01-19T08:06:31Z</time>
      </trkpt>
      <trkpt lat="47.28193" lon="4.92296">
        <ele>607</ele>
        <time>2013-01-19T08:06:34Z</time>
      </trkpt>
      <trkpt lat="47.28197" lon="4.92301">
        <ele>608</ele>
        <time>2013-01-19T08:06:38Z</time>
      </trkpt>
      <trkpt lat="47.282" lon="4.92306">
        <ele>609</ele>
        <time>2013-01-19T08:06:42Z</time>
      </trkpt>
      <trkpt lat="47.28205" lon="4.9231">
        <ele>610</ele>
        <time>2013-01-19T08:06:46Z</time>
      </trkpt>
      <trkpt lat="47.28209" lon="4.92315">
        <ele>611</ele>
        <time>2013-01-19T08:06:52Z</time>
      </trkpt>
      <trkpt lat="47.28214" lon="4.92321">
        <ele>611</ele>
        <time>2013-01-19T08:06:55Z</time>
      </trkpt>
      <trkpt lat="47.28217" lon="4.92326">
        <ele>611</ele>
        <time>2013-01-19T08:06:58Z</time>
      </trkpt>
      <trkpt lat="47.28221" lon="4.92332">
        <ele>611</ele>
        <time>2013-01-19T08:07:02Z</time>
      </trkpt>
      <trkpt lat="47.28225" lon="4.92338">
        <ele>612</ele>
        <time>2013-01-19T08:07:06Z</time>
      </trkpt>
      <trkpt lat="47.28229" lon="4.92342">
        <ele>613</ele>
        <time>2013-01-19T08:07:10Z</time>
      </trkpt>
      <trkpt lat="47.28233" lon="4.92347">
        <ele>614</ele>
        <time>2013-01-19T08:07:14Z</time>
      </trkpt>
      <trkpt lat="47.28237" lon="4.92354">
        <ele>617</ele>
        <time>2013-01-19T08:07:19Z</time>
      </trkpt>
      <trkpt lat="47.2824" lon="4.92358">
        <ele>617</ele>
        <time>2013-01-19T08:07:24Z</time>
      </trkpt>
      <trkpt lat="47.28243" lon="4.92363">
        <ele>616</ele>
        <time>2013-01-19T08:07:27Z</time>
      </trkpt>
      <trkpt lat="47.28247" lon="4.92368">
        <ele>618</ele>
        <time>2013-01-19T08:07:30Z</time>
      </trkpt>
      <trkpt lat="47.28251" lon="4.92374">
        <ele>618</ele>
        <time>2013-01-19T08:07:34Z</time>
      </trkpt>
      <trkpt lat="47.28255" lon="4.92381">
        <ele>617</ele>
        <time>2013-01-19T08:07:38Z</time>
      </trkpt>
      <trkpt lat="47.28259" lon="4.92385">
        <ele>617</ele>
        <time>2013-01-19T08:07:41Z</time>
      </trkpt>
      <trkpt lat="47.28262" lon="4.92391">
        <ele>619</ele>
        <time>2013-01-19T08:07:45Z</time>
      </trkpt>
      <trkpt lat="47.28267" lon="4.92398">
        <ele>620</ele>
        <time>2013-01-19T08:07:53Z</time>
      </trkpt>
      <trkpt lat="47.2827" lon="4.92402">
        <ele>619</ele>
        <time>2013-01-19T08:07:56Z</time>
      </trkpt>
      <trkpt lat="47.28275" lon="4.92407">
        <ele>618</ele>
        <time>2013-01-19T08:07:59Z</time>
      </trkpt>
      <trkpt lat="47.28277" lon="4.92412">
        <ele>619</ele>
        <time>2013-01-19T08:08:02Z</time>
      </trkpt>
      <trkpt lat="47.28283" lon="4.92419">
        <ele>619</ele>
        <time>2013-01-19T08:08:07Z</time>
      </trkpt>
      <trkpt lat="47.28283" lon="4.92419">
        <ele>619</ele>
        <time>2013-01-19T08:08:07Z</time>
      </trkpt>
      <trkpt lat="47.28283" lon="4.92419">
        <ele>619</ele>
        <time>2013-01-19T08:08:08Z</time>
      </trkpt>
      <trkpt lat="47.28288" lon="4.92422">
        <ele>618</ele>
        <time>2013-01-19T08:08:12Z</time>
      </trkpt>
      <trkpt lat="47.28292" lon="4.92426">
        <ele>617</ele>
        <time>2013-01-19T08:08:15Z</time>
      </trkpt>
      <trkpt lat="47.28296" lon="4.92432">
        <ele>617</ele>
        <time>2013-01-19T08:08:19Z</time>
      </trkpt>
      <trkpt lat="47.283" lon="4.92437">
        <ele>617</ele>
        <time>2013-01-19T08:08:23Z</time>
      </trkpt>
      <trkpt lat="47.28303" lon="4.92443">
        <ele>618</ele>
        <time>2013-01-19T08:08:26Z</time>
      </trkpt>
      <trkpt lat="47.28307" lon="4.92447">
        <ele>619</ele>
        <time>2013-01-19T08:08:30Z</time>
      </trkpt>
      <trkpt lat="47.28311" lon="4.92451">
        <ele>618</ele>
        <time>2013-01-19T08:08:34Z</time>
      </trkpt>
      <trkpt lat="47.28315" lon="4.92457">
        <ele>618</ele>
        <time>2013-01-19T08:08:39Z</time>
      </trkpt>
      <trkpt lat="47.28319" lon="4.92462">
        <ele>620</ele>
        <time>2013-01-19T08:08:42Z</time>
      </trkpt>
      <trkpt lat="47.28324" lon="4.92465">
        <ele>622</ele>
        <time>2013-01-19T08:08:48Z</time>
      </trkpt>
      <trkpt lat="47.28327" lon="4.92471">
        <ele>621</ele>
        <time>2013-01-19T08:08:50Z</time>
      </trkpt>
      <trkpt lat="47.28332" lon="4.92476">
        <ele>623</ele>
        <time>2013-01-19T08:08:54Z</time>
      </trkpt>
      <trkpt lat="47.28335" lon="4.92481">
        <ele>624</ele>
        <time>2013-01-19T08:08:58Z</time>
      </trkpt>
      <trkpt lat="47.28338" lon="4.92486">
        <ele>623</ele>
        <time>2013-01-19T08:09:02Z</time>
      </trkpt>
      <trkpt lat="47.28343" lon="4.92492">
        <ele>624</ele>
        <time>2013-01-19T08:09:07Z</time>
      </trkpt>
      <trkpt lat="47.28348" lon="4.92496">
        <ele>624</ele>
        <time>2013-01-19T08:09:10Z</time>
      </trkpt>
      <trkpt lat="47.28352" lon="4.92501">
        <ele>625</ele>
        <time>2013-01-19T08:09:15Z</time>
      </trkpt>
      <trkpt lat="47.28356" lon="4.92506">
        <ele>626</ele>
        <time>2013-01-19T08:09:19Z</time>
      </trkpt>
      <trkpt lat="47.2836" lon="4.9251">
        <ele>627</ele>
        <time>2013-01-19T08:09:24Z</time>
      </trkpt>
      <trkpt lat="47.28363" lon="4.92515">
        <ele>625</ele>
        <time>2013-01-19T08:09:27Z</time>
      </trkpt>
      <trkpt lat="47.28367" lon="4.9252">
        <ele>626</ele>
        <time>2013-01-19T08:09:31Z</time>
      </trkpt>
      <trkpt lat="47.28372" lon="4.92523">
        <ele>626</ele>
        <time>2013-01-19T08:09:35Z</time>
      </trkpt>
      <trkpt lat="47.28376" lon="4.92526">
        <ele>625</ele>
        <time>2013-01-19T08:09:38Z</time>
      </trkpt>
      <trkpt lat="47.2838" lon="4.92531">
        <ele>625</ele>
        <time>2013-01-19T08:09:42Z</time>
      </trkpt>
      <trkpt lat="47.28383" lon="4.92537">
        <ele>626</ele>
        <time>2013-01-19T08:09:46Z</time>
      </trkpt>
      <trkpt lat="47.28387" lon="4.92541">
        <ele>626</ele>
        <time>2013-01-19T08:09:50Z</time>
      </trkpt>
      <trkpt lat="47.28391" lon="4.92546">
        <ele>626</ele>
        <time>2013-01-19T08:09:53Z</time>
      </trkpt>
      <trkpt lat="47.28395" lon="4.92548">
        <ele>627</ele>
        <time>2013-01-19T08:09:57Z</time>
      </trkpt>
      <trkpt lat="47.28399" lon="4.92552">
        <ele>627</ele>
        <time>2013-01-19T08:10:01Z</time>
      </trkpt>
      <trkpt lat="47.28404" lon="4.92556">
        <ele>627</ele>
        <time>2013-01-19T08:10:05Z</time>
      </trkpt>
      <trkpt lat="47.28408" lon="4.9256">
        <ele>629</ele>
        <time>2013-01-19T08:10:09Z</time>
      </trkpt>
      <trkpt lat="47.28413" lon="4.92564">
        <ele>629</ele>
        <time>2013-01-19T08:10:13Z</time>
      </trkpt>
      <trkpt lat="47.28418" lon="4.92568">
        <ele>630</ele>
        <time>2013-01-19T08:10:19Z</time>
      </trkpt>
      <trkpt lat="47.28422" lon="4.92573">
        <ele>631</ele>
        <time>2013-01-19T08:10:23Z</time>
      </trkpt>
      <trkpt lat="47.28426" lon="4.92577">
        <ele>632</ele>
        <time>2013-01-19T08:10:26Z</time>
      </trkpt>
      <trkpt lat="47.2843" lon="4.92583">
        <ele>632</ele>
        <time>2013-01-19T08:10:30Z</time>
      </trkpt>
      <trkpt lat="47.28434" lon="4.92587">
        <ele>632</ele>
        <time>2013-01-19T08:10:34Z</time>
      </trkpt>
      <trkpt lat="47.28439" lon="4.92589">
        <ele>632</ele>
        <time>2013-01-19T08:10:38Z</time>
      </trkpt>
      <trkpt lat="47.28443" lon="4.92592">
        <ele>631</ele>
        <time>2013-01-19T08:10:40Z</time>
      </trkpt>
      <trkpt lat="47.28446" lon="4.92598">
        <ele>631</ele>
        <time>2013-01-19T08:10:43Z</time>
      </trkpt>
      <trkpt lat="47.2845" lon="4.92602">
        <ele>631</ele>
        <time>2013-01-19T08:10:46Z</time>
      </trkpt>
      <trkpt lat="47.28454" lon="4.92607">
        <ele>632</ele>
        <time>2013-01-19T08:10:52Z</time>
      </trkpt>
      <trkpt lat="47.28458" lon="4.92612">
        <ele>633</ele>
        <time>2013-01-19T08:10:55Z</time>
      </trkpt>
      <trkpt lat="47.28462" lon="4.92616">
        <ele>633</ele>
        <time>2013-01-19T08:10:58Z</time>
      </trkpt>
      <trkpt lat="47.28465" lon="4.92621">
        <ele>633</ele>
        <time>2013-01-19T08:11:01Z</time>
      </trkpt>
      <trkpt lat="47.28469" lon="4.92627">
        <ele>632</ele>
        <time>2013-01-19T08:11:03Z</time>
      </trkpt>
      <trkpt lat="47.28472" lon="4.92633">
        <ele>631</ele>
        <time>2013-01-19T08:11:05Z</time>
      </trkpt>
      <trkpt lat="47.28473" lon="4.92642">
        <ele>631</ele>
        <time>2013-01-19T08:11:08Z</time>
      </trkpt>
      <trkpt lat="47.28474" lon="4.92649">
        <ele>630</ele>
        <time>2013-01-19T08:11:11Z</time>
      </trkpt>
      <trkpt lat="47.28476" lon="4.92656">
        <ele>630</ele>
        <time>2013-01-19T08:11:15Z</time>
      </trkpt>
      <trkpt lat="47.28473" lon="4.92662">
        <ele>632</ele>
        <time>2013-01-19T08:11:19Z</time>
      </trkpt>
      <trkpt lat="47.28471" lon="4.92669">
        <ele>632</ele>
        <time>2013-01-19T08:11:23Z</time>
      </trkpt>
      <trkpt lat="47.28468" lon="4.92674">
        <ele>630</ele>
        <time>2013-01-19T08:11:29Z</time>
      </trkpt>
      <trkpt lat="47.2847" lon="4.92681">
        <ele>633</ele>
        <time>2013-01-19T08:12:56Z</time>
      </trkpt>
      <trkpt lat="47.28472" lon="4.92688">
        <ele>632</ele>
        <time>2013-01-19T08:13:01Z</time>
      </trkpt>
      <trkpt lat="47.28476" lon="4.92692">
        <ele>632</ele>
        <time>2013-01-19T08:13:06Z</time>
      </trkpt>
      <trkpt lat="47.28481" lon="4.92698">
        <ele>633</ele>
        <time>2013-01-19T08:13:10Z</time>
      </trkpt>
      <trkpt lat="47.28486" lon="4.92703">
        <ele>633</ele>
        <time>2013-01-19T08:13:12Z</time>
      </trkpt>
      <trkpt lat="47.28489" lon="4.92707">
        <ele>633</ele>
        <time>2013-01-19T08:13:15Z</time>
      </trkpt>
      <trkpt lat="47.28492" lon="4.92712">
        <ele>634</ele>
        <time>2013-01-19T08:13:19Z</time>
      </trkpt>
      <trkpt lat="47.28494" lon="4.9272">
        <ele>634</ele>
        <time>2013-01-19T08:13:22Z</time>
      </trkpt>
      <trkpt lat="47.28495" lon="4.92728">
        <ele>633</ele>
        <time>2013-01-19T08:13:26Z</time>
      </trkpt>
      <trkpt lat="47.28499" lon="4.92732">
        <ele>633</ele>
        <time>2013-01-19T08:13:30Z</time>
      </trkpt>
      <trkpt lat="47.28503" lon="4.92734">
        <ele>633</ele>
        <time>2013-01-19T08:13:33Z</time>
      </trkpt>
      <trkpt lat="47.28508" lon="4.92736">
        <ele>632</ele>
        <time>2013-01-19T08:13:37Z</time>
      </trkpt>
      <trkpt lat="47.28511" lon="4.92743">
        <ele>632</ele>
        <time>2013-01-19T08:13:41Z</time>
      </trkpt>
      <trkpt lat="47.28516" lon="4.92746">
        <ele>634</ele>
        <time>2013-01-19T08:13:46Z</time>
      </trkpt>
      <trkpt lat="47.28522" lon="4.92746">
        <ele>633</ele>
        <time>2013-01-19T08:13:50Z</time>
      </trkpt>
      <trkpt lat="47.28526" lon="4.92749">
        <ele>632</ele>
        <time>2013-01-19T08:13:52Z</time>
      </trkpt>
      <trkpt lat="47.2853" lon="4.92752">
        <ele>632</ele>
        <time>2013-01-19T08:13:55Z</time>
      </trkpt>
      <trkpt lat="47.28534" lon="4.92757">
        <ele>632</ele>
        <time>2013-01-19T08:13:59Z</time>
      </trkpt>
      <trkpt lat="47.28535" lon="4.92763">
        <ele>634</ele>
        <time>2013-01-19T08:14:04Z</time>
      </trkpt>
      <trkpt lat="47.28535" lon="4.92772">
        <ele>634</ele>
        <time>2013-01-19T08:14:08Z</time>
      </trkpt>
      <trkpt lat="47.28535" lon="4.9278">
        <ele>634</ele>
        <time>2013-01-19T08:14:12Z</time>
      </trkpt>
      <trkpt lat="47.28535" lon="4.92789">
        <ele>633</ele>
        <time>2013-01-19T08:14:16Z</time>
      </trkpt>
      <trkpt lat="47.28535" lon="4.92796">
        <ele>633</ele>
        <time>2013-01-19T08:14:19Z</time>
      </trkpt>
      <trkpt lat="47.28535" lon="4.92805">
        <ele>634</ele>
        <time>2013-01-19T08:14:23Z</time>
      </trkpt>
      <trkpt lat="47.28535" lon="4.92813">
        <ele>633</ele>
        <time>2013-01-19T08:14:27Z</time>
      </trkpt>
      <trkpt lat="47.28534" lon="4.92819">
        <ele>634</ele>
        <time>2013-01-19T08:14:30Z</time>
      </trkpt>
      <trkpt lat="47.28534" lon="4.92827">
        <ele>634</ele>
        <time>2013-01-19T08:14:34Z</time>
      </trkpt>
      <trkpt lat="47.28533" lon="4.92833">
        <ele>634</ele>
        <time>2013-01-19T08:14:37Z</time>
      </trkpt>
      <trkpt lat="47.28532" lon="4.92841">
        <ele>634</ele>
        <time>2013-01-19T08:14:41Z</time>
      </trkpt>
      <trkpt lat="47.28533" lon="4.92848">
        <ele>633</ele>
        <time>2013-01-19T08:14:44Z</time>
      </trkpt>
      <trkpt lat="47.28533" lon="4.92856">
        <ele>634</ele>
        <time>2013-01-19T08:14:48Z</time>
      </trkpt>
      <trkpt lat="47.28532" lon="4.92864">
        <ele>634</ele>
        <time>2013-01-19T08:14:52Z</time>
      </trkpt>
      <trkpt lat="47.28531" lon="4.92873">
        <ele>634</ele>
        <time>2013-01-19T08:14:56Z</time>
      </trkpt>
      <trkpt lat="47.28531" lon="4.9288">
        <ele>634</ele>
        <time>2013-01-19T08:14:59Z</time>
      </trkpt>
      <trkpt lat="47.2853" lon="4.92889">
        <ele>634</ele>
        <time>2013-01-19T08:15:03Z</time>
      </trkpt>
      <trkpt lat="47.2853" lon="4.92897">
        <ele>634</ele>
        <time>2013-01-19T08:15:07Z</time>
      </trkpt>
      <trkpt lat="47.28532" lon="4.92905">
        <ele>634</ele>
        <time>2013-01-19T08:15:11Z</time>
      </trkpt>
      <trkpt lat="47.28534" lon="4.9291">
        <ele>634</ele>
        <time>2013-01-19T08:15:15Z</time>
      </trkpt>
      <trkpt lat="47.28538" lon="4.92914">
        <ele>633</ele>
        <time>2013-01-19T08:15:36Z</time>
      </trkpt>
      <trkpt lat="47.28543" lon="4.92913">
        <ele>634</ele>
        <time>2013-01-19T08:15:44Z</time>
      </trkpt>
      <trkpt lat="47.28548" lon="4.92913">
        <ele>636</ele>
        <time>2013-01-19T08:15:49Z</time>
      </trkpt>
      <trkpt lat="47.28554" lon="4.92914">
        <ele>635</ele>
        <time>2013-01-19T08:15:54Z</time>
      </trkpt>
      <trkpt lat="47.2856" lon="4.92915">
        <ele>635</ele>
        <time>2013-01-19T08:15:58Z</time>
      </trkpt>
      <trkpt lat="47.28566" lon="4.92915">
        <ele>636</ele>
        <time>2013-01-19T08:16:02Z</time>
      </trkpt>
      <trkpt lat="47.28571" lon="4.92915">
        <ele>636</ele>
        <time>2013-01-19T08:16:06Z</time>
      </trkpt>
      <trkpt lat="47.28576" lon="4.92914">
        <ele>638</ele>
        <time>2013-01-19T08:16:10Z</time>
      </trkpt>
      <trkpt lat="47.2858" lon="4.92914">
        <ele>638</ele>
        <time>2013-01-19T08:16:13Z</time>
      </trkpt>
      <trkpt lat="47.28586" lon="4.92914">
        <ele>637</ele>
        <time>2013-01-19T08:16:17Z</time>
      </trkpt>
      <trkpt lat="47.28591" lon="4.92915">
        <ele>636</ele>
        <time>2013-01-19T08:16:20Z</time>
      </trkpt>
      <trkpt lat="47.28596" lon="4.92916">
        <ele>635</ele>
        <time>2013-01-19T08:16:23Z</time>
      </trkpt>
      <trkpt lat="47.28602" lon="4.92918">
        <ele>635</ele>
        <time>2013-01-19T08:16:27Z</time>
      </trkpt>
      <trkpt lat="47.28607" lon="4.92918">
        <ele>634</ele>
        <time>2013-01-19T08:16:31Z</time>
      </trkpt>
      <trkpt lat="47.28613" lon="4.9292">
        <ele>633</ele>
        <time>2013-01-19T08:16:34Z</time>
      </trkpt>
      <trkpt lat="47.28619" lon="4.92922">
        <ele>631</ele>
        <time>2013-01-19T08:16:37Z</time>
      </trkpt>
      <trkpt lat="47.28625" lon="4.92922">
        <ele>631</ele>
        <time>2013-01-19T08:16:41Z</time>
      </trkpt>
      <trkpt lat="47.2863" lon="4.92924">
        <ele>629</ele>
        <time>2013-01-19T08:16:44Z</time>
      </trkpt>
      <trkpt lat="47.28636" lon="4.92927">
        <ele>626</ele>
        <time>2013-01-19T08:16:47Z</time>
      </trkpt>
      <trkpt lat="47.28642" lon="4.92928">
        <ele>624</ele>
        <time>2013-01-19T08:16:51Z</time>
      </trkpt>
      <trkpt lat="47.28648" lon="4.9293">
        <ele>622</ele>
        <time>2013-01-19T08:16:54Z</time>
      </trkpt>
      <trkpt lat="47.28653" lon="4.92931">
        <ele>621</ele>
        <time>2013-01-19T08:16:57Z</time>
      </trkpt>
      <trkpt lat="47.28659" lon="4.9293">
        <ele>623</ele>
        <time>2013-01-19T08:17:01Z</time>
      </trkpt>
      <trkpt lat="47.28664" lon="4.9293">
        <ele>623</ele>
        <time>2013-01-19T08:17:04Z</time>
      </trkpt>
      <trkpt lat="47.2867" lon="4.9293">
        <ele>625</ele>
        <time>2013-01-19T08:17:08Z</time>
      </trkpt>
      <trkpt lat="47.28674" lon="4.9293">
        <ele>625</ele>
        <time>2013-01-19T08:17:11Z</time>
      </trkpt>
      <trkpt lat="47.2868" lon="4.92931">
        <ele>625</ele>
        <time>2013-01-19T08:17:14Z</time>
      </trkpt>
      <trkpt lat="47.28685" lon="4.9293">
        <ele>625</ele>
        <time>2013-01-19T08:17:17Z</time>
      </trkpt>
      <trkpt lat="47.28685" lon="4.9293">
        <ele>625</ele>
        <time>2013-01-19T08:17:17Z</time>
      </trkpt>
      <trkpt lat="47.28685" lon="4.9293">
        <ele>625</ele>
        <time>2013-01-19T08:17:17Z</time>
      </trkpt>
      <trkpt lat="47.2869" lon="4.92929">
        <ele>626</ele>
        <time>2013-01-19T08:17:21Z</time>
      </trkpt>
      <trkpt lat="47.28695" lon="4.92926">
        <ele>626</ele>
        <time>2013-01-19T08:17:25Z</time>
      </trkpt>
      <trkpt lat="47.287" lon="4.92925">
        <ele>626</ele>
        <time>2013-01-19T08:17:28Z</time>
      </trkpt>
      <trkpt lat="47.28704" lon="4.92919">
        <ele>628</ele>
        <time>2013-01-19T08:17:32Z</time>
      </trkpt>
      <trkpt lat="47.28709" lon="4.92915">
        <ele>629</ele>
        <time>2013-01-19T08:17:35Z</time>
      </trkpt>
      <trkpt lat="47.28712" lon="4.92911">
        <ele>628</ele>
        <time>2013-01-19T08:17:38Z</time>
      </trkpt>
      <trkpt lat="47.28716" lon="4.929">
        <ele>629</ele>
        <time>2013-01-19T08:17:44Z</time>
      </trkpt>
      <trkpt lat="47.2872" lon="4.92895">
        <ele>630</ele>
        <time>2013-01-19T08:17:47Z</time>
      </trkpt>
      <trkpt lat="47.28724" lon="4.9289">
        <ele>630</ele>
        <time>2013-01-19T08:17:50Z</time>
      </trkpt>
      <trkpt lat="47.28726" lon="4.92884">
        <ele>632</ele>
        <time>2013-01-19T08:17:53Z</time>
      </trkpt>
      <trkpt lat="47.28727" lon="4.92877">
        <ele>634</ele>
        <time>2013-01-19T08:17:56Z</time>
      </trkpt>
      <trkpt lat="47.28729" lon="4.92871">
        <ele>632</ele>
        <time>2013-01-19T08:17:59Z</time>
      </trkpt>
      <trkpt lat="47.28731" lon="4.92865">
        <ele>633</ele>
        <time>2013-01-19T08:18:02Z</time>
      </trkpt>
      <trkpt lat="47.28734" lon="4.92858">
        <ele>632</ele>
        <time>2013-01-19T08:18:06Z</time>
      </trkpt>
      <trkpt lat="47.28736" lon="4.92852">
        <ele>631</ele>
        <time>2013-01-19T08:18:09Z</time>
      </trkpt>
      <trkpt lat="47.2874" lon="4.92845">
        <ele>633</ele>
        <time>2013-01-19T08:18:14Z</time>
      </trkpt>
      <trkpt lat="47.28742" lon="4.92839">
        <ele>633</ele>
        <time>2013-01-19T08:18:17Z</time>
      </trkpt>
      <trkpt lat="47.28744" lon="4.92833">
        <ele>632</ele>
        <time>2013-01-19T08:18:20Z</time>
      </trkpt>
      <trkpt lat="47.28746" lon="4.92827">
        <ele>632</ele>
        <time>2013-01-19T08:18:22Z</time>
      </trkpt>
      <trkpt lat="47.2875" lon="4.9282">
        <ele>630</ele>
        <time>2013-01-19T08:18:26Z</time>
      </trkpt>
      <trkpt lat="47.28752" lon="4.92814">
        <ele>630</ele>
        <time>2013-01-19T08:18:29Z</time>
      </trkpt>
      <trkpt lat="47.28754" lon="4.92805">
        <ele>629</ele>
        <time>2013-01-19T08:18:33Z</time>
      </trkpt>
      <trkpt lat="47.28758" lon="4.92798">
        <ele>629</ele>
        <time>2013-01-19T08:18:36Z</time>
      </trkpt>
      <trkpt lat="47.2876" lon="4.92792">
        <ele>629</ele>
        <time>2013-01-19T08:18:40Z</time>
      </trkpt>
      <trkpt lat="47.28762" lon="4.92782">
        <ele>630</ele>
        <time>2013-01-19T08:18:44Z</time>
      </trkpt>
      <trkpt lat="47.28766" lon="4.92776">
        <ele>630</ele>
        <time>2013-01-19T08:18:47Z</time>
      </trkpt>
      <trkpt lat="47.28768" lon="4.9277">
        <ele>629</ele>
        <time>2013-01-19T08:18:50Z</time>
      </trkpt>
      <trkpt lat="47.28772" lon="4.92765">
        <ele>628</ele>
        <time>2013-01-19T08:18:54Z</time>
      </trkpt>
      <trkpt lat="47.28776" lon="4.92761">
        <ele>627</ele>
        <time>2013-01-19T08:18:57Z</time>
      </trkpt>
      <trkpt lat="47.2878" lon="4.92756">
        <ele>627</ele>
        <time>2013-01-19T08:19:01Z</time>
      </trkpt>
      <trkpt lat="47.28783" lon="4.9275">
        <ele>627</ele>
        <time>2013-01-19T08:19:04Z</time>
      </trkpt>
      <trkpt lat="47.28786" lon="4.92745">
        <ele>626</ele>
        <time>2013-01-19T08:19:10Z</time>
      </trkpt>
      <trkpt lat="47.2879" lon="4.92739">
        <ele>626</ele>
        <time>2013-01-19T08:19:16Z</time>
      </trkpt>
      <trkpt lat="47.28792" lon="4.92733">
        <ele>623</ele>
        <time>2013-01-19T08:19:20Z</time>
      </trkpt>
      <trkpt lat="47.28795" lon="4.92726">
        <ele>625</ele>
        <time>2013-01-19T08:19:26Z</time>
      </trkpt>
      <trkpt lat="47.28798" lon="4.92721">
        <ele>626</ele>
        <time>2013-01-19T08:19:31Z</time>
      </trkpt>
      <trkpt lat="47.28803" lon="4.92718">
        <ele>628</ele>
        <time>2013-01-19T08:19:35Z</time>
      </trkpt>
      <trkpt lat="47.28807" lon="4.92713">
        <ele>629</ele>
        <time>2013-01-19T08:19:39Z</time>
      </trkpt>
      <trkpt lat="47.2881" lon="4.92706">
        <ele>629</ele>
        <time>2013-01-19T08:19:43Z</time>
      </trkpt>
      <trkpt lat="47.28814" lon="4.92702">
        <ele>628</ele>
        <time>2013-01-19T08:19:46Z</time>
      </trkpt>
      <trkpt lat="47.28818" lon="4.92696">
        <ele>629</ele>
        <time>2013-01-19T08:19:50Z</time>
      </trkpt>
      <trkpt lat="47.28821" lon="4.92691">
        <ele>629</ele>
        <time>2013-01-19T08:19:54Z</time>
      </trkpt>
      <trkpt lat="47.28826" lon="4.92687">
        <ele>628</ele>
        <time>2013-01-19T08:19:58Z</time>
      </trkpt>
      <trkpt lat="47.28831" lon="4.92683">
        <ele>627</ele>
        <time>2013-01-19T08:20:02Z</time>
      </trkpt>
      <trkpt lat="47.28834" lon="4.92678">
        <ele>626</ele>
        <time>2013-01-19T08:20:06Z</time>
      </trkpt>
      <trkpt lat="47.28837" lon="4.92672">
        <ele>626</ele>
        <time>2013-01-19T08:20:10Z</time>
      </trkpt>
      <trkpt lat="47.28841" lon="4.92666">
        <ele>628</ele>
        <time>2013-01-19T08:20:15Z</time>
      </trkpt>
      <trkpt lat="47.28844" lon="4.92661">
        <ele>629</ele>
        <time>2013-01-19T08:20:19Z</time>
      </trkpt>
      <trkpt lat="47.28846" lon="4.92655">
        <ele>630</ele>
        <time>2013-01-19T08:20:23Z</time>
      </trkpt>
      <trkpt lat="47.2885" lon="4.92649">
        <ele>630</ele>
        <time>2013-01-19T08:20:27Z</time>
      </trkpt>
      <trkpt lat="47.28854" lon="4.92642">
        <ele>630</ele>
        <time>2013-01-19T08:20:31Z</time>
      </trkpt>
      <trkpt lat="47.28858" lon="4.92638">
        <ele>630</ele>
        <time>2013-01-19T08:20:35Z</time>
      </trkpt>
      <trkpt lat="47.2886" lon="4.92632">
        <ele>630</ele>
        <time>2013-01-19T08:20:39Z</time>
      </trkpt>
      <trkpt lat="47.28864" lon="4.92627">
        <ele>629</ele>
        <time>2013-01-19T08:20:43Z</time>
      </trkpt>
      <trkpt lat="47.28866" lon="4.92621">
        <ele>630</ele>
        <time>2013-01-19T08:20:47Z</time>
      </trkpt>
      <trkpt lat="47.28869" lon="4.92614">
        <ele>629</ele>
        <time>2013-01-19T08:20:51Z</time>
      </trkpt>
      <trkpt lat="47.28872" lon="4.92609">
        <ele>629</ele>
        <time>2013-01-19T08:20:55Z</time>
      </trkpt>
      <trkpt lat="47.28873" lon="4.92602">
        <ele>629</ele>
        <time>2013-01-19T08:21:01Z</time>
      </trkpt>
      <trkpt lat="47.28874" lon="4.92594">
        <ele>630</ele>
        <time>2013-01-19T08:21:06Z</time>
      </trkpt>
      <trkpt lat="47.28876" lon="4.92586">
        <ele>631</ele>
        <time>2013-01-19T08:21:11Z</time>
      </trkpt>
      <trkpt lat="47.28877" lon="4.92579">
        <ele>632</ele>
        <time>2013-01-19T08:21:15Z</time>
      </trkpt>
      <trkpt lat="47.28879" lon="4.92572">
        <ele>633</ele>
        <time>2013-01-19T08:21:19Z</time>
      </trkpt>
      <trkpt lat="47.2888" lon="4.92565">
        <ele>635</ele>
        <time>2013-01-19T08:21:24Z</time>
      </trkpt>
      <trkpt lat="47.28882" lon="4.92558">
        <ele>635</ele>
        <time>2013-01-19T08:21:28Z</time>
      </trkpt>
      <trkpt lat="47.28884" lon="4.92552">
        <ele>634</ele>
        <time>2013-01-19T08:21:31Z</time>
      </trkpt>
      <trkpt lat="47.28885" lon="4.92544">
        <ele>635</ele>
        <time>2013-01-19T08:21:35Z</time>
      </trkpt>
      <trkpt lat="47.28886" lon="4.92537">
        <ele>636</ele>
        <time>2013-01-19T08:21:39Z</time>
      </trkpt>
      <trkpt lat="47.28886" lon="4.9253">
        <ele>635</ele>
        <time>2013-01-19T08:21:44Z</time>
      </trkpt>
      <trkpt lat="47.28887" lon="4.92523">
        <ele>634</ele>
        <time>2013-01-19T08:21:48Z</time>
      </trkpt>
      <trkpt lat="47.28889" lon="4.92516">
        <ele>635</ele>
        <time>2013-01-19T08:21:52Z</time>
      </trkpt>
      <trkpt lat="47.2889" lon="4.92509">
        <ele>634</ele>
        <time>2013-01-19T08:21:55Z</time>
      </trkpt>
      <trkpt lat="47.2889" lon="4.92502">
        <ele>635</ele>
        <time>2013-01-19T08:21:59Z</time>
      </trkpt>
      <trkpt lat="47.28891" lon="4.92495">
        <ele>636</ele>
        <time>2013-01-19T08:22:03Z</time>
      </trkpt>
      <trkpt lat="47.28893" lon="4.92488">
        <ele>637</ele>
        <time>2013-01-19T08:22:06Z</time>
      </trkpt>
      <trkpt lat="47.28895" lon="4.92481">
        <ele>639</ele>
        <time>2013-01-19T08:22:10Z</time>
      </trkpt>
      <trkpt lat="47.28896" lon="4.92473">
        <ele>640</ele>
        <time>2013-01-19T08:22:14Z</time>
      </trkpt>
      <trkpt lat="47.28898" lon="4.92466">
        <ele>640</ele>
        <time>2013-01-19T08:22:18Z</time>
      </trkpt>
      <trkpt lat="47.289" lon="4.9246">
        <ele>639</ele>
        <time>2013-01-19T08:22:21Z</time>
      </trkpt>
      <trkpt lat="47.28902" lon="4.92455">
        <ele>639</ele>
        <time>2013-01-19T08:22:24Z</time>
      </trkpt>
      <trkpt lat="47.28904" lon="4.92447">
        <ele>639</ele>
        <time>2013-01-19T08:22:28Z</time>
      </trkpt>
      <trkpt lat="47.28906" lon="4.92441">
        <ele>640</ele>
        <time>2013-01-19T08:22:31Z</time>
      </trkpt>
      <trkpt lat="47.28908" lon="4.92434">
        <ele>640</ele>
        <time>2013-01-19T08:22:34Z</time>
      </trkpt>
      <trkpt lat="47.28909" lon="4.92428">
        <ele>640</ele>
        <time>2013-01-19T08:22:37Z</time>
      </trkpt>
      <trkpt lat="47.28912" lon="4.92421">
        <ele>642</ele>
        <time>2013-01-19T08:22:42Z</time>
      </trkpt>
      <trkpt lat="47.28913" lon="4.92413">
        <ele>642</ele>
        <time>2013-01-19T08:22:45Z</time>
      </trkpt>
      <trkpt lat="47.28916" lon="4.92406">
        <ele>641</ele>
        <time>2013-01-19T08:22:49Z</time>
      </trkpt>
      <trkpt lat="47.28917" lon="4.92398">
        <ele>642</ele>
        <time>2013-01-19T08:22:53Z</time>
      </trkpt>
      <trkpt lat="47.2892" lon="4.92392">
        <ele>642</ele>
        <time>2013-01-19T08:22:56Z</time>
      </trkpt>
      <trkpt lat="47.28922" lon="4.92383">
        <ele>640</ele>
        <time>2013-01-19T08:23:01Z</time>
      </trkpt>
      <trkpt lat="47.28924" lon="4.92376">
        <ele>640</ele>
        <time>2013-01-19T08:23:04Z</time>
      </trkpt>
      <trkpt lat="47.28925" lon="4.92369">
        <ele>641</ele>
        <time>2013-01-19T08:23:07Z</time>
      </trkpt>
      <trkpt lat="47.28928" lon="4.92363">
        <ele>641</ele>
        <time>2013-01-19T08:23:10Z</time>
      </trkpt>
      <trkpt lat="47.2893" lon="4.92357">
        <ele>641</ele>
        <time>2013-01-19T08:23:13Z</time>
      </trkpt>
      <trkpt lat="47.28934" lon="4.9235">
        <ele>641</ele>
        <time>2013-01-19T08:23:16Z</time>
      </trkpt>
      <trkpt lat="47.28937" lon="4.92344">
        <ele>641</ele>
        <time>2013-01-19T08:23:20Z</time>
      </trkpt>
      <trkpt lat="47.28939" lon="4.92338">
        <ele>641</ele>
        <time>2013-01-19T08:23:23Z</time>
      </trkpt>
      <trkpt lat="47.28943" lon="4.92331">
        <ele>641</ele>
        <time>2013-01-19T08:23:27Z</time>
      </trkpt>
      <trkpt lat="47.28945" lon="4.92324">
        <ele>641</ele>
        <time>2013-01-19T08:23:31Z</time>
      </trkpt>
      <trkpt lat="47.28948" lon="4.92318">
        <ele>642</ele>
        <time>2013-01-19T08:23:34Z</time>
      </trkpt>
      <trkpt lat="47.28952" lon="4.92311">
        <ele>642</ele>
        <time>2013-01-19T08:23:37Z</time>
      </trkpt>
      <trkpt lat="47.28954" lon="4.92306">
        <ele>642</ele>
        <time>2013-01-19T08:23:40Z</time>
      </trkpt>
      <trkpt lat="47.28956" lon="4.92299">
        <ele>643</ele>
        <time>2013-01-19T08:23:44Z</time>
      </trkpt>
      <trkpt lat="47.28959" lon="4.92292">
        <ele>644</ele>
        <time>2013-01-19T08:23:48Z</time>
      </trkpt>
      <trkpt lat="47.28962" lon="4.92287">
        <ele>644</ele>
        <time>2013-01-19T08:23:52Z</time>
      </trkpt>
      <trkpt lat="47.28962" lon="4.92287">
        <ele>644</ele>
        <time>2013-01-19T08:23:52Z</time>
      </trkpt>
      <trkpt lat="47.28962" lon="4.92287">
        <ele>643</ele>
        <time>2013-01-19T08:24:45Z</time>
      </trkpt>
      <trkpt lat="47.28967" lon="4.92289">
        <ele>644</ele>
        <time>2013-01-19T08:26:48Z</time>
      </trkpt>
      <trkpt lat="47.28971" lon="4.92291">
        <ele>644</ele>
        <time>2013-01-19T08:26:52Z</time>
      </trkpt>
      <trkpt lat="47.28976" lon="4.92292">
        <ele>644</ele>
        <time>2013-01-19T08:26:56Z</time>
      </trkpt>
      <trkpt lat="47.28981" lon="4.92294">
        <ele>644</ele>
        <time>2013-01-19T08:27:00Z</time>
      </trkpt>
      <trkpt lat="47.28986" lon="4.92295">
        <ele>644</ele>
        <time>2013-01-19T08:27:04Z</time>
      </trkpt>
      <trkpt lat="47.28991" lon="4.92296">
        <ele>644</ele>
        <time>2013-01-19T08:27:08Z</time>
      </trkpt>
      <trkpt lat="47.28996" lon="4.92298">
        <ele>644</ele>
        <time>2013-01-19T08:27:12Z</time>
      </trkpt>
      <trkpt lat="47.29002" lon="4.923">
        <ele>644</ele>
        <time>2013-01-19T08:27:16Z</time>
      </trkpt>
      <trkpt lat="47.29007" lon="4.92301">
        <ele>644</ele>
        <time>2013-01-19T08:27:20Z</time>
      </trkpt>
      <trkpt lat="47.29013" lon="4.92302">
        <ele>644</ele>
        <time>2013-01-19T08:27:24Z</time>
      </trkpt>
      <trkpt lat="47.29019" lon="4.92304">
        <ele>643</ele>
        <time>2013-01-19T08:27:28Z</time>
      </trkpt>
      <trkpt lat="47.29024" lon="4.92306">
        <ele>644</ele>
        <time>2013-01-19T08:27:32Z</time>
      </trkpt>
      <trkpt lat="47.2903" lon="4.92307">
        <ele>644</ele>
        <time>2013-01-19T08:27:36Z</time>
      </trkpt>
      <trkpt lat="47.29035" lon="4.92309">
        <ele>644</ele>
        <time>2013-01-19T08:27:40Z</time>
      </trkpt>
      <trkpt lat="47.29041" lon="4.92311">
        <ele>644</ele>
        <time>2013-01-19T08:27:44Z</time>
      </trkpt>
      <trkpt lat="47.29046" lon="4.92313">
        <ele>644</ele>
        <time>2013-01-19T08:27:48Z</time>
      </trkpt>
      <trkpt lat="47.29051" lon="4.92314">
        <ele>644</ele>
        <time>2013-01-19T08:27:51Z</time>
      </trkpt>
      <trkpt lat="47.29055" lon="4.92316">
        <ele>645</ele>
        <time>2013-01-19T08:27:54Z</time>
      </trkpt>
      <trkpt lat="47.2906" lon="4.92317">
        <ele>645</ele>
        <time>2013-01-19T08:27:58Z</time>
      </trkpt>
      <trkpt lat="47.29066" lon="4.92318">
        <ele>646</ele>
        <time>2013-01-19T08:28:02Z</time>
      </trkpt>
      <trkpt lat="47.29071" lon="4.9232">
        <ele>646</ele>
        <time>2013-01-19T08:28:06Z</time>
      </trkpt>
      <trkpt lat="47.29076" lon="4.92322">
        <ele>646</ele>
        <time>2013-01-19T08:28:09Z</time>
      </trkpt>
      <trkpt lat="47.2908" lon="4.92324">
        <ele>646</ele>
        <time>2013-01-19T08:28:12Z</time>
      </trkpt>
      <trkpt lat="47.29086" lon="4.92325">
        <ele>646</ele>
        <time>2013-01-19T08:28:16Z</time>
      </trkpt>
      <trkpt lat="47.29091" lon="4.92327">
        <ele>646</ele>
        <time>2013-01-19T08:28:19Z</time>
      </trkpt>
      <trkpt lat="47.29096" lon="4.92328">
        <ele>646</ele>
        <time>2013-01-19T08:28:23Z</time>
      </trkpt>
      <trkpt lat="47.29102" lon="4.9233">
        <ele>646</ele>
        <time>2013-01-19T08:28:27Z</time>
      </trkpt>
      <trkpt lat="47.29108" lon="4.92332">
        <ele>646</ele>
        <time>2013-01-19T08:28:31Z</time>
      </trkpt>
      <trkpt lat="47.29113" lon="4.92332">
        <ele>646</ele>
        <time>2013-01-19T08:28:34Z</time>
      </trkpt>
      <trkpt lat="47.29118" lon="4.92333">
        <ele>646</ele>
        <time>2013-01-19T08:28:38Z</time>
      </trkpt>
      <trkpt lat="47.29124" lon="4.92333">
        <ele>647</ele>
        <time>2013-01-19T08:28:42Z</time>
      </trkpt>
      <trkpt lat="47.2913" lon="4.92334">
        <ele>646</ele>
        <time>2013-01-19T08:28:46Z</time>
      </trkpt>
      <trkpt lat="47.29136" lon="4.92334">
        <ele>647</ele>
        <time>2013-01-19T08:28:50Z</time>
      </trkpt>
      <trkpt lat="47.2914" lon="4.92335">
        <ele>647</ele>
        <time>2013-01-19T08:28:53Z</time>
      </trkpt>
      <trkpt lat="47.29146" lon="4.92335">
        <ele>647</ele>
        <time>2013-01-19T08:28:57Z</time>
      </trkpt>
      <trkpt lat="47.29152" lon="4.92336">
        <ele>647</ele>
        <time>2013-01-19T08:29:01Z</time>
      </trkpt>
      <trkpt lat="47.29157" lon="4.92336">
        <ele>647</ele>
        <time>2013-01-19T08:29:04Z</time>
      </trkpt>
      <trkpt lat="47.29162" lon="4.92337">
        <ele>647</ele>
        <time>2013-01-19T08:29:08Z</time>
      </trkpt>
      <trkpt lat="47.29167" lon="4.92337">
        <ele>647</ele>
        <time>2013-01-19T08:29:11Z</time>
      </trkpt>
      <trkpt lat="47.29173" lon="4.92337">
        <ele>647</ele>
        <time>2013-01-19T08:29:15Z</time>
      </trkpt>
      <trkpt lat="47.29179" lon="4.92338">
        <ele>647</ele>
        <time>2013-01-19T08:29:19Z</time>
      </trkpt>
      <trkpt lat="47.29184" lon="4.92339">
        <ele>647</ele>
        <time>2013-01-19T08:29:23Z</time>
      </trkpt>
      <trkpt lat="47.2919" lon="4.9234">
        <ele>647</ele>
        <time>2013-01-19T08:29:27Z</time>
      </trkpt>
      <trkpt lat="47.29195" lon="4.92342">
        <ele>647</ele>
        <time>2013-01-19T08:29:31Z</time>
      </trkpt>
      <trkpt lat="47.292" lon="4.92344">
        <ele>646</ele>
        <time>2013-01-19T08:29:34Z</time>
      </trkpt>
      <trkpt lat="47.29204" lon="4.92347">
        <ele>647</ele>
        <time>2013-01-19T08:29:38Z</time>
      </trkpt>
      <trkpt lat="47.29209" lon="4.9235">
        <ele>647</ele>
        <time>2013-01-19T08:29:41Z</time>
      </trkpt>
      <trkpt lat="47.29213" lon="4.92353">
        <ele>647</ele>
        <time>2013-01-19T08:29:44Z</time>
      </trkpt>
      <trkpt lat="47.29218" lon="4.92357">
        <ele>646</ele>
        <time>2013-01-19T08:29:48Z</time>
      </trkpt>
      <trkpt lat="47.29222" lon="4.92361">
        <ele>646</ele>
        <time>2013-01-19T08:29:51Z</time>
      </trkpt>
      <trkpt lat="47.29226" lon="4.92363">
        <ele>646</ele>
        <time>2013-01-19T08:29:54Z</time>
      </trkpt>
      <trkpt lat="47.2923" lon="4.92367">
        <ele>646</ele>
        <time>2013-01-19T08:29:57Z</time>
      </trkpt>
      <trkpt lat="47.29234" lon="4.92371">
        <ele>646</ele>
        <time>2013-01-19T08:30:00Z</time>
      </trkpt>
      <trkpt lat="47.2924" lon="4.92375">
        <ele>646</ele>
        <time>2013-01-19T08:30:04Z</time>
      </trkpt>
      <trkpt lat="47.29244" lon="4.92379">
        <ele>646</ele>
        <time>2013-01-19T08:30:07Z</time>
      </trkpt>
      <trkpt lat="47.29248" lon="4.92382">
        <ele>645</ele>
        <time>2013-01-19T08:30:10Z</time>
      </trkpt>
      <trkpt lat="47.29252" lon="4.92385">
        <ele>646</ele>
        <time>2013-01-19T08:30:14Z</time>
      </trkpt>
      <trkpt lat="47.29257" lon="4.9239">
        <ele>646</ele>
        <time>2013-01-19T08:30:19Z</time>
      </trkpt>
      <trkpt lat="47.29261" lon="4.92393">
        <ele>646</ele>
        <time>2013-01-19T08:30:23Z</time>
      </trkpt>
      <trkpt lat="47.29264" lon="4.92397">
        <ele>646</ele>
        <time>2013-01-19T08:30:26Z</time>
      </trkpt>
      <trkpt lat="47.29269" lon="4.924">
        <ele>646</ele>
        <time>2013-01-19T08:30:30Z</time>
      </trkpt>
      <trkpt lat="47.29273" lon="4.92404">
        <ele>645</ele>
        <time>2013-01-19T08:30:34Z</time>
      </trkpt>
      <trkpt lat="47.29277" lon="4.92408">
        <ele>646</ele>
        <time>2013-01-19T08:30:38Z</time>
      </trkpt>
      <trkpt lat="47.29282" lon="4.92412">
        <ele>646</ele>
        <time>2013-01-19T08:30:42Z</time>
      </trkpt>
      <trkpt lat="47.29286" lon="4.92416">
        <ele>646</ele>
        <time>2013-01-19T08:30:46Z</time>
      </trkpt>
      <trkpt lat="47.29291" lon="4.9242">
        <ele>646</ele>
        <time>2013-01-19T08:30:50Z</time>
      </trkpt>
      <trkpt lat="47.29296" lon="4.92425">
        <ele>646</ele>
        <time>2013-01-19T08:30:54Z</time>
      </trkpt>
      <trkpt lat="47.29301" lon="4.92429">
        <ele>647</ele>
        <time>2013-01-19T08:30:58Z</time>
      </trkpt>
      <trkpt lat="47.29305" lon="4.92433">
        <ele>647</ele>
        <time>2013-01-19T08:31:11Z</time>
      </trkpt>
      <trkpt lat="47.29305" lon="4.92433">
        <ele>647</ele>
        <time>2013-01-19T08:31:11Z</time>
      </trkpt>
      <trkpt lat="47.29305" lon="4.92433">
        <ele>647</ele>
        <time>2013-01-19T08:31:12Z</time>
      </trkpt>
      <trkpt lat="47.29302" lon="4.9244">
        <ele>646</ele>
        <time>2013-01-19T08:31:38Z</time>
      </trkpt>
      <trkpt lat="47.293" lon="4.92448">
        <ele>645</ele>
        <time>2013-01-19T08:31:42Z</time>
      </trkpt>
      <trkpt lat="47.29298" lon="4.92454">
        <ele>644</ele>
        <time>2013-01-19T08:31:45Z</time>
      </trkpt>
      <trkpt lat="47.29297" lon="4.92462">
        <ele>644</ele>
        <time>2013-01-19T08:31:49Z</time>
      </trkpt>
      <trkpt lat="47.29294" lon="4.92469">
        <ele>644</ele>
        <time>2013-01-19T08:31:54Z</time>
      </trkpt>
      <trkpt lat="47.29293" lon="4.92478">
        <ele>644</ele>
        <time>2013-01-19T08:31:58Z</time>
      </trkpt>
      <trkpt lat="47.29292" lon="4.92484">
        <ele>645</ele>
        <time>2013-01-19T08:32:01Z</time>
      </trkpt>
      <trkpt lat="47.2929" lon="4.92492">
        <ele>644</ele>
        <time>2013-01-19T08:32:05Z</time>
      </trkpt>
      <trkpt lat="47.29288" lon="4.925">
        <ele>645</ele>
        <time>2013-01-19T08:32:09Z</time>
      </trkpt>
      <trkpt lat="47.29286" lon="4.92508">
        <ele>646</ele>
        <time>2013-01-19T08:32:13Z</time>
      </trkpt>
      <trkpt lat="47.29284" lon="4.92516">
        <ele>645</ele>
        <time>2013-01-19T08:32:17Z</time>
      </trkpt>
      <trkpt lat="47.29283" lon="4.92523">
        <ele>645</ele>
        <time>2013-01-19T08:32:20Z</time>
      </trkpt>
      <trkpt lat="47.29281" lon="4.92531">
        <ele>645</ele>
        <time>2013-01-19T08:32:24Z</time>
      </trkpt>
      <trkpt lat="47.2928" lon="4.92539">
        <ele>645</ele>
        <time>2013-01-19T08:32:28Z</time>
      </trkpt>
      <trkpt lat="47.29278" lon="4.92546">
        <ele>645</ele>
        <time>2013-01-19T08:32:31Z</time>
      </trkpt>
      <trkpt lat="47.29277" lon="4.92552">
        <ele>644</ele>
        <time>2013-01-19T08:32:34Z</time>
      </trkpt>
      <trkpt lat="47.29274" lon="4.9256">
        <ele>645</ele>
        <time>2013-01-19T08:32:38Z</time>
      </trkpt>
      <trkpt lat="47.29272" lon="4.92566">
        <ele>645</ele>
        <time>2013-01-19T08:32:41Z</time>
      </trkpt>
      <trkpt lat="47.2927" lon="4.92574">
        <ele>644</ele>
        <time>2013-01-19T08:32:45Z</time>
      </trkpt>
      <trkpt lat="47.29268" lon="4.92582">
        <ele>644</ele>
        <time>2013-01-19T08:32:49Z</time>
      </trkpt>
      <trkpt lat="47.29267" lon="4.92589">
        <ele>645</ele>
        <time>2013-01-19T08:32:53Z</time>
      </trkpt>
      <trkpt lat="47.29264" lon="4.92595">
        <ele>645</ele>
        <time>2013-01-19T08:32:56Z</time>
      </trkpt>
      <trkpt lat="47.29263" lon="4.92602">
        <ele>645</ele>
        <time>2013-01-19T08:32:59Z</time>
      </trkpt>
      <trkpt lat="47.29262" lon="4.92609">
        <ele>645</ele>
        <time>2013-01-19T08:33:02Z</time>
      </trkpt>
      <trkpt lat="47.29261" lon="4.92617">
        <ele>645</ele>
        <time>2013-01-19T08:33:06Z</time>
      </trkpt>
      <trkpt lat="47.29258" lon="4.92622">
        <ele>645</ele>
        <time>2013-01-19T08:33:09Z</time>
      </trkpt>
      <trkpt lat="47.29257" lon="4.9263">
        <ele>645</ele>
        <time>2013-01-19T08:33:12Z</time>
      </trkpt>
      <trkpt lat="47.29255" lon="4.92636">
        <ele>644</ele>
        <time>2013-01-19T08:33:15Z</time>
      </trkpt>
      <trkpt lat="47.29254" lon="4.92642">
        <ele>643</ele>
        <time>2013-01-19T08:33:18Z</time>
      </trkpt>
      <trkpt lat="47.29252" lon="4.92648">
        <ele>644</ele>
        <time>2013-01-19T08:33:21Z</time>
      </trkpt>
      <trkpt lat="47.2925" lon="4.92655">
        <ele>644</ele>
        <time>2013-01-19T08:33:25Z</time>
      </trkpt>
      <trkpt lat="47.29248" lon="4.92663">
        <ele>644</ele>
        <time>2013-01-19T08:33:29Z</time>
      </trkpt>
      <trkpt lat="47.29247" lon="4.92671">
        <ele>647</ele>
        <time>2013-01-19T08:33:34Z</time>
      </trkpt>
      <trkpt lat="47.29244" lon="4.92678">
        <ele>646</ele>
        <time>2013-01-19T08:33:38Z</time>
      </trkpt>
      <trkpt lat="47.29243" lon="4.92685">
        <ele>646</ele>
        <time>2013-01-19T08:33:41Z</time>
      </trkpt>
      <trkpt lat="47.29245" lon="4.92692">
        <ele>645</ele>
        <time>2013-01-19T08:33:45Z</time>
      </trkpt>
      <trkpt lat="47.29243" lon="4.927">
        <ele>643</ele>
        <time>2013-01-19T08:33:49Z</time>
      </trkpt>
      <trkpt lat="47.29242" lon="4.92706">
        <ele>642</ele>
        <time>2013-01-19T08:33:52Z</time>
      </trkpt>
      <trkpt lat="47.2924" lon="4.92713">
        <ele>643</ele>
        <time>2013-01-19T08:33:56Z</time>
      </trkpt>
      <trkpt lat="47.29237" lon="4.92718">
        <ele>643</ele>
        <time>2013-01-19T08:33:58Z</time>
      </trkpt>
      <trkpt lat="47.29234" lon="4.92724">
        <ele>644</ele>
        <time>2013-01-19T08:34:01Z</time>
      </trkpt>
      <trkpt lat="47.29234" lon="4.92732">
        <ele>644</ele>
        <time>2013-01-19T08:34:05Z</time>
      </trkpt>
      <trkpt lat="47.29233" lon="4.92739">
        <ele>644</ele>
        <time>2013-01-19T08:34:08Z</time>
      </trkpt>
      <trkpt lat="47.29232" lon="4.92746">
        <ele>644</ele>
        <time>2013-01-19T08:34:11Z</time>
      </trkpt>
      <trkpt lat="47.29231" lon="4.92754">
        <ele>643</ele>
        <time>2013-01-19T08:34:15Z</time>
      </trkpt>
      <trkpt lat="47.29229" lon="4.92762">
        <ele>643</ele>
        <time>2013-01-19T08:34:19Z</time>
      </trkpt>
      <trkpt lat="47.29225" lon="4.92765">
        <ele>640</ele>
        <time>2013-01-19T08:34:22Z</time>
      </trkpt>
      <trkpt lat="47.29225" lon="4.92765">
        <ele>640</ele>
        <time>2013-01-19T08:34:22Z</time>
      </trkpt>
      <trkpt lat="47.29225" lon="4.92765">
        <ele>640</ele>
        <time>2013-01-19T08:34:24Z</time>
      </trkpt>
      <trkpt lat="47.29225" lon="4.92772">
        <ele>640</ele>
        <time>2013-01-19T08:34:30Z</time>
      </trkpt>
      <trkpt lat="47.29224" lon="4.92779">
        <ele>641</ele>
        <time>2013-01-19T08:34:35Z</time>
      </trkpt>
      <trkpt lat="47.29222" lon="4.92785">
        <ele>641</ele>
        <time>2013-01-19T08:34:39Z</time>
      </trkpt>
      <trkpt lat="47.29221" lon="4.92794">
        <ele>639</ele>
        <time>2013-01-19T08:34:43Z</time>
      </trkpt>
      <trkpt lat="47.29219" lon="4.92801">
        <ele>638</ele>
        <time>2013-01-19T08:34:47Z</time>
      </trkpt>
      <trkpt lat="47.29217" lon="4.92808">
        <ele>638</ele>
        <time>2013-01-19T08:34:50Z</time>
      </trkpt>
      <trkpt lat="47.29215" lon="4.92816">
        <ele>638</ele>
        <time>2013-01-19T08:34:54Z</time>
      </trkpt>
      <trkpt lat="47.29214" lon="4.92823">
        <ele>638</ele>
        <time>2013-01-19T08:34:57Z</time>
      </trkpt>
      <trkpt lat="47.29211" lon="4.92829">
        <ele>638</ele>
        <time>2013-01-19T08:35:00Z</time>
      </trkpt>
      <trkpt lat="47.29209" lon="4.92836">
        <ele>636</ele>
        <time>2013-01-19T08:35:05Z</time>
      </trkpt>
      <trkpt lat="47.29205" lon="4.92841">
        <ele>636</ele>
        <time>2013-01-19T08:35:07Z</time>
      </trkpt>
      <trkpt lat="47.29202" lon="4.92847">
        <ele>636</ele>
        <time>2013-01-19T08:35:10Z</time>
      </trkpt>
      <trkpt lat="47.29201" lon="4.92855">
        <ele>636</ele>
        <time>2013-01-19T08:35:14Z</time>
      </trkpt>
      <trkpt lat="47.29198" lon="4.92862">
        <ele>636</ele>
        <time>2013-01-19T08:35:18Z</time>
      </trkpt>
      <trkpt lat="47.29197" lon="4.92869">
        <ele>633</ele>
        <time>2013-01-19T08:35:22Z</time>
      </trkpt>
      <trkpt lat="47.29195" lon="4.92875">
        <ele>634</ele>
        <time>2013-01-19T08:35:25Z</time>
      </trkpt>
      <trkpt lat="47.29192" lon="4.92884">
        <ele>634</ele>
        <time>2013-01-19T08:35:29Z</time>
      </trkpt>
      <trkpt lat="47.2919" lon="4.92891">
        <ele>633</ele>
        <time>2013-01-19T08:35:32Z</time>
      </trkpt>
      <trkpt lat="47.29189" lon="4.92898">
        <ele>633</ele>
        <time>2013-01-19T08:35:35Z</time>
      </trkpt>
      <trkpt lat="47.29189" lon="4.92906">
        <ele>632</ele>
        <time>2013-01-19T08:35:40Z</time>
      </trkpt>
      <trkpt lat="47.29187" lon="4.92914">
        <ele>632</ele>
        <time>2013-01-19T08:35:44Z</time>
      </trkpt>
      <trkpt lat="47.29186" lon="4.92921">
        <ele>631</ele>
        <time>2013-01-19T08:35:48Z</time>
      </trkpt>
      <trkpt lat="47.29187" lon="4.92929">
        <ele>630</ele>
        <time>2013-01-19T08:35:52Z</time>
      </trkpt>
      <trkpt lat="47.29185" lon="4.92936">
        <ele>630</ele>
        <time>2013-01-19T08:35:55Z</time>
      </trkpt>
      <trkpt lat="47.29183" lon="4.92943">
        <ele>630</ele>
        <time>2013-01-19T08:35:58Z</time>
      </trkpt>
      <trkpt lat="47.29182" lon="4.9295">
        <ele>630</ele>
        <time>2013-01-19T08:36:02Z</time>
      </trkpt>
      <trkpt lat="47.29182" lon="4.92958">
        <ele>629</ele>
        <time>2013-01-19T08:36:07Z</time>
      </trkpt>
      <trkpt lat="47.29181" lon="4.92965">
        <ele>630</ele>
        <time>2013-01-19T08:36:10Z</time>
      </trkpt>
      <trkpt lat="47.29176" lon="4.9297">
        <ele>628</ele>
        <time>2013-01-19T08:36:12Z</time>
      </trkpt>
      <trkpt lat="47.29174" lon="4.92978">
        <ele>626</ele>
        <time>2013-01-19T08:36:16Z</time>
      </trkpt>
      <trkpt lat="47.2917" lon="4.92978">
        <ele>626</ele>
        <time>2013-01-19T08:36:19Z</time>
      </trkpt>
      <trkpt lat="47.29173" lon="4.92984">
        <ele>621</ele>
        <time>2013-01-19T08:37:36Z</time>
      </trkpt>
      <trkpt lat="47.29176" lon="4.92989">
        <ele>619</ele>
        <time>2013-01-19T08:37:39Z</time>
      </trkpt>
      <trkpt lat="47.29179" lon="4.92996">
        <ele>622</ele>
        <time>2013-01-19T08:37:43Z</time>
      </trkpt>
      <trkpt lat="47.29182" lon="4.93003">
        <ele>622</ele>
        <time>2013-01-19T08:37:48Z</time>
      </trkpt>
      <trkpt lat="47.29185" lon="4.9301">
        <ele>622</ele>
        <time>2013-01-19T08:37:52Z</time>
      </trkpt>
      <trkpt lat="47.29188" lon="4.93017">
        <ele>624</ele>
        <time>2013-01-19T08:37:56Z</time>
      </trkpt>
      <trkpt lat="47.29192" lon="4.93025">
        <ele>624</ele>
        <time>2013-01-19T08:38:00Z</time>
      </trkpt>
      <trkpt lat="47.29194" lon="4.93031">
        <ele>624</ele>
        <time>2013-01-19T08:38:03Z</time>
      </trkpt>
      <trkpt lat="47.29197" lon="4.93036">
        <ele>624</ele>
        <time>2013-01-19T08:38:06Z</time>
      </trkpt>
      <trkpt lat="47.292" lon="4.93042">
        <ele>625</ele>
        <time>2013-01-19T08:38:09Z</time>
      </trkpt>
      <trkpt lat="47.29203" lon="4.93048">
        <ele>624</ele>
        <time>2013-01-19T08:38:12Z</time>
      </trkpt>
      <trkpt lat="47.29206" lon="4.93054">
        <ele>624</ele>
        <time>2013-01-19T08:38:16Z</time>
      </trkpt>
      <trkpt lat="47.29209" lon="4.9306">
        <ele>625</ele>
        <time>2013-01-19T08:38:19Z</time>
      </trkpt>
      <trkpt lat="47.29212" lon="4.93067">
        <ele>624</ele>
        <time>2013-01-19T08:38:23Z</time>
      </trkpt>
      <trkpt lat="47.29215" lon="4.93073">
        <ele>623</ele>
        <time>2013-01-19T08:38:26Z</time>
      </trkpt>
      <trkpt lat="47.29217" lon="4.93078">
        <ele>623</ele>
        <time>2013-01-19T08:38:29Z</time>
      </trkpt>
      <trkpt lat="47.2922" lon="4.93084">
        <ele>623</ele>
        <time>2013-01-19T08:38:32Z</time>
      </trkpt>
      <trkpt lat="47.29224" lon="4.9309">
        <ele>624</ele>
        <time>2013-01-19T08:38:36Z</time>
      </trkpt>
      <trkpt lat="47.29227" lon="4.93096">
        <ele>623</ele>
        <time>2013-01-19T08:38:39Z</time>
      </trkpt>
      <trkpt lat="47.29231" lon="4.93101">
        <ele>624</ele>
        <time>2013-01-19T08:38:42Z</time>
      </trkpt>
      <trkpt lat="47.29234" lon="4.93106">
        <ele>624</ele>
        <time>2013-01-19T08:38:45Z</time>
      </trkpt>
      <trkpt lat="47.29237" lon="4.93111">
        <ele>624</ele>
        <time>2013-01-19T08:38:48Z</time>
      </trkpt>
      <trkpt lat="47.2924" lon="4.93117">
        <ele>623</ele>
        <time>2013-01-19T08:38:51Z</time>
      </trkpt>
      <trkpt lat="47.29244" lon="4.93122">
        <ele>623</ele>
        <time>2013-01-19T08:38:54Z</time>
      </trkpt>
      <trkpt lat="47.29247" lon="4.93128">
        <ele>623</ele>
        <time>2013-01-19T08:38:58Z</time>
      </trkpt>
      <trkpt lat="47.2925" lon="4.93133">
        <ele>622</ele>
        <time>2013-01-19T08:39:01Z</time>
      </trkpt>
      <trkpt lat="47.29254" lon="4.93139">
        <ele>622</ele>
        <time>2013-01-19T08:39:04Z</time>
      </trkpt>
      <trkpt lat="47.29257" lon="4.93143">
        <ele>622</ele>
        <time>2013-01-19T08:39:07Z</time>
      </trkpt>
      <trkpt lat="47.29261" lon="4.93148">
        <ele>621</ele>
        <time>2013-01-19T08:39:10Z</time>
      </trkpt>
      <trkpt lat="47.29264" lon="4.93152">
        <ele>621</ele>
        <time>2013-01-19T08:39:13Z</time>
      </trkpt>
      <trkpt lat="47.29267" lon="4.93158">
        <ele>621</ele>
        <time>2013-01-19T08:39:16Z</time>
      </trkpt>
      <trkpt lat="47.2927" lon="4.93163">
        <ele>621</ele>
        <time>2013-01-19T08:39:19Z</time>
      </trkpt>
      <trkpt lat="47.29274" lon="4.93169">
        <ele>621</ele>
        <time>2013-01-19T08:39:22Z</time>
      </trkpt>
      <trkpt lat="47.29277" lon="4.93174">
        <ele>621</ele>
        <time>2013-01-19T08:39:25Z</time>
      </trkpt>
      <trkpt lat="47.2928" lon="4.93179">
        <ele>621</ele>
        <time>2013-01-19T08:39:28Z</time>
      </trkpt>
      <trkpt lat="47.29284" lon="4.93184">
        <ele>621</ele>
        <time>2013-01-19T08:39:31Z</time>
      </trkpt>
      <trkpt lat="47.29288" lon="4.93188">
        <ele>621</ele>
        <time>2013-01-19T08:39:34Z</time>
      </trkpt>
      <trkpt lat="47.29291" lon="4.93194">
        <ele>621</ele>
        <time>2013-01-19T08:39:37Z</time>
      </trkpt>
      <trkpt lat="47.29294" lon="4.93199">
        <ele>620</ele>
        <time>2013-01-19T08:39:40Z</time>
      </trkpt>
      <trkpt lat="47.29298" lon="4.93204">
        <ele>620</ele>
        <time>2013-01-19T08:39:43Z</time>
      </trkpt>
      <trkpt lat="47.29301" lon="4.93209">
        <ele>620</ele>
        <time>2013-01-19T08:39:46Z</time>
      </trkpt>
      <trkpt lat="47.29304" lon="4.93214">
        <ele>621</ele>
        <time>2013-01-19T08:39:51Z</time>
      </trkpt>
      <trkpt lat="47.29308" lon="4.93221">
        <ele>621</ele>
        <time>2013-01-19T08:39:54Z</time>
      </trkpt>
      <trkpt lat="47.29312" lon="4.93226">
        <ele>621</ele>
        <time>2013-01-19T08:39:57Z</time>
      </trkpt>
      <trkpt lat="47.29316" lon="4.93232">
        <ele>620</ele>
        <time>2013-01-19T08:40:00Z</time>
      </trkpt>
      <trkpt lat="47.2932" lon="4.93236">
        <ele>620</ele>
        <time>2013-01-19T08:40:03Z</time>
      </trkpt>
      <trkpt lat="47.29324" lon="4.9324">
        <ele>619</ele>
        <time>2013-01-19T08:40:06Z</time>
      </trkpt>
      <trkpt lat="47.29329" lon="4.93244">
        <ele>619</ele>
        <time>2013-01-19T08:40:10Z</time>
      </trkpt>
      <trkpt lat="47.29333" lon="4.93246">
        <ele>619</ele>
        <time>2013-01-19T08:40:13Z</time>
      </trkpt>
      <trkpt lat="47.29338" lon="4.93248">
        <ele>619</ele>
        <time>2013-01-19T08:40:16Z</time>
      </trkpt>
      <trkpt lat="47.29343" lon="4.9325">
        <ele>619</ele>
        <time>2013-01-19T08:40:19Z</time>
      </trkpt>
      <trkpt lat="47.29348" lon="4.93252">
        <ele>618</ele>
        <time>2013-01-19T08:40:22Z</time>
      </trkpt>
      <trkpt lat="47.29352" lon="4.93256">
        <ele>617</ele>
        <time>2013-01-19T08:40:26Z</time>
      </trkpt>
      <trkpt lat="47.29356" lon="4.93261">
        <ele>615</ele>
        <time>2013-01-19T08:40:30Z</time>
      </trkpt>
      <trkpt lat="47.29359" lon="4.93266">
        <ele>613</ele>
        <time>2013-01-19T08:40:35Z</time>
      </trkpt>
      <trkpt lat="47.29363" lon="4.9327">
        <ele>613</ele>
        <time>2013-01-19T08:40:38Z</time>
      </trkpt>
      <trkpt lat="47.29368" lon="4.93275">
        <ele>613</ele>
        <time>2013-01-19T08:40:41Z</time>
      </trkpt>
      <trkpt lat="47.29372" lon="4.93278">
        <ele>615</ele>
        <time>2013-01-19T08:40:45Z</time>
      </trkpt>
      <trkpt lat="47.29377" lon="4.93281">
        <ele>614</ele>
        <time>2013-01-19T08:40:49Z</time>
      </trkpt>
      <trkpt lat="47.2938" lon="4.93287">
        <ele>613</ele>
        <time>2013-01-19T08:40:53Z</time>
      </trkpt>
      <trkpt lat="47.29384" lon="4.93292">
        <ele>613</ele>
        <time>2013-01-19T08:40:57Z</time>
      </trkpt>
      <trkpt lat="47.29386" lon="4.93298">
        <ele>614</ele>
        <time>2013-01-19T08:41:01Z</time>
      </trkpt>
      <trkpt lat="47.29391" lon="4.93309">
        <ele>614</ele>
        <time>2013-01-19T08:41:13Z</time>
      </trkpt>
      <trkpt lat="47.29395" lon="4.93316">
        <ele>613</ele>
        <time>2013-01-19T08:41:15Z</time>
      </trkpt>
      <trkpt lat="47.294" lon="4.93318">
        <ele>613</ele>
        <time>2013-01-19T08:41:18Z</time>
      </trkpt>
      <trkpt lat="47.29404" lon="4.93322">
        <ele>612</ele>
        <time>2013-01-19T08:41:24Z</time>
      </trkpt>
      <trkpt lat="47.29409" lon="4.93325">
        <ele>613</ele>
        <time>2013-01-19T08:41:28Z</time>
      </trkpt>
      <trkpt lat="47.29413" lon="4.93328">
        <ele>613</ele>
        <time>2013-01-19T08:41:32Z</time>
      </trkpt>
      <trkpt lat="47.29417" lon="4.93333">
        <ele>612</ele>
        <time>2013-01-19T08:41:37Z</time>
      </trkpt>
      <trkpt lat="47.29423" lon="4.93335">
        <ele>612</ele>
        <time>2013-01-19T08:41:41Z</time>
      </trkpt>
      <trkpt lat="47.29427" lon="4.93338">
        <ele>612</ele>
        <time>2013-01-19T08:41:44Z</time>
      </trkpt>
      <trkpt lat="47.29432" lon="4.93344">
        <ele>607</ele>
        <time>2013-01-19T08:41:47Z</time>
      </trkpt>
      <trkpt lat="47.29437" lon="4.93347">
        <ele>605</ele>
        <time>2013-01-19T08:41:58Z</time>
      </trkpt>
      <trkpt lat="47.29441" lon="4.93352">
        <ele>604</ele>
        <time>2013-01-19T08:42:00Z</time>
      </trkpt>
      <trkpt lat="47.29444" lon="4.93357">
        <ele>605</ele>
        <time>2013-01-19T08:42:05Z</time>
      </trkpt>
      <trkpt lat="47.29449" lon="4.93359">
        <ele>607</ele>
        <time>2013-01-19T08:42:09Z</time>
      </trkpt>
      <trkpt lat="47.29454" lon="4.93364">
        <ele>607</ele>
        <time>2013-01-19T08:42:14Z</time>
      </trkpt>
      <trkpt lat="47.29458" lon="4.9337">
        <ele>606</ele>
        <time>2013-01-19T08:42:17Z</time>
      </trkpt>
      <trkpt lat="47.29462" lon="4.93374">
        <ele>608</ele>
        <time>2013-01-19T08:42:22Z</time>
      </trkpt>
      <trkpt lat="47.29466" lon="4.93378">
        <ele>606</ele>
        <time>2013-01-19T08:42:24Z</time>
      </trkpt>
      <trkpt lat="47.2947" lon="4.93383">
        <ele>606</ele>
        <time>2013-01-19T08:42:28Z</time>
      </trkpt>
      <trkpt lat="47.29473" lon="4.93388">
        <ele>604</ele>
        <time>2013-01-19T08:42:30Z</time>
      </trkpt>
      <trkpt lat="47.29478" lon="4.93395">
        <ele>601</ele>
        <time>2013-01-19T08:42:36Z</time>
      </trkpt>
      <trkpt lat="47.29482" lon="4.93399">
        <ele>599</ele>
        <time>2013-01-19T08:42:39Z</time>
      </trkpt>
      <trkpt lat="47.29486" lon="4.93403">
        <ele>598</ele>
        <time>2013-01-19T08:42:41Z</time>
      </trkpt>
      <trkpt lat="47.2949" lon="4.93408">
        <ele>598</ele>
        <time>2013-01-19T08:42:44Z</time>
      </trkpt>
      <trkpt lat="47.29495" lon="4.93413">
        <ele>598</ele>
        <time>2013-01-19T08:42:48Z</time>
      </trkpt>
      <trkpt lat="47.29499" lon="4.93419">
        <ele>597</ele>
        <time>2013-01-19T08:42:52Z</time>
      </trkpt>
      <trkpt lat="47.29506" lon="4.93427">
        <ele>592</ele>
        <time>2013-01-19T08:42:56Z</time>
      </trkpt>
      <trkpt lat="47.2951" lon="4.93432">
        <ele>590</ele>
        <time>2013-01-19T08:42:59Z</time>
      </trkpt>
      <trkpt lat="47.29513" lon="4.93437">
        <ele>589</ele>
        <time>2013-01-19T08:43:02Z</time>
      </trkpt>
      <trkpt lat="47.29517" lon="4.93446">
        <ele>586</ele>
        <time>2013-01-19T08:43:04Z</time>
      </trkpt>
      <trkpt lat="47.2952" lon="4.93453">
        <ele>583</ele>
        <time>2013-01-19T08:43:06Z</time>
      </trkpt>
      <trkpt lat="47.29521" lon="4.93459">
        <ele>582</ele>
        <time>2013-01-19T08:43:09Z</time>
      </trkpt>
      <trkpt lat="47.2952" lon="4.93466">
        <ele>582</ele>
        <time>2013-01-19T08:43:12Z</time>
      </trkpt>
      <trkpt lat="47.29519" lon="4.93473">
        <ele>582</ele>
        <time>2013-01-19T08:43:16Z</time>
      </trkpt>
      <trkpt lat="47.29516" lon="4.93478">
        <ele>582</ele>
        <time>2013-01-19T08:43:19Z</time>
      </trkpt>
      <trkpt lat="47.29518" lon="4.93485">
        <ele>581</ele>
        <time>2013-01-19T08:43:21Z</time>
      </trkpt>
      <trkpt lat="47.29519" lon="4.93492">
        <ele>577</ele>
        <time>2013-01-19T08:43:34Z</time>
      </trkpt>
      <trkpt lat="47.29519" lon="4.93492">
        <ele>577</ele>
        <time>2013-01-19T08:43:34Z</time>
      </trkpt>
      <trkpt lat="47.29519" lon="4.93492">
        <ele>574</ele>
        <time>2013-01-19T08:43:48Z</time>
      </trkpt>
      <trkpt lat="47.2952" lon="4.93498">
        <ele>571</ele>
        <time>2013-01-19T08:44:15Z</time>
      </trkpt>
      <trkpt lat="47.29524" lon="4.93502">
        <ele>569</ele>
        <time>2013-01-19T08:44:25Z</time>
      </trkpt>
      <trkpt lat="47.29524" lon="4.93502">
        <ele>569</ele>
        <time>2013-01-19T08:44:25Z</time>
      </trkpt>
      <trkpt lat="47.29524" lon="4.93502">
        <ele>570</ele>
        <time>2013-01-19T08:44:28Z</time>
      </trkpt>
      <trkpt lat="47.29526" lon="4.93509">
        <ele>567</ele>
        <time>2013-01-19T08:45:11Z</time>
      </trkpt>
      <trkpt lat="47.29528" lon="4.93515">
        <ele>567</ele>
        <time>2013-01-19T08:45:19Z</time>
      </trkpt>
      <trkpt lat="47.2953" lon="4.93521">
        <ele>565</ele>
        <time>2013-01-19T08:45:28Z</time>
      </trkpt>
      <trkpt lat="47.29527" lon="4.93526">
        <ele>570</ele>
        <time>2013-01-19T08:46:30Z</time>
      </trkpt>
      <trkpt lat="47.29528" lon="4.93533">
        <ele>569</ele>
        <time>2013-01-19T08:46:35Z</time>
      </trkpt>
      <trkpt lat="47.2953" lon="4.9354">
        <ele>569</ele>
        <time>2013-01-19T08:46:39Z</time>
      </trkpt>
      <trkpt lat="47.29534" lon="4.93547">
        <ele>567</ele>
        <time>2013-01-19T08:46:42Z</time>
      </trkpt>
      <trkpt lat="47.29536" lon="4.93558">
        <ele>566</ele>
        <time>2013-01-19T08:46:48Z</time>
      </trkpt>
      <trkpt lat="47.29539" lon="4.93562">
        <ele>564</ele>
        <time>2013-01-19T08:46:52Z</time>
      </trkpt>
      <trkpt lat="47.29542" lon="4.93568">
        <ele>561</ele>
        <time>2013-01-19T08:46:57Z</time>
      </trkpt>
      <trkpt lat="47.29547" lon="4.9357">
        <ele>560</ele>
        <time>2013-01-19T08:47:03Z</time>
      </trkpt>
      <trkpt lat="47.29557" lon="4.93574">
        <ele>559</ele>
        <time>2013-01-19T08:47:12Z</time>
      </trkpt>
      <trkpt lat="47.29562" lon="4.93572">
        <ele>560</ele>
        <time>2013-01-19T08:47:17Z</time>
      </trkpt>
      <trkpt lat="47.29568" lon="4.93573">
        <ele>560</ele>
        <time>2013-01-19T08:47:21Z</time>
      </trkpt>
      <trkpt lat="47.29573" lon="4.93574">
        <ele>559</ele>
        <time>2013-01-19T08:47:26Z</time>
      </trkpt>
      <trkpt lat="47.29578" lon="4.93573">
        <ele>560</ele>
        <time>2013-01-19T08:47:31Z</time>
      </trkpt>
      <trkpt lat="47.29584" lon="4.93573">
        <ele>561</ele>
        <time>2013-01-19T08:47:35Z</time>
      </trkpt>
      <trkpt lat="47.2959" lon="4.93572">
        <ele>560</ele>
        <time>2013-01-19T08:47:39Z</time>
      </trkpt>
      <trkpt lat="47.29594" lon="4.9357">
        <ele>560</ele>
        <time>2013-01-19T08:47:43Z</time>
      </trkpt>
      <trkpt lat="47.29599" lon="4.93568">
        <ele>562</ele>
        <time>2013-01-19T08:47:47Z</time>
      </trkpt>
      <trkpt lat="47.29604" lon="4.93567">
        <ele>562</ele>
        <time>2013-01-19T08:47:51Z</time>
      </trkpt>
      <trkpt lat="47.29608" lon="4.93564">
        <ele>562</ele>
        <time>2013-01-19T08:47:55Z</time>
      </trkpt>
      <trkpt lat="47.29612" lon="4.9356">
        <ele>563</ele>
        <time>2013-01-19T08:48:00Z</time>
      </trkpt>
      <trkpt lat="47.29616" lon="4.93556">
        <ele>565</ele>
        <time>2013-01-19T08:48:05Z</time>
      </trkpt>
      <trkpt lat="47.2962" lon="4.93552">
        <ele>565</ele>
        <time>2013-01-19T08:48:10Z</time>
      </trkpt>
      <trkpt lat="47.29624" lon="4.9355">
        <ele>566</ele>
        <time>2013-01-19T08:48:15Z</time>
      </trkpt>
      <trkpt lat="47.29628" lon="4.93546">
        <ele>567</ele>
        <time>2013-01-19T08:48:20Z</time>
      </trkpt>
      <trkpt lat="47.29632" lon="4.93541">
        <ele>568</ele>
        <time>2013-01-19T08:48:25Z</time>
      </trkpt>
      <trkpt lat="47.29636" lon="4.93538">
        <ele>568</ele>
        <time>2013-01-19T08:48:30Z</time>
      </trkpt>
      <trkpt lat="47.29639" lon="4.93533">
        <ele>569</ele>
        <time>2013-01-19T08:48:34Z</time>
      </trkpt>
      <trkpt lat="47.29643" lon="4.93528">
        <ele>571</ele>
        <time>2013-01-19T08:48:39Z</time>
      </trkpt>
      <trkpt lat="47.29648" lon="4.93523">
        <ele>572</ele>
        <time>2013-01-19T08:48:44Z</time>
      </trkpt>
      <trkpt lat="47.29652" lon="4.93519">
        <ele>571</ele>
        <time>2013-01-19T08:48:50Z</time>
      </trkpt>
      <trkpt lat="47.29657" lon="4.93518">
        <ele>568</ele>
        <time>2013-01-19T08:48:55Z</time>
      </trkpt>
      <trkpt lat="47.29661" lon="4.93513">
        <ele>569</ele>
        <time>2013-01-19T08:48:59Z</time>
      </trkpt>
      <trkpt lat="47.29665" lon="4.93508">
        <ele>571</ele>
        <time>2013-01-19T08:49:05Z</time>
      </trkpt>
      <trkpt lat="47.2967" lon="4.93504">
        <ele>573</ele>
        <time>2013-01-19T08:49:11Z</time>
      </trkpt>
      <trkpt lat="47.29675" lon="4.93502">
        <ele>574</ele>
        <time>2013-01-19T08:49:17Z</time>
      </trkpt>
      <trkpt lat="47.29679" lon="4.93497">
        <ele>582</ele>
        <time>2013-01-19T08:49:25Z</time>
      </trkpt>
      <trkpt lat="47.29683" lon="4.93494">
        <ele>583</ele>
        <time>2013-01-19T08:49:31Z</time>
      </trkpt>
      <trkpt lat="47.29686" lon="4.93489">
        <ele>583</ele>
        <time>2013-01-19T08:49:42Z</time>
      </trkpt>
      <trkpt lat="47.29691" lon="4.93488">
        <ele>584</ele>
        <time>2013-01-19T08:49:46Z</time>
      </trkpt>
      <trkpt lat="47.29696" lon="4.93489">
        <ele>584</ele>
        <time>2013-01-19T08:49:50Z</time>
      </trkpt>
      <trkpt lat="47.297" lon="4.93487">
        <ele>586</ele>
        <time>2013-01-19T08:49:58Z</time>
      </trkpt>
      <trkpt lat="47.297" lon="4.93487">
        <ele>586</ele>
        <time>2013-01-19T08:49:58Z</time>
      </trkpt>
      <trkpt lat="47.297" lon="4.93487">
        <ele>586</ele>
        <time>2013-01-19T08:49:59Z</time>
      </trkpt>
      <trkpt lat="47.29705" lon="4.93487">
        <ele>586</ele>
        <time>2013-01-19T08:50:05Z</time>
      </trkpt>
      <trkpt lat="47.29711" lon="4.93485">
        <ele>587</ele>
        <time>2013-01-19T08:50:11Z</time>
      </trkpt>
      <trkpt lat="47.29711" lon="4.93485">
        <ele>587</ele>
        <time>2013-01-19T08:50:11Z</time>
      </trkpt>
      <trkpt lat="47.29711" lon="4.93485">
        <ele>588</ele>
        <time>2013-01-19T08:50:13Z</time>
      </trkpt>
      <trkpt lat="47.29716" lon="4.93486">
        <ele>590</ele>
        <time>2013-01-19T08:50:21Z</time>
      </trkpt>
      <trkpt lat="47.29721" lon="4.93487">
        <ele>592</ele>
        <time>2013-01-19T08:50:26Z</time>
      </trkpt>
      <trkpt lat="47.29725" lon="4.9349">
        <ele>591</ele>
        <time>2013-01-19T08:50:30Z</time>
      </trkpt>
      <trkpt lat="47.2973" lon="4.9349">
        <ele>590</ele>
        <time>2013-01-19T08:50:35Z</time>
      </trkpt>
      <trkpt lat="47.29736" lon="4.93492">
        <ele>590</ele>
        <time>2013-01-19T08:50:40Z</time>
      </trkpt>
      <trkpt lat="47.29742" lon="4.93493">
        <ele>587</ele>
        <time>2013-01-19T08:50:46Z</time>
      </trkpt>
      <trkpt lat="47.29747" lon="4.93492">
        <ele>587</ele>
        <time>2013-01-19T08:50:51Z</time>
      </trkpt>
      <trkpt lat="47.29753" lon="4.9349">
        <ele>585</ele>
        <time>2013-01-19T08:50:57Z</time>
      </trkpt>
      <trkpt lat="47.29758" lon="4.93489">
        <ele>584</ele>
        <time>2013-01-19T08:51:02Z</time>
      </trkpt>
      <trkpt lat="47.29763" lon="4.93488">
        <ele>584</ele>
        <time>2013-01-19T08:51:06Z</time>
      </trkpt>
      <trkpt lat="47.29769" lon="4.93487">
        <ele>584</ele>
        <time>2013-01-19T08:51:10Z</time>
      </trkpt>
      <trkpt lat="47.29774" lon="4.93486">
        <ele>584</ele>
        <time>2013-01-19T08:51:15Z</time>
      </trkpt>
      <trkpt lat="47.29778" lon="4.93481">
        <ele>584</ele>
        <time>2013-01-19T08:51:20Z</time>
      </trkpt>
      <trkpt lat="47.29783" lon="4.93479">
        <ele>584</ele>
        <time>2013-01-19T08:51:24Z</time>
      </trkpt>
      <trkpt lat="47.29788" lon="4.93479">
        <ele>583</ele>
        <time>2013-01-19T08:51:29Z</time>
      </trkpt>
      <trkpt lat="47.29793" lon="4.93478">
        <ele>584</ele>
        <time>2013-01-19T08:51:34Z</time>
      </trkpt>
      <trkpt lat="47.29797" lon="4.93474">
        <ele>585</ele>
        <time>2013-01-19T08:51:38Z</time>
      </trkpt>
      <trkpt lat="47.29802" lon="4.93471">
        <ele>586</ele>
        <time>2013-01-19T08:51:44Z</time>
      </trkpt>
      <trkpt lat="47.29806" lon="4.93466">
        <ele>586</ele>
        <time>2013-01-19T08:51:51Z</time>
      </trkpt>
      <trkpt lat="47.2981" lon="4.93463">
        <ele>583</ele>
        <time>2013-01-19T08:51:55Z</time>
      </trkpt>
      <trkpt lat="47.29815" lon="4.93462">
        <ele>582</ele>
        <time>2013-01-19T08:52:00Z</time>
      </trkpt>
      <trkpt lat="47.29819" lon="4.93457">
        <ele>582</ele>
        <time>2013-01-19T08:52:05Z</time>
      </trkpt>
      <trkpt lat="47.29824" lon="4.93452">
        <ele>582</ele>
        <time>2013-01-19T08:52:10Z</time>
      </trkpt>
      <trkpt lat="47.29827" lon="4.93446">
        <ele>582</ele>
        <time>2013-01-19T08:52:15Z</time>
      </trkpt>
      <trkpt lat="47.29832" lon="4.93447">
        <ele>580</ele>
        <time>2013-01-19T08:52:20Z</time>
      </trkpt>
      <trkpt lat="47.29837" lon="4.93445">
        <ele>581</ele>
        <time>2013-01-19T08:52:25Z</time>
      </trkpt>
      <trkpt lat="47.29842" lon="4.93441">
        <ele>581</ele>
        <time>2013-01-19T08:52:29Z</time>
      </trkpt>
      <trkpt lat="47.29847" lon="4.93436">
        <ele>580</ele>
        <time>2013-01-19T08:52:34Z</time>
      </trkpt>
      <trkpt lat="47.29852" lon="4.93432">
        <ele>578</ele>
        <time>2013-01-19T08:52:37Z</time>
      </trkpt>
      <trkpt lat="47.29857" lon="4.93434">
        <ele>577</ele>
        <time>2013-01-19T08:52:40Z</time>
      </trkpt>
      <trkpt lat="47.2986" lon="4.93428">
        <ele>577</ele>
        <time>2013-01-19T08:52:45Z</time>
      </trkpt>
      <trkpt lat="47.29865" lon="4.93423">
        <ele>577</ele>
        <time>2013-01-19T08:52:49Z</time>
      </trkpt>
      <trkpt lat="47.29867" lon="4.93417">
        <ele>575</ele>
        <time>2013-01-19T08:52:54Z</time>
      </trkpt>
      <trkpt lat="47.29872" lon="4.93414">
        <ele>574</ele>
        <time>2013-01-19T08:52:57Z</time>
      </trkpt>
      <trkpt lat="47.29877" lon="4.93411">
        <ele>573</ele>
        <time>2013-01-19T08:53:01Z</time>
      </trkpt>
      <trkpt lat="47.29884" lon="4.93411">
        <ele>571</ele>
        <time>2013-01-19T08:53:07Z</time>
      </trkpt>
      <trkpt lat="47.29888" lon="4.93406">
        <ele>571</ele>
        <time>2013-01-19T08:53:12Z</time>
      </trkpt>
      <trkpt lat="47.29893" lon="4.93406">
        <ele>570</ele>
        <time>2013-01-19T08:53:17Z</time>
      </trkpt>
      <trkpt lat="47.29896" lon="4.934">
        <ele>568</ele>
        <time>2013-01-19T08:53:21Z</time>
      </trkpt>
      <trkpt lat="47.29901" lon="4.93397">
        <ele>565</ele>
        <time>2013-01-19T08:53:24Z</time>
      </trkpt>
      <trkpt lat="47.29905" lon="4.93393">
        <ele>564</ele>
        <time>2013-01-19T08:53:27Z</time>
      </trkpt>
      <trkpt lat="47.29905" lon="4.93385">
        <ele>565</ele>
        <time>2013-01-19T08:53:30Z</time>
      </trkpt>
      <trkpt lat="47.29908" lon="4.93378">
        <ele>565</ele>
        <time>2013-01-19T08:53:34Z</time>
      </trkpt>
      <trkpt lat="47.29912" lon="4.93372">
        <ele>562</ele>
        <time>2013-01-19T08:53:40Z</time>
      </trkpt>
      <trkpt lat="47.29915" lon="4.93366">
        <ele>560</ele>
        <time>2013-01-19T08:53:44Z</time>
      </trkpt>
      <trkpt lat="47.29918" lon="4.9336">
        <ele>559</ele>
        <time>2013-01-19T08:53:48Z</time>
      </trkpt>
      <trkpt lat="47.29921" lon="4.93354">
        <ele>559</ele>
        <time>2013-01-19T08:53:52Z</time>
      </trkpt>
      <trkpt lat="47.29922" lon="4.93347">
        <ele>559</ele>
        <time>2013-01-19T08:53:56Z</time>
      </trkpt>
      <trkpt lat="47.29924" lon="4.93341">
        <ele>558</ele>
        <time>2013-01-19T08:53:59Z</time>
      </trkpt>
      <trkpt lat="47.29927" lon="4.93332">
        <ele>558</ele>
        <time>2013-01-19T08:54:02Z</time>
      </trkpt>
      <trkpt lat="47.29931" lon="4.93328">
        <ele>559</ele>
        <time>2013-01-19T08:54:06Z</time>
      </trkpt>
      <trkpt lat="47.29932" lon="4.9332">
        <ele>560</ele>
        <time>2013-01-19T08:54:10Z</time>
      </trkpt>
      <trkpt lat="47.29935" lon="4.93313">
        <ele>559</ele>
        <time>2013-01-19T08:54:13Z</time>
      </trkpt>
      <trkpt lat="47.29938" lon="4.93308">
        <ele>558</ele>
        <time>2013-01-19T08:54:15Z</time>
      </trkpt>
      <trkpt lat="47.2994" lon="4.933">
        <ele>557</ele>
        <time>2013-01-19T08:54:19Z</time>
      </trkpt>
      <trkpt lat="47.29941" lon="4.93294">
        <ele>557</ele>
        <time>2013-01-19T08:54:23Z</time>
      </trkpt>
      <trkpt lat="47.29945" lon="4.93288">
        <ele>556</ele>
        <time>2013-01-19T08:54:29Z</time>
      </trkpt>
      <trkpt lat="47.29947" lon="4.93281">
        <ele>557</ele>
        <time>2013-01-19T08:54:33Z</time>
      </trkpt>
      <trkpt lat="47.2995" lon="4.93276">
        <ele>558</ele>
        <time>2013-01-19T08:54:36Z</time>
      </trkpt>
      <trkpt lat="47.29953" lon="4.93272">
        <ele>558</ele>
        <time>2013-01-19T08:54:40Z</time>
      </trkpt>
      <trkpt lat="47.29958" lon="4.93268">
        <ele>557</ele>
        <time>2013-01-19T08:54:44Z</time>
      </trkpt>
      <trkpt lat="47.29961" lon="4.93264">
        <ele>556</ele>
        <time>2013-01-19T08:54:47Z</time>
      </trkpt>
      <trkpt lat="47.29965" lon="4.93259">
        <ele>557</ele>
        <time>2013-01-19T08:54:51Z</time>
      </trkpt>
      <trkpt lat="47.29965" lon="4.93259">
        <ele>557</ele>
        <time>2013-01-19T08:54:51Z</time>
      </trkpt>
      <trkpt lat="47.29965" lon="4.93259">
        <ele>556</ele>
        <time>2013-01-19T08:54:52Z</time>
      </trkpt>
      <trkpt lat="47.29969" lon="4.93253">
        <ele>555</ele>
        <time>2013-01-19T08:54:57Z</time>
      </trkpt>
      <trkpt lat="47.29974" lon="4.9325">
        <ele>555</ele>
        <time>2013-01-19T08:55:03Z</time>
      </trkpt>
      <trkpt lat="47.29978" lon="4.93245">
        <ele>554</ele>
        <time>2013-01-19T08:55:11Z</time>
      </trkpt>
      <trkpt lat="47.29982" lon="4.9325">
        <ele>551</ele>
        <time>2013-01-19T08:55:14Z</time>
      </trkpt>
      <trkpt lat="47.29985" lon="4.93257">
        <ele>550</ele>
        <time>2013-01-19T08:55:17Z</time>
      </trkpt>
      <trkpt lat="47.29983" lon="4.93264">
        <ele>548</ele>
        <time>2013-01-19T08:55:20Z</time>
      </trkpt>
      <trkpt lat="47.29982" lon="4.9327">
        <ele>548</ele>
        <time>2013-01-19T08:55:24Z</time>
      </trkpt>
      <trkpt lat="47.29982" lon="4.93278">
        <ele>550</ele>
        <time>2013-01-19T08:55:28Z</time>
      </trkpt>
      <trkpt lat="47.29982" lon="4.93285">
        <ele>550</ele>
        <time>2013-01-19T08:55:32Z</time>
      </trkpt>
      <trkpt lat="47.29982" lon="4.93293">
        <ele>549</ele>
        <time>2013-01-19T08:55:36Z</time>
      </trkpt>
      <trkpt lat="47.29982" lon="4.93301">
        <ele>549</ele>
        <time>2013-01-19T08:55:40Z</time>
      </trkpt>
      <trkpt lat="47.29982" lon="4.93308">
        <ele>550</ele>
        <time>2013-01-19T08:55:43Z</time>
      </trkpt>
      <trkpt lat="47.29982" lon="4.93317">
        <ele>551</ele>
        <time>2013-01-19T08:55:47Z</time>
      </trkpt>
      <trkpt lat="47.2998" lon="4.93323">
        <ele>551</ele>
        <time>2013-01-19T08:55:50Z</time>
      </trkpt>
      <trkpt lat="47.2998" lon="4.93332">
        <ele>552</ele>
        <time>2013-01-19T08:55:54Z</time>
      </trkpt>
      <trkpt lat="47.2998" lon="4.93339">
        <ele>551</ele>
        <time>2013-01-19T08:55:58Z</time>
      </trkpt>
      <trkpt lat="47.29976" lon="4.93345">
        <ele>551</ele>
        <time>2013-01-19T08:56:02Z</time>
      </trkpt>
      <trkpt lat="47.29974" lon="4.93352">
        <ele>551</ele>
        <time>2013-01-19T08:56:05Z</time>
      </trkpt>
      <trkpt lat="47.29974" lon="4.93358">
        <ele>553</ele>
        <time>2013-01-19T08:56:10Z</time>
      </trkpt>
      <trkpt lat="47.29975" lon="4.93366">
        <ele>552</ele>
        <time>2013-01-19T08:56:13Z</time>
      </trkpt>
      <trkpt lat="47.29972" lon="4.93372">
        <ele>551</ele>
        <time>2013-01-19T08:56:16Z</time>
      </trkpt>
      <trkpt lat="47.29971" lon="4.93379">
        <ele>551</ele>
        <time>2013-01-19T08:56:19Z</time>
      </trkpt>
      <trkpt lat="47.29968" lon="4.93386">
        <ele>551</ele>
        <time>2013-01-19T08:56:22Z</time>
      </trkpt>
      <trkpt lat="47.29967" lon="4.93393">
        <ele>552</ele>
        <time>2013-01-19T08:56:27Z</time>
      </trkpt>
      <trkpt lat="47.29968" lon="4.934">
        <ele>552</ele>
        <time>2013-01-19T08:56:30Z</time>
      </trkpt>
      <trkpt lat="47.29965" lon="4.93406">
        <ele>554</ele>
        <time>2013-01-19T08:56:33Z</time>
      </trkpt>
      <trkpt lat="47.29963" lon="4.93413">
        <ele>555</ele>
        <time>2013-01-19T08:56:36Z</time>
      </trkpt>
      <trkpt lat="47.29962" lon="4.93419">
        <ele>555</ele>
        <time>2013-01-19T08:56:40Z</time>
      </trkpt>
      <trkpt lat="47.29962" lon="4.93426">
        <ele>556</ele>
        <time>2013-01-19T08:56:44Z</time>
      </trkpt>
      <trkpt lat="47.29959" lon="4.93431">
        <ele>555</ele>
        <time>2013-01-19T08:56:46Z</time>
      </trkpt>
      <trkpt lat="47.29956" lon="4.93437">
        <ele>553</ele>
        <time>2013-01-19T08:56:49Z</time>
      </trkpt>
      <trkpt lat="47.29952" lon="4.93442">
        <ele>552</ele>
        <time>2013-01-19T08:56:52Z</time>
      </trkpt>
      <trkpt lat="47.29947" lon="4.93447">
        <ele>552</ele>
        <time>2013-01-19T08:56:56Z</time>
      </trkpt>
      <trkpt lat="47.29944" lon="4.93452">
        <ele>551</ele>
        <time>2013-01-19T08:56:59Z</time>
      </trkpt>
      <trkpt lat="47.2994" lon="4.9346">
        <ele>550</ele>
        <time>2013-01-19T08:57:03Z</time>
      </trkpt>
      <trkpt lat="47.29936" lon="4.93463">
        <ele>550</ele>
        <time>2013-01-19T08:57:05Z</time>
      </trkpt>
      <trkpt lat="47.29932" lon="4.93468">
        <ele>548</ele>
        <time>2013-01-19T08:57:08Z</time>
      </trkpt>
      <trkpt lat="47.29928" lon="4.93472">
        <ele>546</ele>
        <time>2013-01-19T08:57:10Z</time>
      </trkpt>
      <trkpt lat="47.29923" lon="4.93475">
        <ele>545</ele>
        <time>2013-01-19T08:57:13Z</time>
      </trkpt>
      <trkpt lat="47.29919" lon="4.9348">
        <ele>543</ele>
        <time>2013-01-19T08:57:16Z</time>
      </trkpt>
      <trkpt lat="47.29914" lon="4.93484">
        <ele>542</ele>
        <time>2013-01-19T08:57:19Z</time>
      </trkpt>
      <trkpt lat="47.2991" lon="4.93488">
        <ele>542</ele>
        <time>2013-01-19T08:57:22Z</time>
      </trkpt>
      <trkpt lat="47.29907" lon="4.93493">
        <ele>542</ele>
        <time>2013-01-19T08:57:26Z</time>
      </trkpt>
      <trkpt lat="47.29903" lon="4.93495">
        <ele>543</ele>
        <time>2013-01-19T08:57:29Z</time>
      </trkpt>
      <trkpt lat="47.29899" lon="4.93499">
        <ele>543</ele>
        <time>2013-01-19T08:57:32Z</time>
      </trkpt>
      <trkpt lat="47.29895" lon="4.93505">
        <ele>543</ele>
        <time>2013-01-19T08:57:37Z</time>
      </trkpt>
      <trkpt lat="47.29891" lon="4.93509">
        <ele>542</ele>
        <time>2013-01-19T08:57:41Z</time>
      </trkpt>
      <trkpt lat="47.29885" lon="4.93511">
        <ele>542</ele>
        <time>2013-01-19T08:57:44Z</time>
      </trkpt>
      <trkpt lat="47.29882" lon="4.93517">
        <ele>541</ele>
        <time>2013-01-19T08:57:48Z</time>
      </trkpt>
      <trkpt lat="47.29877" lon="4.93523">
        <ele>542</ele>
        <time>2013-01-19T08:57:54Z</time>
      </trkpt>
      <trkpt lat="47.29873" lon="4.93526">
        <ele>542</ele>
        <time>2013-01-19T08:57:57Z</time>
      </trkpt>
      <trkpt lat="47.29868" lon="4.93531">
        <ele>542</ele>
        <time>2013-01-19T08:58:00Z</time>
      </trkpt>
      <trkpt lat="47.29863" lon="4.93535">
        <ele>541</ele>
        <time>2013-01-19T08:58:04Z</time>
      </trkpt>
      <trkpt lat="47.29861" lon="4.93542">
        <ele>543</ele>
        <time>2013-01-19T08:58:09Z</time>
      </trkpt>
      <trkpt lat="47.29857" lon="4.93547">
        <ele>540</ele>
        <time>2013-01-19T08:58:13Z</time>
      </trkpt>
      <trkpt lat="47.29852" lon="4.93553">
        <ele>542</ele>
        <time>2013-01-19T08:58:18Z</time>
      </trkpt>
      <trkpt lat="47.29847" lon="4.93557">
        <ele>542</ele>
        <time>2013-01-19T08:58:22Z</time>
      </trkpt>
      <trkpt lat="47.29842" lon="4.93562">
        <ele>541</ele>
        <time>2013-01-19T08:58:26Z</time>
      </trkpt>
      <trkpt lat="47.29838" lon="4.93566">
        <ele>541</ele>
        <time>2013-01-19T08:58:29Z</time>
      </trkpt>
      <trkpt lat="47.29835" lon="4.93571">
        <ele>542</ele>
        <time>2013-01-19T08:58:33Z</time>
      </trkpt>
      <trkpt lat="47.29832" lon="4.93577">
        <ele>541</ele>
        <time>2013-01-19T08:58:37Z</time>
      </trkpt>
      <trkpt lat="47.29827" lon="4.93579">
        <ele>541</ele>
        <time>2013-01-19T08:58:40Z</time>
      </trkpt>
      <trkpt lat="47.29823" lon="4.93586">
        <ele>543</ele>
        <time>2013-01-19T08:58:47Z</time>
      </trkpt>
      <trkpt lat="47.29819" lon="4.93591">
        <ele>543</ele>
        <time>2013-01-19T08:58:50Z</time>
      </trkpt>
      <trkpt lat="47.29814" lon="4.93594">
        <ele>542</ele>
        <time>2013-01-19T08:58:53Z</time>
      </trkpt>
      <trkpt lat="47.29811" lon="4.936">
        <ele>542</ele>
        <time>2013-01-19T08:58:58Z</time>
      </trkpt>
      <trkpt lat="47.29807" lon="4.93605">
        <ele>543</ele>
        <time>2013-01-19T08:59:03Z</time>
      </trkpt>
      <trkpt lat="47.29804" lon="4.9361">
        <ele>543</ele>
        <time>2013-01-19T08:59:08Z</time>
      </trkpt>
      <trkpt lat="47.29801" lon="4.93616">
        <ele>547</ele>
        <time>2013-01-19T08:59:40Z</time>
      </trkpt>
      <trkpt lat="47.29801" lon="4.93616">
        <ele>547</ele>
        <time>2013-01-19T08:59:40Z</time>
      </trkpt>
      <trkpt lat="47.29801" lon="4.93616">
        <ele>547</ele>
        <time>2013-01-19T08:59:41Z</time>
      </trkpt>
      <trkpt lat="47.29796" lon="4.93618">
        <ele>546</ele>
        <time>2013-01-19T08:59:49Z</time>
      </trkpt>
      <trkpt lat="47.29796" lon="4.93618">
        <ele>546</ele>
        <time>2013-01-19T08:59:49Z</time>
      </trkpt>
    </trkseg>
  </trk>
</gpx>